<?xml version="1.0" encoding="UTF-8" standalone="no" ?>
<gpx xmlns="http://www.topografix.com/GPX/1/1" xmlns:xsi="http://www.w3.org/2001/XMLSchema-instance" xsi:schemaLocation="http://www.topografix.com/GPX/1/1 http://www.topografix.com/GPX/1/1/gpx.xsd" version="1.1" creator="VisuGPX - https://www.visugpx.com">
  <metadata>
    <name>Base VRTT Gevaudan Lagogne</name>
  </metadata>
  <trk>
    <name><![CDATA[ESI0237 - CIRCUIT DES HUTTES]]></name>
    <extensions>
      <line xmlns="http://www.topografix.com/GPX/gpx_style/0/2">
        <color>fd214d</color>
        <width>4</width>
      </line>
    </extensions>
    <trkseg>
      <trkpt lat="44.72356" lon="3.85411">
        <ele>912.86871337891</ele>
        <time>2020-10-16T09:11:11.000Z</time>
      </trkpt>
      <trkpt lat="44.72357" lon="3.85407">
        <ele>912.86871337891</ele>
        <time>2020-10-16T09:11:11.001Z</time>
      </trkpt>
      <trkpt lat="44.72319" lon="3.85363">
        <ele>914.78674316406</ele>
        <time>2020-10-16T09:11:11.012Z</time>
      </trkpt>
      <trkpt lat="44.72305" lon="3.85358">
        <ele>915.34020996094</ele>
        <time>2020-10-16T09:11:11.025Z</time>
      </trkpt>
      <trkpt lat="44.72289" lon="3.85363">
        <ele>916.31378173828</ele>
        <time>2020-10-16T09:11:11.042Z</time>
      </trkpt>
      <trkpt lat="44.72277" lon="3.85381">
        <ele>919.29058837891</ele>
        <time>2020-10-16T09:11:11.062Z</time>
      </trkpt>
      <trkpt lat="44.72271" lon="3.8542">
        <ele>922.84338378906</ele>
        <time>2020-10-16T09:11:11.088Z</time>
      </trkpt>
      <trkpt lat="44.72272" lon="3.85497">
        <ele>926.18157958984</ele>
        <time>2020-10-16T09:11:11.125Z</time>
      </trkpt>
      <trkpt lat="44.72278" lon="3.85529">
        <ele>926.26745605469</ele>
        <time>2020-10-16T09:11:11.167Z</time>
      </trkpt>
      <trkpt lat="44.72316" lon="3.85575">
        <ele>923.79595947266</ele>
        <time>2020-10-16T09:11:11.219Z</time>
      </trkpt>
      <trkpt lat="44.72331" lon="3.85622">
        <ele>925.23443603516</ele>
        <time>2020-10-16T09:11:11.278Z</time>
      </trkpt>
      <trkpt lat="44.72306" lon="3.85627">
        <ele>927.7421875</ele>
        <time>2020-10-16T09:11:11.342Z</time>
      </trkpt>
      <trkpt lat="44.72301" lon="3.85628">
        <ele>927.78076171875</ele>
        <time>2020-10-16T09:11:11.407Z</time>
      </trkpt>
      <trkpt lat="44.72249" lon="3.85564">
        <ele>930.59356689453</ele>
        <time>2020-10-16T09:11:11.486Z</time>
      </trkpt>
      <trkpt lat="44.72223" lon="3.8555">
        <ele>933.24670410156</ele>
        <time>2020-10-16T09:11:11.571Z</time>
      </trkpt>
      <trkpt lat="44.72202" lon="3.8555">
        <ele>935.41021728516</ele>
        <time>2020-10-16T09:11:11.660Z</time>
      </trkpt>
      <trkpt lat="44.72198" lon="3.85546">
        <ele>935.49328613281</ele>
        <time>2020-10-16T09:11:11.750Z</time>
      </trkpt>
      <trkpt lat="44.72199" lon="3.85545">
        <ele>935.44635009766</ele>
        <time>2020-10-16T09:11:11.840Z</time>
      </trkpt>
      <trkpt lat="44.72193" lon="3.8554">
        <ele>935.60504150391</ele>
        <time>2020-10-16T09:11:11.931Z</time>
      </trkpt>
      <trkpt lat="44.72182" lon="3.85526">
        <ele>935.82427978516</ele>
        <time>2020-10-16T09:11:12.025Z</time>
      </trkpt>
      <trkpt lat="44.72164" lon="3.85508">
        <ele>935.91522216797</ele>
        <time>2020-10-16T09:11:12.124Z</time>
      </trkpt>
      <trkpt lat="44.72152" lon="3.85498">
        <ele>935.98229980469</ele>
        <time>2020-10-16T09:11:12.226Z</time>
      </trkpt>
      <trkpt lat="44.72131" lon="3.85482">
        <ele>936.16052246094</ele>
        <time>2020-10-16T09:11:12.333Z</time>
      </trkpt>
      <trkpt lat="44.72122" lon="3.85466">
        <ele>935.90100097656</ele>
        <time>2020-10-16T09:11:12.442Z</time>
      </trkpt>
      <trkpt lat="44.72109" lon="3.85445">
        <ele>934.9306640625</ele>
        <time>2020-10-16T09:11:12.555Z</time>
      </trkpt>
      <trkpt lat="44.72097" lon="3.85427">
        <ele>934.13439941406</ele>
        <time>2020-10-16T09:11:12.672Z</time>
      </trkpt>
      <trkpt lat="44.72081" lon="3.85408">
        <ele>933.28936767578</ele>
        <time>2020-10-16T09:11:12.793Z</time>
      </trkpt>
      <trkpt lat="44.7207" lon="3.854">
        <ele>932.84057617188</ele>
        <time>2020-10-16T09:11:12.917Z</time>
      </trkpt>
      <trkpt lat="44.72054" lon="3.85391">
        <ele>932.23413085938</ele>
        <time>2020-10-16T09:11:13.044Z</time>
      </trkpt>
      <trkpt lat="44.7203" lon="3.85374">
        <ele>931.92236328125</ele>
        <time>2020-10-16T09:11:13.176Z</time>
      </trkpt>
      <trkpt lat="44.72007" lon="3.85364">
        <ele>933.36431884766</ele>
        <time>2020-10-16T09:11:13.313Z</time>
      </trkpt>
      <trkpt lat="44.71988" lon="3.85355">
        <ele>934.53216552734</ele>
        <time>2020-10-16T09:11:13.454Z</time>
      </trkpt>
      <trkpt lat="44.71978" lon="3.85354">
        <ele>935.31146240234</ele>
        <time>2020-10-16T09:11:13.597Z</time>
      </trkpt>
      <trkpt lat="44.71961" lon="3.85353">
        <ele>936.53479003906</ele>
        <time>2020-10-16T09:11:13.744Z</time>
      </trkpt>
      <trkpt lat="44.71943" lon="3.85351">
        <ele>937.84967041016</ele>
        <time>2020-10-16T09:11:13.894Z</time>
      </trkpt>
      <trkpt lat="44.71926" lon="3.85352">
        <ele>939.23968505859</ele>
        <time>2020-10-16T09:11:14.047Z</time>
      </trkpt>
      <trkpt lat="44.71903" lon="3.85353">
        <ele>941.23486328125</ele>
        <time>2020-10-16T09:11:14.205Z</time>
      </trkpt>
      <trkpt lat="44.71895" lon="3.85349">
        <ele>941.87286376953</ele>
        <time>2020-10-16T09:11:14.365Z</time>
      </trkpt>
      <trkpt lat="44.71884" lon="3.85338">
        <ele>942.60809326172</ele>
        <time>2020-10-16T09:11:14.527Z</time>
      </trkpt>
      <trkpt lat="44.71868" lon="3.8532">
        <ele>943.75677490234</ele>
        <time>2020-10-16T09:11:14.694Z</time>
      </trkpt>
      <trkpt lat="44.71854" lon="3.85312">
        <ele>945.02374267578</ele>
        <time>2020-10-16T09:11:14.864Z</time>
      </trkpt>
      <trkpt lat="44.71842" lon="3.85311">
        <ele>946.18115234375</ele>
        <time>2020-10-16T09:11:15.036Z</time>
      </trkpt>
      <trkpt lat="44.7182" lon="3.85314">
        <ele>948.11016845703</ele>
        <time>2020-10-16T09:11:15.212Z</time>
      </trkpt>
      <trkpt lat="44.71807" lon="3.85312">
        <ele>949.0556640625</ele>
        <time>2020-10-16T09:11:15.391Z</time>
      </trkpt>
      <trkpt lat="44.71793" lon="3.85311">
        <ele>950.09851074219</ele>
        <time>2020-10-16T09:11:15.573Z</time>
      </trkpt>
      <trkpt lat="44.71778" lon="3.85307">
        <ele>951.25317382812</ele>
        <time>2020-10-16T09:11:15.758Z</time>
      </trkpt>
      <trkpt lat="44.71763" lon="3.85305">
        <ele>952.35333251953</ele>
        <time>2020-10-16T09:11:15.946Z</time>
      </trkpt>
      <trkpt lat="44.71747" lon="3.85304">
        <ele>953.53656005859</ele>
        <time>2020-10-16T09:11:16.137Z</time>
      </trkpt>
      <trkpt lat="44.71725" lon="3.85305">
        <ele>955.34210205078</ele>
        <time>2020-10-16T09:11:16.333Z</time>
      </trkpt>
      <trkpt lat="44.71719" lon="3.85307">
        <ele>955.95861816406</ele>
        <time>2020-10-16T09:11:16.530Z</time>
      </trkpt>
      <trkpt lat="44.71707" lon="3.8531">
        <ele>957.13732910156</ele>
        <time>2020-10-16T09:11:16.729Z</time>
      </trkpt>
      <trkpt lat="44.71685" lon="3.8532">
        <ele>959.84692382812</ele>
        <time>2020-10-16T09:11:16.933Z</time>
      </trkpt>
      <trkpt lat="44.71641" lon="3.85348">
        <ele>964.07641601562</ele>
        <time>2020-10-16T09:11:17.147Z</time>
      </trkpt>
      <trkpt lat="44.71625" lon="3.85357">
        <ele>965.486328125</ele>
        <time>2020-10-16T09:11:17.364Z</time>
      </trkpt>
      <trkpt lat="44.7161" lon="3.85361">
        <ele>966.65472412109</ele>
        <time>2020-10-16T09:11:17.584Z</time>
      </trkpt>
      <trkpt lat="44.71597" lon="3.85363">
        <ele>967.52099609375</ele>
        <time>2020-10-16T09:11:17.807Z</time>
      </trkpt>
      <trkpt lat="44.71589" lon="3.85362">
        <ele>968.07958984375</ele>
        <time>2020-10-16T09:11:18.031Z</time>
      </trkpt>
      <trkpt lat="44.71559" lon="3.85359">
        <ele>970.365234375</ele>
        <time>2020-10-16T09:11:18.261Z</time>
      </trkpt>
      <trkpt lat="44.71543" lon="3.85359">
        <ele>971.49328613281</ele>
        <time>2020-10-16T09:11:18.494Z</time>
      </trkpt>
      <trkpt lat="44.71536" lon="3.8536">
        <ele>971.87927246094</ele>
        <time>2020-10-16T09:11:18.729Z</time>
      </trkpt>
      <trkpt lat="44.71533" lon="3.8536">
        <ele>971.91027832031</ele>
        <time>2020-10-16T09:11:18.965Z</time>
      </trkpt>
      <trkpt lat="44.71514" lon="3.85364">
        <ele>971.99273681641</ele>
        <time>2020-10-16T09:11:19.204Z</time>
      </trkpt>
      <trkpt lat="44.71514" lon="3.85364">
        <ele>971.99304199219</ele>
        <time>2020-10-16T09:11:19.443Z</time>
      </trkpt>
      <trkpt lat="44.71504" lon="3.85367">
        <ele>972.00604248047</ele>
        <time>2020-10-16T09:11:19.684Z</time>
      </trkpt>
      <trkpt lat="44.71487" lon="3.85341">
        <ele>973.15881347656</ele>
        <time>2020-10-16T09:11:19.930Z</time>
      </trkpt>
      <trkpt lat="44.71474" lon="3.85323">
        <ele>973.94360351562</ele>
        <time>2020-10-16T09:11:20.180Z</time>
      </trkpt>
      <trkpt lat="44.71464" lon="3.85312">
        <ele>974.46740722656</ele>
        <time>2020-10-16T09:11:20.433Z</time>
      </trkpt>
      <trkpt lat="44.71441" lon="3.85293">
        <ele>975.89331054688</ele>
        <time>2020-10-16T09:11:20.691Z</time>
      </trkpt>
      <trkpt lat="44.71405" lon="3.85264">
        <ele>978.87628173828</ele>
        <time>2020-10-16T09:11:20.957Z</time>
      </trkpt>
      <trkpt lat="44.71361" lon="3.85226">
        <ele>982.79565429688</ele>
        <time>2020-10-16T09:11:21.234Z</time>
      </trkpt>
      <trkpt lat="44.71348" lon="3.85215">
        <ele>983.43646240234</ele>
        <time>2020-10-16T09:11:21.514Z</time>
      </trkpt>
      <trkpt lat="44.71307" lon="3.85182">
        <ele>985.4521484375</ele>
        <time>2020-10-16T09:11:21.803Z</time>
      </trkpt>
      <trkpt lat="44.71286" lon="3.85163">
        <ele>986.537109375</ele>
        <time>2020-10-16T09:11:22.097Z</time>
      </trkpt>
      <trkpt lat="44.71271" lon="3.85146">
        <ele>986.84985351562</ele>
        <time>2020-10-16T09:11:22.395Z</time>
      </trkpt>
      <trkpt lat="44.71257" lon="3.85122">
        <ele>987.59814453125</ele>
        <time>2020-10-16T09:11:22.697Z</time>
      </trkpt>
      <trkpt lat="44.71229" lon="3.85066">
        <ele>990.07537841797</ele>
        <time>2020-10-16T09:11:23.009Z</time>
      </trkpt>
      <trkpt lat="44.71212" lon="3.85036">
        <ele>991.47381591797</ele>
        <time>2020-10-16T09:11:23.327Z</time>
      </trkpt>
      <trkpt lat="44.71195" lon="3.8501">
        <ele>993.60821533203</ele>
        <time>2020-10-16T09:11:23.650Z</time>
      </trkpt>
      <trkpt lat="44.71182" lon="3.84991">
        <ele>995.99310302734</ele>
        <time>2020-10-16T09:11:23.976Z</time>
      </trkpt>
      <trkpt lat="44.71169" lon="3.84977">
        <ele>998.05084228516</ele>
        <time>2020-10-16T09:11:24.306Z</time>
      </trkpt>
      <trkpt lat="44.71157" lon="3.84967">
        <ele>999.77081298828</ele>
        <time>2020-10-16T09:11:24.638Z</time>
      </trkpt>
      <trkpt lat="44.71144" lon="3.84963">
        <ele>1001.3049926758</ele>
        <time>2020-10-16T09:11:24.973Z</time>
      </trkpt>
      <trkpt lat="44.71072" lon="3.84958">
        <ele>1007.6740722656</ele>
        <time>2020-10-16T09:11:25.323Z</time>
      </trkpt>
      <trkpt lat="44.71054" lon="3.84952">
        <ele>1009.6553955078</ele>
        <time>2020-10-16T09:11:25.676Z</time>
      </trkpt>
      <trkpt lat="44.71038" lon="3.84945">
        <ele>1011.3884277344</ele>
        <time>2020-10-16T09:11:26.033Z</time>
      </trkpt>
      <trkpt lat="44.71018" lon="3.84941">
        <ele>1012.4759521484</ele>
        <time>2020-10-16T09:11:26.394Z</time>
      </trkpt>
      <trkpt lat="44.70996" lon="3.84942">
        <ele>1013.1775512695</ele>
        <time>2020-10-16T09:11:26.759Z</time>
      </trkpt>
      <trkpt lat="44.70979" lon="3.84942">
        <ele>1013.876159668</ele>
        <time>2020-10-16T09:11:27.128Z</time>
      </trkpt>
      <trkpt lat="44.70958" lon="3.84938">
        <ele>1014.8801269531</ele>
        <time>2020-10-16T09:11:27.501Z</time>
      </trkpt>
      <trkpt lat="44.70928" lon="3.84931">
        <ele>1015.935546875</ele>
        <time>2020-10-16T09:11:27.880Z</time>
      </trkpt>
      <trkpt lat="44.7091" lon="3.84925">
        <ele>1016.5719604492</ele>
        <time>2020-10-16T09:11:28.262Z</time>
      </trkpt>
      <trkpt lat="44.70884" lon="3.84913">
        <ele>1017.5048828125</ele>
        <time>2020-10-16T09:11:28.650Z</time>
      </trkpt>
      <trkpt lat="44.70836" lon="3.84887">
        <ele>1019.2211303711</ele>
        <time>2020-10-16T09:11:29.048Z</time>
      </trkpt>
      <trkpt lat="44.70806" lon="3.84872">
        <ele>1020.323059082</ele>
        <time>2020-10-16T09:11:29.453Z</time>
      </trkpt>
      <trkpt lat="44.70793" lon="3.84866">
        <ele>1020.7415161133</ele>
        <time>2020-10-16T09:11:29.860Z</time>
      </trkpt>
      <trkpt lat="44.70783" lon="3.84858">
        <ele>1020.8765258789</ele>
        <time>2020-10-16T09:11:30.270Z</time>
      </trkpt>
      <trkpt lat="44.70778" lon="3.84851">
        <ele>1021.1684570312</ele>
        <time>2020-10-16T09:11:30.681Z</time>
      </trkpt>
      <trkpt lat="44.70771" lon="3.84846">
        <ele>1021.4108886719</ele>
        <time>2020-10-16T09:11:31.094Z</time>
      </trkpt>
      <trkpt lat="44.70758" lon="3.84842">
        <ele>1021.4662475586</ele>
        <time>2020-10-16T09:11:31.509Z</time>
      </trkpt>
      <trkpt lat="44.70703" lon="3.84823">
        <ele>1021.7304077148</ele>
        <time>2020-10-16T09:11:31.936Z</time>
      </trkpt>
      <trkpt lat="44.70683" lon="3.84811">
        <ele>1022.2338256836</ele>
        <time>2020-10-16T09:11:32.367Z</time>
      </trkpt>
      <trkpt lat="44.70646" lon="3.84788">
        <ele>1023.3257446289</ele>
        <time>2020-10-16T09:11:32.806Z</time>
      </trkpt>
      <trkpt lat="44.70616" lon="3.8477">
        <ele>1023.9762573242</ele>
        <time>2020-10-16T09:11:33.252Z</time>
      </trkpt>
      <trkpt lat="44.70567" lon="3.84746">
        <ele>1023.6926879883</ele>
        <time>2020-10-16T09:11:33.708Z</time>
      </trkpt>
      <trkpt lat="44.70548" lon="3.8474">
        <ele>1023.4531860352</ele>
        <time>2020-10-16T09:11:34.168Z</time>
      </trkpt>
      <trkpt lat="44.70534" lon="3.84739">
        <ele>1022.8668212891</ele>
        <time>2020-10-16T09:11:34.631Z</time>
      </trkpt>
      <trkpt lat="44.70508" lon="3.84742">
        <ele>1019.9776000977</ele>
        <time>2020-10-16T09:11:35.099Z</time>
      </trkpt>
      <trkpt lat="44.70489" lon="3.84745">
        <ele>1019.7651367188</ele>
        <time>2020-10-16T09:11:35.571Z</time>
      </trkpt>
      <trkpt lat="44.70467" lon="3.8475">
        <ele>1019.829284668</ele>
        <time>2020-10-16T09:11:36.047Z</time>
      </trkpt>
      <trkpt lat="44.70438" lon="3.84759">
        <ele>1019.3362426758</ele>
        <time>2020-10-16T09:11:36.529Z</time>
      </trkpt>
      <trkpt lat="44.70424" lon="3.84764">
        <ele>1019.2125244141</ele>
        <time>2020-10-16T09:11:37.014Z</time>
      </trkpt>
      <trkpt lat="44.70407" lon="3.84768">
        <ele>1018.9418334961</ele>
        <time>2020-10-16T09:11:37.502Z</time>
      </trkpt>
      <trkpt lat="44.7039" lon="3.84771">
        <ele>1018.5821533203</ele>
        <time>2020-10-16T09:11:37.994Z</time>
      </trkpt>
      <trkpt lat="44.70345" lon="3.84775">
        <ele>1017.9729614258</ele>
        <time>2020-10-16T09:11:38.495Z</time>
      </trkpt>
      <trkpt lat="44.70289" lon="3.84779">
        <ele>1018.0180053711</ele>
        <time>2020-10-16T09:11:39.007Z</time>
      </trkpt>
      <trkpt lat="44.70262" lon="3.84784">
        <ele>1019.6409301758</ele>
        <time>2020-10-16T09:11:39.525Z</time>
      </trkpt>
      <trkpt lat="44.70234" lon="3.84788">
        <ele>1021.3457641602</ele>
        <time>2020-10-16T09:11:40.048Z</time>
      </trkpt>
      <trkpt lat="44.7019" lon="3.84794">
        <ele>1023.0939941406</ele>
        <time>2020-10-16T09:11:40.580Z</time>
      </trkpt>
      <trkpt lat="44.70146" lon="3.84797">
        <ele>1022.6087036133</ele>
        <time>2020-10-16T09:11:41.121Z</time>
      </trkpt>
      <trkpt lat="44.70131" lon="3.84796">
        <ele>1022.259765625</ele>
        <time>2020-10-16T09:11:41.665Z</time>
      </trkpt>
      <trkpt lat="44.70022" lon="3.84768">
        <ele>1019.6616210938</ele>
        <time>2020-10-16T09:11:42.231Z</time>
      </trkpt>
      <trkpt lat="44.70003" lon="3.84766">
        <ele>1019.5396118164</ele>
        <time>2020-10-16T09:11:42.801Z</time>
      </trkpt>
      <trkpt lat="44.69961" lon="3.84764">
        <ele>1019.4225463867</ele>
        <time>2020-10-16T09:11:43.379Z</time>
      </trkpt>
      <trkpt lat="44.69875" lon="3.84761">
        <ele>1024.26953125</ele>
        <time>2020-10-16T09:11:43.974Z</time>
      </trkpt>
      <trkpt lat="44.69878" lon="3.84747">
        <ele>1023.5989990234</ele>
        <time>2020-10-16T09:11:44.571Z</time>
      </trkpt>
      <trkpt lat="44.69879" lon="3.84732">
        <ele>1023.0002441406</ele>
        <time>2020-10-16T09:11:45.171Z</time>
      </trkpt>
      <trkpt lat="44.69879" lon="3.84709">
        <ele>1022.16015625</ele>
        <time>2020-10-16T09:11:45.774Z</time>
      </trkpt>
      <trkpt lat="44.69878" lon="3.84677">
        <ele>1020.6262817383</ele>
        <time>2020-10-16T09:11:46.381Z</time>
      </trkpt>
      <trkpt lat="44.69876" lon="3.8465">
        <ele>1019.6038818359</ele>
        <time>2020-10-16T09:11:46.992Z</time>
      </trkpt>
      <trkpt lat="44.69871" lon="3.84625">
        <ele>1018.8473510742</ele>
        <time>2020-10-16T09:11:47.607Z</time>
      </trkpt>
      <trkpt lat="44.69866" lon="3.84607">
        <ele>1018.8659057617</ele>
        <time>2020-10-16T09:11:48.225Z</time>
      </trkpt>
      <trkpt lat="44.69862" lon="3.84586">
        <ele>1019.0927734375</ele>
        <time>2020-10-16T09:11:48.846Z</time>
      </trkpt>
      <trkpt lat="44.69866" lon="3.84564">
        <ele>1018.5950927734</ele>
        <time>2020-10-16T09:11:49.470Z</time>
      </trkpt>
      <trkpt lat="44.69882" lon="3.8452">
        <ele>1016.2982788086</ele>
        <time>2020-10-16T09:11:50.101Z</time>
      </trkpt>
      <trkpt lat="44.69891" lon="3.84497">
        <ele>1016.5848999023</ele>
        <time>2020-10-16T09:11:50.736Z</time>
      </trkpt>
      <trkpt lat="44.69894" lon="3.84485">
        <ele>1016.977355957</ele>
        <time>2020-10-16T09:11:51.373Z</time>
      </trkpt>
      <trkpt lat="44.69896" lon="3.84472">
        <ele>1017.6040649414</ele>
        <time>2020-10-16T09:11:52.012Z</time>
      </trkpt>
      <trkpt lat="44.699" lon="3.84446">
        <ele>1019.153503418</ele>
        <time>2020-10-16T09:11:52.654Z</time>
      </trkpt>
      <trkpt lat="44.69902" lon="3.84436">
        <ele>1019.5204467773</ele>
        <time>2020-10-16T09:11:53.298Z</time>
      </trkpt>
      <trkpt lat="44.6991" lon="3.84416">
        <ele>1019.3466186523</ele>
        <time>2020-10-16T09:11:53.945Z</time>
      </trkpt>
      <trkpt lat="44.69918" lon="3.84397">
        <ele>1019.1341552734</ele>
        <time>2020-10-16T09:11:54.595Z</time>
      </trkpt>
      <trkpt lat="44.69927" lon="3.84378">
        <ele>1019.151550293</ele>
        <time>2020-10-16T09:11:55.249Z</time>
      </trkpt>
      <trkpt lat="44.69934" lon="3.84359">
        <ele>1019.3822021484</ele>
        <time>2020-10-16T09:11:55.906Z</time>
      </trkpt>
      <trkpt lat="44.69939" lon="3.84332">
        <ele>1018.8707275391</ele>
        <time>2020-10-16T09:11:56.567Z</time>
      </trkpt>
      <trkpt lat="44.69945" lon="3.84309">
        <ele>1019.3161621094</ele>
        <time>2020-10-16T09:11:57.231Z</time>
      </trkpt>
      <trkpt lat="44.69945" lon="3.84293">
        <ele>1019.8560791016</ele>
        <time>2020-10-16T09:11:57.897Z</time>
      </trkpt>
      <trkpt lat="44.69942" lon="3.84275">
        <ele>1020.7135620117</ele>
        <time>2020-10-16T09:11:58.566Z</time>
      </trkpt>
      <trkpt lat="44.69938" lon="3.84251">
        <ele>1020.0584716797</ele>
        <time>2020-10-16T09:11:59.238Z</time>
      </trkpt>
      <trkpt lat="44.69936" lon="3.84234">
        <ele>1019.7116699219</ele>
        <time>2020-10-16T09:11:59.913Z</time>
      </trkpt>
      <trkpt lat="44.69936" lon="3.84217">
        <ele>1019.2970581055</ele>
        <time>2020-10-16T09:12:00.590Z</time>
      </trkpt>
      <trkpt lat="44.69938" lon="3.84201">
        <ele>1018.823425293</ele>
        <time>2020-10-16T09:12:01.270Z</time>
      </trkpt>
      <trkpt lat="44.69943" lon="3.84185">
        <ele>1017.8571777344</ele>
        <time>2020-10-16T09:12:01.952Z</time>
      </trkpt>
      <trkpt lat="44.69951" lon="3.84171">
        <ele>1016.7939453125</ele>
        <time>2020-10-16T09:12:02.637Z</time>
      </trkpt>
      <trkpt lat="44.69956" lon="3.84163">
        <ele>1016.2537231445</ele>
        <time>2020-10-16T09:12:03.323Z</time>
      </trkpt>
      <trkpt lat="44.69964" lon="3.84156">
        <ele>1015.346862793</ele>
        <time>2020-10-16T09:12:04.011Z</time>
      </trkpt>
      <trkpt lat="44.69962" lon="3.84137">
        <ele>1014.4071655273</ele>
        <time>2020-10-16T09:12:04.702Z</time>
      </trkpt>
      <trkpt lat="44.69956" lon="3.84124">
        <ele>1013.9206542969</ele>
        <time>2020-10-16T09:12:05.395Z</time>
      </trkpt>
      <trkpt lat="44.69947" lon="3.84107">
        <ele>1012.8631591797</ele>
        <time>2020-10-16T09:12:06.091Z</time>
      </trkpt>
      <trkpt lat="44.69939" lon="3.8409">
        <ele>1010.8395385742</ele>
        <time>2020-10-16T09:12:06.790Z</time>
      </trkpt>
      <trkpt lat="44.69928" lon="3.84073">
        <ele>1008.9356689453</ele>
        <time>2020-10-16T09:12:07.492Z</time>
      </trkpt>
      <trkpt lat="44.6992" lon="3.84069">
        <ele>1008.0407714844</ele>
        <time>2020-10-16T09:12:08.196Z</time>
      </trkpt>
      <trkpt lat="44.69901" lon="3.84065">
        <ele>1006.7416381836</ele>
        <time>2020-10-16T09:12:08.904Z</time>
      </trkpt>
      <trkpt lat="44.69888" lon="3.84065">
        <ele>1006.2151489258</ele>
        <time>2020-10-16T09:12:09.614Z</time>
      </trkpt>
      <trkpt lat="44.69876" lon="3.84064">
        <ele>1005.688659668</ele>
        <time>2020-10-16T09:12:10.327Z</time>
      </trkpt>
      <trkpt lat="44.69858" lon="3.84055">
        <ele>1004.9650268555</ele>
        <time>2020-10-16T09:12:11.044Z</time>
      </trkpt>
      <trkpt lat="44.69843" lon="3.84043">
        <ele>1004.1567993164</ele>
        <time>2020-10-16T09:12:11.764Z</time>
      </trkpt>
      <trkpt lat="44.69832" lon="3.84025">
        <ele>1002.6838378906</ele>
        <time>2020-10-16T09:12:12.487Z</time>
      </trkpt>
      <trkpt lat="44.69822" lon="3.84008">
        <ele>1000.8703613281</ele>
        <time>2020-10-16T09:12:13.214Z</time>
      </trkpt>
      <trkpt lat="44.69808" lon="3.83994">
        <ele>999.52502441406</ele>
        <time>2020-10-16T09:12:13.944Z</time>
      </trkpt>
      <trkpt lat="44.69796" lon="3.83976">
        <ele>997.57653808594</ele>
        <time>2020-10-16T09:12:14.678Z</time>
      </trkpt>
      <trkpt lat="44.69794" lon="3.83973">
        <ele>997.19702148438</ele>
        <time>2020-10-16T09:12:15.412Z</time>
      </trkpt>
      <trkpt lat="44.69791" lon="3.83971">
        <ele>997.01257324219</ele>
        <time>2020-10-16T09:12:16.147Z</time>
      </trkpt>
      <trkpt lat="44.69788" lon="3.83968">
        <ele>996.81597900391</ele>
        <time>2020-10-16T09:12:16.883Z</time>
      </trkpt>
      <trkpt lat="44.69772" lon="3.8396">
        <ele>994.72857666016</ele>
        <time>2020-10-16T09:12:17.622Z</time>
      </trkpt>
      <trkpt lat="44.69756" lon="3.83955">
        <ele>992.93377685547</ele>
        <time>2020-10-16T09:12:18.364Z</time>
      </trkpt>
      <trkpt lat="44.69737" lon="3.83947">
        <ele>990.46411132812</ele>
        <time>2020-10-16T09:12:19.110Z</time>
      </trkpt>
      <trkpt lat="44.69724" lon="3.83943">
        <ele>988.97564697266</ele>
        <time>2020-10-16T09:12:19.859Z</time>
      </trkpt>
      <trkpt lat="44.69714" lon="3.83939">
        <ele>987.71807861328</ele>
        <time>2020-10-16T09:12:20.610Z</time>
      </trkpt>
      <trkpt lat="44.69702" lon="3.83935">
        <ele>986.40850830078</ele>
        <time>2020-10-16T09:12:21.363Z</time>
      </trkpt>
      <trkpt lat="44.69702" lon="3.83935">
        <ele>986.30133056641</ele>
        <time>2020-10-16T09:12:22.117Z</time>
      </trkpt>
      <trkpt lat="44.69685" lon="3.83931">
        <ele>983.99719238281</ele>
        <time>2020-10-16T09:12:22.874Z</time>
      </trkpt>
      <trkpt lat="44.69676" lon="3.83929">
        <ele>982.73431396484</ele>
        <time>2020-10-16T09:12:23.633Z</time>
      </trkpt>
      <trkpt lat="44.69658" lon="3.83931">
        <ele>980.77496337891</ele>
        <time>2020-10-16T09:12:24.395Z</time>
      </trkpt>
      <trkpt lat="44.6964" lon="3.83937">
        <ele>979.13946533203</ele>
        <time>2020-10-16T09:12:25.161Z</time>
      </trkpt>
      <trkpt lat="44.69626" lon="3.83938">
        <ele>977.55505371094</ele>
        <time>2020-10-16T09:12:25.930Z</time>
      </trkpt>
      <trkpt lat="44.69625" lon="3.83938">
        <ele>977.50946044922</ele>
        <time>2020-10-16T09:12:26.699Z</time>
      </trkpt>
      <trkpt lat="44.69623" lon="3.83929">
        <ele>976.42364501953</ele>
        <time>2020-10-16T09:12:27.469Z</time>
      </trkpt>
      <trkpt lat="44.69626" lon="3.83913">
        <ele>975.17388916016</ele>
        <time>2020-10-16T09:12:28.242Z</time>
      </trkpt>
      <trkpt lat="44.69635" lon="3.83893">
        <ele>974.30828857422</ele>
        <time>2020-10-16T09:12:29.018Z</time>
      </trkpt>
      <trkpt lat="44.69657" lon="3.83857">
        <ele>972.80029296875</ele>
        <time>2020-10-16T09:12:29.801Z</time>
      </trkpt>
      <trkpt lat="44.6967" lon="3.8384">
        <ele>973.40704345703</ele>
        <time>2020-10-16T09:12:30.587Z</time>
      </trkpt>
      <trkpt lat="44.69685" lon="3.83829">
        <ele>973.83807373047</ele>
        <time>2020-10-16T09:12:31.377Z</time>
      </trkpt>
      <trkpt lat="44.69703" lon="3.8382">
        <ele>972.66735839844</ele>
        <time>2020-10-16T09:12:32.171Z</time>
      </trkpt>
      <trkpt lat="44.69708" lon="3.83817">
        <ele>972.54345703125</ele>
        <time>2020-10-16T09:12:32.966Z</time>
      </trkpt>
      <trkpt lat="44.69716" lon="3.8381">
        <ele>972.0234375</ele>
        <time>2020-10-16T09:12:33.763Z</time>
      </trkpt>
      <trkpt lat="44.69718" lon="3.8381">
        <ele>972.00952148438</ele>
        <time>2020-10-16T09:12:34.560Z</time>
      </trkpt>
      <trkpt lat="44.69719" lon="3.83792">
        <ele>969.89666748047</ele>
        <time>2020-10-16T09:12:35.359Z</time>
      </trkpt>
      <trkpt lat="44.69713" lon="3.83783">
        <ele>968.66607666016</ele>
        <time>2020-10-16T09:12:36.160Z</time>
      </trkpt>
      <trkpt lat="44.69699" lon="3.83771">
        <ele>967.17120361328</ele>
        <time>2020-10-16T09:12:36.964Z</time>
      </trkpt>
      <trkpt lat="44.69688" lon="3.8377">
        <ele>967.20654296875</ele>
        <time>2020-10-16T09:12:37.771Z</time>
      </trkpt>
      <trkpt lat="44.69677" lon="3.8377">
        <ele>967.24194335938</ele>
        <time>2020-10-16T09:12:38.580Z</time>
      </trkpt>
      <trkpt lat="44.69669" lon="3.83769">
        <ele>967.31121826172</ele>
        <time>2020-10-16T09:12:39.391Z</time>
      </trkpt>
      <trkpt lat="44.69661" lon="3.83756">
        <ele>968.59173583984</ele>
        <time>2020-10-16T09:12:40.204Z</time>
      </trkpt>
      <trkpt lat="44.69655" lon="3.83742">
        <ele>969.94635009766</ele>
        <time>2020-10-16T09:12:41.019Z</time>
      </trkpt>
      <trkpt lat="44.6965" lon="3.83726">
        <ele>971.49243164062</ele>
        <time>2020-10-16T09:12:41.837Z</time>
      </trkpt>
      <trkpt lat="44.69657" lon="3.83701">
        <ele>970.26879882812</ele>
        <time>2020-10-16T09:12:42.659Z</time>
      </trkpt>
      <trkpt lat="44.69671" lon="3.83684">
        <ele>967.24719238281</ele>
        <time>2020-10-16T09:12:43.484Z</time>
      </trkpt>
      <trkpt lat="44.69682" lon="3.83669">
        <ele>964.65795898438</ele>
        <time>2020-10-16T09:12:44.312Z</time>
      </trkpt>
      <trkpt lat="44.69685" lon="3.83652">
        <ele>962.54565429688</ele>
        <time>2020-10-16T09:12:45.143Z</time>
      </trkpt>
      <trkpt lat="44.6968" lon="3.83642">
        <ele>962.41790771484</ele>
        <time>2020-10-16T09:12:45.976Z</time>
      </trkpt>
      <trkpt lat="44.69664" lon="3.83636">
        <ele>964.54095458984</ele>
        <time>2020-10-16T09:12:46.812Z</time>
      </trkpt>
      <trkpt lat="44.69646" lon="3.83618">
        <ele>965.86993408203</ele>
        <time>2020-10-16T09:12:47.652Z</time>
      </trkpt>
      <trkpt lat="44.6963" lon="3.83598">
        <ele>966.63098144531</ele>
        <time>2020-10-16T09:12:48.497Z</time>
      </trkpt>
      <trkpt lat="44.69624" lon="3.83582">
        <ele>966.33782958984</ele>
        <time>2020-10-16T09:12:49.344Z</time>
      </trkpt>
      <trkpt lat="44.69618" lon="3.83567">
        <ele>966.06823730469</ele>
        <time>2020-10-16T09:12:50.194Z</time>
      </trkpt>
      <trkpt lat="44.69609" lon="3.83538">
        <ele>965.24078369141</ele>
        <time>2020-10-16T09:12:51.048Z</time>
      </trkpt>
      <trkpt lat="44.69601" lon="3.8351">
        <ele>965.28594970703</ele>
        <time>2020-10-16T09:12:51.906Z</time>
      </trkpt>
      <trkpt lat="44.69592" lon="3.83482">
        <ele>966.33508300781</ele>
        <time>2020-10-16T09:12:52.769Z</time>
      </trkpt>
      <trkpt lat="44.69584" lon="3.83454">
        <ele>967.30090332031</ele>
        <time>2020-10-16T09:12:53.636Z</time>
      </trkpt>
      <trkpt lat="44.69588" lon="3.83442">
        <ele>966.3037109375</ele>
        <time>2020-10-16T09:12:54.505Z</time>
      </trkpt>
      <trkpt lat="44.69591" lon="3.83442">
        <ele>965.57348632812</ele>
        <time>2020-10-16T09:12:55.375Z</time>
      </trkpt>
      <trkpt lat="44.69601" lon="3.83439">
        <ele>963.55737304688</ele>
        <time>2020-10-16T09:12:56.247Z</time>
      </trkpt>
      <trkpt lat="44.6963" lon="3.83431">
        <ele>960.33123779297</ele>
        <time>2020-10-16T09:12:57.125Z</time>
      </trkpt>
      <trkpt lat="44.69651" lon="3.83426">
        <ele>960.88323974609</ele>
        <time>2020-10-16T09:12:58.007Z</time>
      </trkpt>
      <trkpt lat="44.69666" lon="3.83427">
        <ele>961.23980712891</ele>
        <time>2020-10-16T09:12:58.892Z</time>
      </trkpt>
      <trkpt lat="44.69693" lon="3.83432">
        <ele>961.83221435547</ele>
        <time>2020-10-16T09:12:59.782Z</time>
      </trkpt>
      <trkpt lat="44.69711" lon="3.83433">
        <ele>964.45568847656</ele>
        <time>2020-10-16T09:13:00.676Z</time>
      </trkpt>
      <trkpt lat="44.6972" lon="3.83434">
        <ele>965.97711181641</ele>
        <time>2020-10-16T09:13:01.572Z</time>
      </trkpt>
      <trkpt lat="44.69728" lon="3.83436">
        <ele>966.93414306641</ele>
        <time>2020-10-16T09:13:02.469Z</time>
      </trkpt>
      <trkpt lat="44.69734" lon="3.8344">
        <ele>967.47503662109</ele>
        <time>2020-10-16T09:13:03.368Z</time>
      </trkpt>
      <trkpt lat="44.69761" lon="3.83461">
        <ele>969.47766113281</ele>
        <time>2020-10-16T09:13:04.273Z</time>
      </trkpt>
      <trkpt lat="44.69768" lon="3.83465">
        <ele>970.19976806641</ele>
        <time>2020-10-16T09:13:05.179Z</time>
      </trkpt>
      <trkpt lat="44.69772" lon="3.83465">
        <ele>970.87854003906</ele>
        <time>2020-10-16T09:13:06.086Z</time>
      </trkpt>
      <trkpt lat="44.69783" lon="3.83477">
        <ele>971.33508300781</ele>
        <time>2020-10-16T09:13:06.996Z</time>
      </trkpt>
      <trkpt lat="44.6979" lon="3.83486">
        <ele>971.01171875</ele>
        <time>2020-10-16T09:13:07.908Z</time>
      </trkpt>
      <trkpt lat="44.69797" lon="3.83491">
        <ele>970.96569824219</ele>
        <time>2020-10-16T09:13:08.822Z</time>
      </trkpt>
      <trkpt lat="44.69807" lon="3.83489">
        <ele>971.92950439453</ele>
        <time>2020-10-16T09:13:09.738Z</time>
      </trkpt>
      <trkpt lat="44.69822" lon="3.8348">
        <ele>974.17144775391</ele>
        <time>2020-10-16T09:13:10.657Z</time>
      </trkpt>
      <trkpt lat="44.69837" lon="3.83469">
        <ele>978.12890625</ele>
        <time>2020-10-16T09:13:11.579Z</time>
      </trkpt>
      <trkpt lat="44.6985" lon="3.83458">
        <ele>982.09283447266</ele>
        <time>2020-10-16T09:13:12.504Z</time>
      </trkpt>
      <trkpt lat="44.69864" lon="3.83449">
        <ele>986.162109375</ele>
        <time>2020-10-16T09:13:13.432Z</time>
      </trkpt>
      <trkpt lat="44.69873" lon="3.83444">
        <ele>987.84808349609</ele>
        <time>2020-10-16T09:13:14.362Z</time>
      </trkpt>
      <trkpt lat="44.69883" lon="3.83438">
        <ele>988.64056396484</ele>
        <time>2020-10-16T09:13:15.294Z</time>
      </trkpt>
      <trkpt lat="44.69892" lon="3.83429">
        <ele>989.84204101562</ele>
        <time>2020-10-16T09:13:16.229Z</time>
      </trkpt>
      <trkpt lat="44.69893" lon="3.83428">
        <ele>990.07019042969</ele>
        <time>2020-10-16T09:13:17.164Z</time>
      </trkpt>
      <trkpt lat="44.69906" lon="3.83409">
        <ele>992.74114990234</ele>
        <time>2020-10-16T09:13:18.103Z</time>
      </trkpt>
      <trkpt lat="44.69921" lon="3.83383">
        <ele>995.71069335938</ele>
        <time>2020-10-16T09:13:19.046Z</time>
      </trkpt>
      <trkpt lat="44.69926" lon="3.83369">
        <ele>997.13293457031</ele>
        <time>2020-10-16T09:13:19.992Z</time>
      </trkpt>
      <trkpt lat="44.69935" lon="3.83352">
        <ele>998.52532958984</ele>
        <time>2020-10-16T09:13:20.941Z</time>
      </trkpt>
      <trkpt lat="44.69945" lon="3.83346">
        <ele>998.05377197266</ele>
        <time>2020-10-16T09:13:21.892Z</time>
      </trkpt>
      <trkpt lat="44.69966" lon="3.8334">
        <ele>996.86193847656</ele>
        <time>2020-10-16T09:13:22.847Z</time>
      </trkpt>
      <trkpt lat="44.69993" lon="3.83333">
        <ele>995.25219726562</ele>
        <time>2020-10-16T09:13:23.808Z</time>
      </trkpt>
      <trkpt lat="44.70017" lon="3.83326">
        <ele>994.33367919922</ele>
        <time>2020-10-16T09:13:24.774Z</time>
      </trkpt>
      <trkpt lat="44.70029" lon="3.83319">
        <ele>994.67730712891</ele>
        <time>2020-10-16T09:13:25.742Z</time>
      </trkpt>
      <trkpt lat="44.7005" lon="3.83309">
        <ele>994.86047363281</ele>
        <time>2020-10-16T09:13:26.715Z</time>
      </trkpt>
      <trkpt lat="44.70076" lon="3.83294">
        <ele>995.865234375</ele>
        <time>2020-10-16T09:13:27.693Z</time>
      </trkpt>
      <trkpt lat="44.70095" lon="3.83282">
        <ele>997.58355712891</ele>
        <time>2020-10-16T09:13:28.675Z</time>
      </trkpt>
      <trkpt lat="44.70112" lon="3.83259">
        <ele>1000.7637939453</ele>
        <time>2020-10-16T09:13:29.662Z</time>
      </trkpt>
      <trkpt lat="44.70126" lon="3.8324">
        <ele>1003.6387329102</ele>
        <time>2020-10-16T09:13:30.653Z</time>
      </trkpt>
      <trkpt lat="44.7014" lon="3.83216">
        <ele>1006.4020996094</ele>
        <time>2020-10-16T09:13:31.649Z</time>
      </trkpt>
      <trkpt lat="44.70154" lon="3.83193">
        <ele>1007.8292236328</ele>
        <time>2020-10-16T09:13:32.649Z</time>
      </trkpt>
      <trkpt lat="44.70163" lon="3.83185">
        <ele>1007.7384643555</ele>
        <time>2020-10-16T09:13:33.651Z</time>
      </trkpt>
      <trkpt lat="44.70183" lon="3.8318">
        <ele>1006.0998535156</ele>
        <time>2020-10-16T09:13:34.657Z</time>
      </trkpt>
      <trkpt lat="44.70198" lon="3.83174">
        <ele>1004.7368774414</ele>
        <time>2020-10-16T09:13:35.666Z</time>
      </trkpt>
      <trkpt lat="44.70203" lon="3.83169">
        <ele>1004.4455566406</ele>
        <time>2020-10-16T09:13:36.676Z</time>
      </trkpt>
      <trkpt lat="44.70202" lon="3.83156">
        <ele>1005.5904541016</ele>
        <time>2020-10-16T09:13:37.688Z</time>
      </trkpt>
      <trkpt lat="44.70194" lon="3.83144">
        <ele>1007.5053100586</ele>
        <time>2020-10-16T09:13:38.703Z</time>
      </trkpt>
      <trkpt lat="44.70178" lon="3.83136">
        <ele>1010.1963500977</ele>
        <time>2020-10-16T09:13:39.721Z</time>
      </trkpt>
      <trkpt lat="44.70162" lon="3.83125">
        <ele>1012.9832763672</ele>
        <time>2020-10-16T09:13:40.742Z</time>
      </trkpt>
      <trkpt lat="44.70149" lon="3.83121">
        <ele>1015.1119995117</ele>
        <time>2020-10-16T09:13:41.766Z</time>
      </trkpt>
      <trkpt lat="44.70126" lon="3.8312">
        <ele>1017.9916992188</ele>
        <time>2020-10-16T09:13:42.795Z</time>
      </trkpt>
      <trkpt lat="44.701" lon="3.83117">
        <ele>1019.387512207</ele>
        <time>2020-10-16T09:13:43.829Z</time>
      </trkpt>
      <trkpt lat="44.70069" lon="3.83112">
        <ele>1020.5892944336</ele>
        <time>2020-10-16T09:13:44.869Z</time>
      </trkpt>
      <trkpt lat="44.70043" lon="3.83105">
        <ele>1021.9474487305</ele>
        <time>2020-10-16T09:13:45.915Z</time>
      </trkpt>
      <trkpt lat="44.70014" lon="3.83093">
        <ele>1024.6181640625</ele>
        <time>2020-10-16T09:13:46.967Z</time>
      </trkpt>
      <trkpt lat="44.69995" lon="3.83084">
        <ele>1026.5554199219</ele>
        <time>2020-10-16T09:13:48.023Z</time>
      </trkpt>
      <trkpt lat="44.69954" lon="3.83071">
        <ele>1029.6640625</ele>
        <time>2020-10-16T09:13:49.087Z</time>
      </trkpt>
      <trkpt lat="44.69918" lon="3.83058">
        <ele>1029.9356689453</ele>
        <time>2020-10-16T09:13:50.159Z</time>
      </trkpt>
      <trkpt lat="44.69873" lon="3.83042">
        <ele>1031.4146728516</ele>
        <time>2020-10-16T09:13:51.240Z</time>
      </trkpt>
      <trkpt lat="44.69843" lon="3.83029">
        <ele>1034.4022216797</ele>
        <time>2020-10-16T09:13:52.327Z</time>
      </trkpt>
      <trkpt lat="44.6979" lon="3.83006">
        <ele>1038.6384277344</ele>
        <time>2020-10-16T09:13:53.425Z</time>
      </trkpt>
      <trkpt lat="44.69775" lon="3.82996">
        <ele>1039.2491455078</ele>
        <time>2020-10-16T09:13:54.526Z</time>
      </trkpt>
      <trkpt lat="44.69754" lon="3.82976">
        <ele>1040.2177734375</ele>
        <time>2020-10-16T09:13:55.633Z</time>
      </trkpt>
      <trkpt lat="44.69725" lon="3.82943">
        <ele>1041.8253173828</ele>
        <time>2020-10-16T09:13:56.747Z</time>
      </trkpt>
      <trkpt lat="44.69717" lon="3.82931">
        <ele>1042.1959228516</ele>
        <time>2020-10-16T09:13:57.863Z</time>
      </trkpt>
      <trkpt lat="44.69711" lon="3.82917">
        <ele>1042.5163574219</ele>
        <time>2020-10-16T09:13:58.982Z</time>
      </trkpt>
      <trkpt lat="44.69705" lon="3.82905">
        <ele>1042.8106689453</ele>
        <time>2020-10-16T09:14:00.103Z</time>
      </trkpt>
      <trkpt lat="44.69693" lon="3.82887">
        <ele>1042.4053955078</ele>
        <time>2020-10-16T09:14:01.227Z</time>
      </trkpt>
      <trkpt lat="44.6969" lon="3.82877">
        <ele>1042.3831787109</ele>
        <time>2020-10-16T09:14:02.353Z</time>
      </trkpt>
      <trkpt lat="44.6969" lon="3.82867">
        <ele>1042.5555419922</ele>
        <time>2020-10-16T09:14:03.480Z</time>
      </trkpt>
      <trkpt lat="44.6969" lon="3.82824">
        <ele>1044.0629882812</ele>
        <time>2020-10-16T09:14:04.613Z</time>
      </trkpt>
      <trkpt lat="44.6969" lon="3.82817">
        <ele>1044.1319580078</ele>
        <time>2020-10-16T09:14:05.747Z</time>
      </trkpt>
      <trkpt lat="44.69688" lon="3.82813">
        <ele>1044.1461181641</ele>
        <time>2020-10-16T09:14:06.882Z</time>
      </trkpt>
      <trkpt lat="44.69683" lon="3.82802">
        <ele>1044.1550292969</ele>
        <time>2020-10-16T09:14:08.019Z</time>
      </trkpt>
      <trkpt lat="44.69671" lon="3.82784">
        <ele>1044.08203125</ele>
        <time>2020-10-16T09:14:09.159Z</time>
      </trkpt>
      <trkpt lat="44.69653" lon="3.82765">
        <ele>1043.888671875</ele>
        <time>2020-10-16T09:14:10.304Z</time>
      </trkpt>
      <trkpt lat="44.69641" lon="3.82754">
        <ele>1043.734375</ele>
        <time>2020-10-16T09:14:11.452Z</time>
      </trkpt>
      <trkpt lat="44.69628" lon="3.82744">
        <ele>1043.5324707031</ele>
        <time>2020-10-16T09:14:12.603Z</time>
      </trkpt>
      <trkpt lat="44.69611" lon="3.82734">
        <ele>1042.7419433594</ele>
        <time>2020-10-16T09:14:13.757Z</time>
      </trkpt>
      <trkpt lat="44.69603" lon="3.82731">
        <ele>1042.0480957031</ele>
        <time>2020-10-16T09:14:14.913Z</time>
      </trkpt>
      <trkpt lat="44.69601" lon="3.8273">
        <ele>1041.9112548828</ele>
        <time>2020-10-16T09:14:16.070Z</time>
      </trkpt>
      <trkpt lat="44.69592" lon="3.82728">
        <ele>1041.1533203125</ele>
        <time>2020-10-16T09:14:17.228Z</time>
      </trkpt>
      <trkpt lat="44.69585" lon="3.82726">
        <ele>1040.5828857422</ele>
        <time>2020-10-16T09:14:18.388Z</time>
      </trkpt>
      <trkpt lat="44.69585" lon="3.82717">
        <ele>1040.7288818359</ele>
        <time>2020-10-16T09:14:19.549Z</time>
      </trkpt>
      <trkpt lat="44.6959" lon="3.82668">
        <ele>1043.6877441406</ele>
        <time>2020-10-16T09:14:20.717Z</time>
      </trkpt>
      <trkpt lat="44.69592" lon="3.8264">
        <ele>1046.1593017578</ele>
        <time>2020-10-16T09:14:21.889Z</time>
      </trkpt>
      <trkpt lat="44.69592" lon="3.8263">
        <ele>1046.8703613281</ele>
        <time>2020-10-16T09:14:23.063Z</time>
      </trkpt>
      <trkpt lat="44.69591" lon="3.82615">
        <ele>1047.9499511719</ele>
        <time>2020-10-16T09:14:24.239Z</time>
      </trkpt>
      <trkpt lat="44.69589" lon="3.82588">
        <ele>1049.9281005859</ele>
        <time>2020-10-16T09:14:25.419Z</time>
      </trkpt>
      <trkpt lat="44.69588" lon="3.82581">
        <ele>1050.4768066406</ele>
        <time>2020-10-16T09:14:26.600Z</time>
      </trkpt>
      <trkpt lat="44.69584" lon="3.82568">
        <ele>1051.3983154297</ele>
        <time>2020-10-16T09:14:27.783Z</time>
      </trkpt>
      <trkpt lat="44.6958" lon="3.82569">
        <ele>1051.1533203125</ele>
        <time>2020-10-16T09:14:28.967Z</time>
      </trkpt>
      <trkpt lat="44.69577" lon="3.82569">
        <ele>1050.9720458984</ele>
        <time>2020-10-16T09:14:30.151Z</time>
      </trkpt>
      <trkpt lat="44.69573" lon="3.82569">
        <ele>1050.8170166016</ele>
        <time>2020-10-16T09:14:31.336Z</time>
      </trkpt>
      <trkpt lat="44.69569" lon="3.82568">
        <ele>1050.7214355469</ele>
        <time>2020-10-16T09:14:32.522Z</time>
      </trkpt>
      <trkpt lat="44.69565" lon="3.82566">
        <ele>1050.6667480469</ele>
        <time>2020-10-16T09:14:33.709Z</time>
      </trkpt>
      <trkpt lat="44.69561" lon="3.82564">
        <ele>1050.6403808594</ele>
        <time>2020-10-16T09:14:34.897Z</time>
      </trkpt>
      <trkpt lat="44.69557" lon="3.82562">
        <ele>1050.6333007812</ele>
        <time>2020-10-16T09:14:36.085Z</time>
      </trkpt>
      <trkpt lat="44.69554" lon="3.8256">
        <ele>1050.6329345703</ele>
        <time>2020-10-16T09:14:37.274Z</time>
      </trkpt>
      <trkpt lat="44.6955" lon="3.82558">
        <ele>1050.64453125</ele>
        <time>2020-10-16T09:14:38.464Z</time>
      </trkpt>
      <trkpt lat="44.69546" lon="3.82555">
        <ele>1050.6527099609</ele>
        <time>2020-10-16T09:14:39.655Z</time>
      </trkpt>
      <trkpt lat="44.69542" lon="3.82553">
        <ele>1050.6534423828</ele>
        <time>2020-10-16T09:14:40.847Z</time>
      </trkpt>
      <trkpt lat="44.69539" lon="3.82551">
        <ele>1050.6453857422</ele>
        <time>2020-10-16T09:14:42.039Z</time>
      </trkpt>
      <trkpt lat="44.69534" lon="3.82549">
        <ele>1050.6334228516</ele>
        <time>2020-10-16T09:14:43.232Z</time>
      </trkpt>
      <trkpt lat="44.69529" lon="3.82546">
        <ele>1050.6174316406</ele>
        <time>2020-10-16T09:14:44.426Z</time>
      </trkpt>
      <trkpt lat="44.69524" lon="3.82543">
        <ele>1050.6080322266</ele>
        <time>2020-10-16T09:14:45.622Z</time>
      </trkpt>
      <trkpt lat="44.69514" lon="3.82538">
        <ele>1050.5581054688</ele>
        <time>2020-10-16T09:14:46.820Z</time>
      </trkpt>
      <trkpt lat="44.6951" lon="3.82536">
        <ele>1050.5366210938</ele>
        <time>2020-10-16T09:14:48.019Z</time>
      </trkpt>
      <trkpt lat="44.69505" lon="3.82534">
        <ele>1050.5144042969</ele>
        <time>2020-10-16T09:14:49.219Z</time>
      </trkpt>
      <trkpt lat="44.69495" lon="3.82528">
        <ele>1050.4750976562</ele>
        <time>2020-10-16T09:14:50.421Z</time>
      </trkpt>
      <trkpt lat="44.69469" lon="3.82515">
        <ele>1049.9261474609</ele>
        <time>2020-10-16T09:14:51.628Z</time>
      </trkpt>
      <trkpt lat="44.69464" lon="3.82512">
        <ele>1049.7492675781</ele>
        <time>2020-10-16T09:14:52.836Z</time>
      </trkpt>
      <trkpt lat="44.69459" lon="3.82509">
        <ele>1049.5843505859</ele>
        <time>2020-10-16T09:14:54.045Z</time>
      </trkpt>
      <trkpt lat="44.69451" lon="3.82503">
        <ele>1049.2811279297</ele>
        <time>2020-10-16T09:14:55.256Z</time>
      </trkpt>
      <trkpt lat="44.69444" lon="3.82497">
        <ele>1048.8323974609</ele>
        <time>2020-10-16T09:14:56.469Z</time>
      </trkpt>
      <trkpt lat="44.69439" lon="3.82492">
        <ele>1048.5268554688</ele>
        <time>2020-10-16T09:14:57.683Z</time>
      </trkpt>
      <trkpt lat="44.69434" lon="3.82487">
        <ele>1048.1823730469</ele>
        <time>2020-10-16T09:14:58.898Z</time>
      </trkpt>
      <trkpt lat="44.69427" lon="3.82482">
        <ele>1047.7854003906</ele>
        <time>2020-10-16T09:15:00.115Z</time>
      </trkpt>
      <trkpt lat="44.69421" lon="3.82478">
        <ele>1047.3549804688</ele>
        <time>2020-10-16T09:15:01.333Z</time>
      </trkpt>
      <trkpt lat="44.69415" lon="3.82474">
        <ele>1046.9180908203</ele>
        <time>2020-10-16T09:15:02.553Z</time>
      </trkpt>
      <trkpt lat="44.69408" lon="3.8247">
        <ele>1046.4853515625</ele>
        <time>2020-10-16T09:15:03.774Z</time>
      </trkpt>
      <trkpt lat="44.69402" lon="3.82466">
        <ele>1046.0577392578</ele>
        <time>2020-10-16T09:15:04.996Z</time>
      </trkpt>
      <trkpt lat="44.69396" lon="3.82462">
        <ele>1045.6473388672</ele>
        <time>2020-10-16T09:15:06.220Z</time>
      </trkpt>
      <trkpt lat="44.69391" lon="3.82458">
        <ele>1045.2692871094</ele>
        <time>2020-10-16T09:15:07.445Z</time>
      </trkpt>
      <trkpt lat="44.69385" lon="3.82453">
        <ele>1044.9342041016</ele>
        <time>2020-10-16T09:15:08.671Z</time>
      </trkpt>
      <trkpt lat="44.6938" lon="3.82448">
        <ele>1044.6480712891</ele>
        <time>2020-10-16T09:15:09.898Z</time>
      </trkpt>
      <trkpt lat="44.69376" lon="3.82442">
        <ele>1044.4028320312</ele>
        <time>2020-10-16T09:15:11.127Z</time>
      </trkpt>
      <trkpt lat="44.69371" lon="3.82436">
        <ele>1044.2171630859</ele>
        <time>2020-10-16T09:15:12.357Z</time>
      </trkpt>
      <trkpt lat="44.69367" lon="3.82429">
        <ele>1044.2391357422</ele>
        <time>2020-10-16T09:15:13.588Z</time>
      </trkpt>
      <trkpt lat="44.69363" lon="3.82422">
        <ele>1044.33203125</ele>
        <time>2020-10-16T09:15:14.820Z</time>
      </trkpt>
      <trkpt lat="44.69358" lon="3.82415">
        <ele>1044.4427490234</ele>
        <time>2020-10-16T09:15:16.054Z</time>
      </trkpt>
      <trkpt lat="44.69354" lon="3.82407">
        <ele>1044.5556640625</ele>
        <time>2020-10-16T09:15:17.289Z</time>
      </trkpt>
      <trkpt lat="44.69349" lon="3.82399">
        <ele>1044.6599121094</ele>
        <time>2020-10-16T09:15:18.526Z</time>
      </trkpt>
      <trkpt lat="44.69344" lon="3.82392">
        <ele>1044.7626953125</ele>
        <time>2020-10-16T09:15:19.764Z</time>
      </trkpt>
      <trkpt lat="44.6934" lon="3.82385">
        <ele>1044.8623046875</ele>
        <time>2020-10-16T09:15:21.004Z</time>
      </trkpt>
      <trkpt lat="44.69335" lon="3.82377">
        <ele>1044.9586181641</ele>
        <time>2020-10-16T09:15:22.245Z</time>
      </trkpt>
      <trkpt lat="44.69331" lon="3.8237">
        <ele>1045.0550537109</ele>
        <time>2020-10-16T09:15:23.487Z</time>
      </trkpt>
      <trkpt lat="44.69326" lon="3.82363">
        <ele>1045.1550292969</ele>
        <time>2020-10-16T09:15:24.731Z</time>
      </trkpt>
      <trkpt lat="44.69322" lon="3.82356">
        <ele>1045.2681884766</ele>
        <time>2020-10-16T09:15:25.976Z</time>
      </trkpt>
      <trkpt lat="44.69318" lon="3.82348">
        <ele>1045.2088623047</ele>
        <time>2020-10-16T09:15:27.222Z</time>
      </trkpt>
      <trkpt lat="44.69313" lon="3.82341">
        <ele>1045.1420898438</ele>
        <time>2020-10-16T09:15:28.470Z</time>
      </trkpt>
      <trkpt lat="44.6931" lon="3.82333">
        <ele>1045.0944824219</ele>
        <time>2020-10-16T09:15:29.719Z</time>
      </trkpt>
      <trkpt lat="44.69305" lon="3.82325">
        <ele>1045.0372314453</ele>
        <time>2020-10-16T09:15:30.970Z</time>
      </trkpt>
      <trkpt lat="44.69301" lon="3.82317">
        <ele>1044.9993896484</ele>
        <time>2020-10-16T09:15:32.222Z</time>
      </trkpt>
      <trkpt lat="44.69294" lon="3.823">
        <ele>1044.9138183594</ele>
        <time>2020-10-16T09:15:33.477Z</time>
      </trkpt>
      <trkpt lat="44.6929" lon="3.82292">
        <ele>1044.8701171875</ele>
        <time>2020-10-16T09:15:34.733Z</time>
      </trkpt>
      <trkpt lat="44.69286" lon="3.82284">
        <ele>1044.9528808594</ele>
        <time>2020-10-16T09:15:35.991Z</time>
      </trkpt>
      <trkpt lat="44.69281" lon="3.82277">
        <ele>1045.4918212891</ele>
        <time>2020-10-16T09:15:37.250Z</time>
      </trkpt>
      <trkpt lat="44.69276" lon="3.8227">
        <ele>1046.1805419922</ele>
        <time>2020-10-16T09:15:38.510Z</time>
      </trkpt>
      <trkpt lat="44.6927" lon="3.82264">
        <ele>1047.1060791016</ele>
        <time>2020-10-16T09:15:39.772Z</time>
      </trkpt>
      <trkpt lat="44.69263" lon="3.8226">
        <ele>1047.9731445312</ele>
        <time>2020-10-16T09:15:41.035Z</time>
      </trkpt>
      <trkpt lat="44.69257" lon="3.82257">
        <ele>1048.7691650391</ele>
        <time>2020-10-16T09:15:42.300Z</time>
      </trkpt>
      <trkpt lat="44.6925" lon="3.82255">
        <ele>1049.5203857422</ele>
        <time>2020-10-16T09:15:43.566Z</time>
      </trkpt>
      <trkpt lat="44.69243" lon="3.82254">
        <ele>1050.2495117188</ele>
        <time>2020-10-16T09:15:44.833Z</time>
      </trkpt>
      <trkpt lat="44.69236" lon="3.82254">
        <ele>1050.9495849609</ele>
        <time>2020-10-16T09:15:46.102Z</time>
      </trkpt>
      <trkpt lat="44.69229" lon="3.82254">
        <ele>1051.6186523438</ele>
        <time>2020-10-16T09:15:47.372Z</time>
      </trkpt>
      <trkpt lat="44.69222" lon="3.82254">
        <ele>1052.2731933594</ele>
        <time>2020-10-16T09:15:48.644Z</time>
      </trkpt>
      <trkpt lat="44.69215" lon="3.82254">
        <ele>1052.9575195312</ele>
        <time>2020-10-16T09:15:49.917Z</time>
      </trkpt>
      <trkpt lat="44.69213" lon="3.82254">
        <ele>1053.1519775391</ele>
        <time>2020-10-16T09:15:51.190Z</time>
      </trkpt>
      <trkpt lat="44.69208" lon="3.82254">
        <ele>1053.6414794922</ele>
        <time>2020-10-16T09:15:52.464Z</time>
      </trkpt>
      <trkpt lat="44.69201" lon="3.82253">
        <ele>1054.0495605469</ele>
        <time>2020-10-16T09:15:53.740Z</time>
      </trkpt>
      <trkpt lat="44.69194" lon="3.82253">
        <ele>1053.8349609375</ele>
        <time>2020-10-16T09:15:55.017Z</time>
      </trkpt>
      <trkpt lat="44.69187" lon="3.82252">
        <ele>1053.6262207031</ele>
        <time>2020-10-16T09:15:56.296Z</time>
      </trkpt>
      <trkpt lat="44.6918" lon="3.82251">
        <ele>1053.4567871094</ele>
        <time>2020-10-16T09:15:57.576Z</time>
      </trkpt>
      <trkpt lat="44.69173" lon="3.8225">
        <ele>1053.3293457031</ele>
        <time>2020-10-16T09:15:58.858Z</time>
      </trkpt>
      <trkpt lat="44.69165" lon="3.82249">
        <ele>1053.2038574219</ele>
        <time>2020-10-16T09:16:00.141Z</time>
      </trkpt>
      <trkpt lat="44.6915" lon="3.82247">
        <ele>1052.9488525391</ele>
        <time>2020-10-16T09:16:01.427Z</time>
      </trkpt>
      <trkpt lat="44.69135" lon="3.82244">
        <ele>1052.7005615234</ele>
        <time>2020-10-16T09:16:02.716Z</time>
      </trkpt>
      <trkpt lat="44.69128" lon="3.82243">
        <ele>1052.5888671875</ele>
        <time>2020-10-16T09:16:04.006Z</time>
      </trkpt>
      <trkpt lat="44.69121" lon="3.82241">
        <ele>1052.5164794922</ele>
        <time>2020-10-16T09:16:05.298Z</time>
      </trkpt>
      <trkpt lat="44.69111" lon="3.82238">
        <ele>1052.3272705078</ele>
        <time>2020-10-16T09:16:06.592Z</time>
      </trkpt>
      <trkpt lat="44.69103" lon="3.82236">
        <ele>1052.1352539062</ele>
        <time>2020-10-16T09:16:07.888Z</time>
      </trkpt>
      <trkpt lat="44.69094" lon="3.82236">
        <ele>1051.8146972656</ele>
        <time>2020-10-16T09:16:09.185Z</time>
      </trkpt>
      <trkpt lat="44.69087" lon="3.82239">
        <ele>1051.4273681641</ele>
        <time>2020-10-16T09:16:10.484Z</time>
      </trkpt>
      <trkpt lat="44.69079" lon="3.82243">
        <ele>1051.4879150391</ele>
        <time>2020-10-16T09:16:11.785Z</time>
      </trkpt>
      <trkpt lat="44.69072" lon="3.82251">
        <ele>1051.5765380859</ele>
        <time>2020-10-16T09:16:13.087Z</time>
      </trkpt>
      <trkpt lat="44.69065" lon="3.82258">
        <ele>1051.6558837891</ele>
        <time>2020-10-16T09:16:14.391Z</time>
      </trkpt>
      <trkpt lat="44.69057" lon="3.8227">
        <ele>1051.7513427734</ele>
        <time>2020-10-16T09:16:15.697Z</time>
      </trkpt>
      <trkpt lat="44.6905" lon="3.8228">
        <ele>1051.1975097656</ele>
        <time>2020-10-16T09:16:17.005Z</time>
      </trkpt>
      <trkpt lat="44.69043" lon="3.8229">
        <ele>1051.5379638672</ele>
        <time>2020-10-16T09:16:18.315Z</time>
      </trkpt>
      <trkpt lat="44.69029" lon="3.82311">
        <ele>1053.9763183594</ele>
        <time>2020-10-16T09:16:19.630Z</time>
      </trkpt>
      <trkpt lat="44.69023" lon="3.82321">
        <ele>1055.4129638672</ele>
        <time>2020-10-16T09:16:20.946Z</time>
      </trkpt>
      <trkpt lat="44.69016" lon="3.82332">
        <ele>1056.80859375</ele>
        <time>2020-10-16T09:16:22.264Z</time>
      </trkpt>
      <trkpt lat="44.6901" lon="3.82342">
        <ele>1058.4990234375</ele>
        <time>2020-10-16T09:16:23.584Z</time>
      </trkpt>
      <trkpt lat="44.69004" lon="3.82352">
        <ele>1060.2651367188</ele>
        <time>2020-10-16T09:16:24.906Z</time>
      </trkpt>
      <trkpt lat="44.68998" lon="3.82361">
        <ele>1061.6268310547</ele>
        <time>2020-10-16T09:16:26.230Z</time>
      </trkpt>
      <trkpt lat="44.68991" lon="3.82371">
        <ele>1062.7136230469</ele>
        <time>2020-10-16T09:16:27.556Z</time>
      </trkpt>
      <trkpt lat="44.68985" lon="3.82381">
        <ele>1063.7921142578</ele>
        <time>2020-10-16T09:16:28.884Z</time>
      </trkpt>
      <trkpt lat="44.6896" lon="3.82418">
        <ele>1069.4571533203</ele>
        <time>2020-10-16T09:16:30.219Z</time>
      </trkpt>
      <trkpt lat="44.6894" lon="3.82452">
        <ele>1071.7843017578</ele>
        <time>2020-10-16T09:16:31.560Z</time>
      </trkpt>
      <trkpt lat="44.68922" lon="3.82479">
        <ele>1072.51953125</ele>
        <time>2020-10-16T09:16:32.907Z</time>
      </trkpt>
      <trkpt lat="44.68911" lon="3.82495">
        <ele>1072.4805908203</ele>
        <time>2020-10-16T09:16:34.257Z</time>
      </trkpt>
      <trkpt lat="44.68887" lon="3.82518">
        <ele>1072.2915039062</ele>
        <time>2020-10-16T09:16:35.613Z</time>
      </trkpt>
      <trkpt lat="44.68857" lon="3.82541">
        <ele>1071.3419189453</ele>
        <time>2020-10-16T09:16:36.975Z</time>
      </trkpt>
      <trkpt lat="44.68841" lon="3.82556">
        <ele>1070.0861816406</ele>
        <time>2020-10-16T09:16:38.341Z</time>
      </trkpt>
      <trkpt lat="44.68819" lon="3.8257">
        <ele>1068.6721191406</ele>
        <time>2020-10-16T09:16:39.712Z</time>
      </trkpt>
      <trkpt lat="44.68798" lon="3.82581">
        <ele>1067.0894775391</ele>
        <time>2020-10-16T09:16:41.088Z</time>
      </trkpt>
      <trkpt lat="44.68766" lon="3.82596">
        <ele>1065.6505126953</ele>
        <time>2020-10-16T09:16:42.470Z</time>
      </trkpt>
      <trkpt lat="44.68733" lon="3.82612">
        <ele>1064.0998535156</ele>
        <time>2020-10-16T09:16:43.859Z</time>
      </trkpt>
      <trkpt lat="44.68705" lon="3.82622">
        <ele>1062.8660888672</ele>
        <time>2020-10-16T09:16:45.254Z</time>
      </trkpt>
      <trkpt lat="44.68679" lon="3.82633">
        <ele>1060.8404541016</ele>
        <time>2020-10-16T09:16:46.655Z</time>
      </trkpt>
      <trkpt lat="44.6866" lon="3.8264">
        <ele>1059.3638916016</ele>
        <time>2020-10-16T09:16:48.060Z</time>
      </trkpt>
      <trkpt lat="44.68654" lon="3.82638">
        <ele>1059.4957275391</ele>
        <time>2020-10-16T09:16:49.466Z</time>
      </trkpt>
      <trkpt lat="44.68649" lon="3.82638">
        <ele>1059.5314941406</ele>
        <time>2020-10-16T09:16:50.873Z</time>
      </trkpt>
      <trkpt lat="44.68643" lon="3.82637">
        <ele>1059.5948486328</ele>
        <time>2020-10-16T09:16:52.281Z</time>
      </trkpt>
      <trkpt lat="44.68637" lon="3.82637">
        <ele>1059.5902099609</ele>
        <time>2020-10-16T09:16:53.690Z</time>
      </trkpt>
      <trkpt lat="44.68625" lon="3.82637">
        <ele>1059.5441894531</ele>
        <time>2020-10-16T09:16:55.102Z</time>
      </trkpt>
      <trkpt lat="44.6862" lon="3.82637">
        <ele>1059.5727539062</ele>
        <time>2020-10-16T09:16:56.515Z</time>
      </trkpt>
      <trkpt lat="44.68615" lon="3.82637">
        <ele>1059.4593505859</ele>
        <time>2020-10-16T09:16:57.929Z</time>
      </trkpt>
      <trkpt lat="44.68605" lon="3.82636">
        <ele>1059.3723144531</ele>
        <time>2020-10-16T09:16:59.345Z</time>
      </trkpt>
      <trkpt lat="44.68593" lon="3.82634">
        <ele>1059.2481689453</ele>
        <time>2020-10-16T09:17:00.763Z</time>
      </trkpt>
      <trkpt lat="44.68581" lon="3.82632">
        <ele>1059.1702880859</ele>
        <time>2020-10-16T09:17:02.183Z</time>
      </trkpt>
      <trkpt lat="44.68575" lon="3.82631">
        <ele>1059.12109375</ele>
        <time>2020-10-16T09:17:03.605Z</time>
      </trkpt>
      <trkpt lat="44.68568" lon="3.8263">
        <ele>1059.0942382812</ele>
        <time>2020-10-16T09:17:05.028Z</time>
      </trkpt>
      <trkpt lat="44.68563" lon="3.82629">
        <ele>1059.0850830078</ele>
        <time>2020-10-16T09:17:06.452Z</time>
      </trkpt>
      <trkpt lat="44.68557" lon="3.82628">
        <ele>1059.0593261719</ele>
        <time>2020-10-16T09:17:07.877Z</time>
      </trkpt>
      <trkpt lat="44.68552" lon="3.82627">
        <ele>1059.021484375</ele>
        <time>2020-10-16T09:17:09.303Z</time>
      </trkpt>
      <trkpt lat="44.68547" lon="3.82626">
        <ele>1058.9287109375</ele>
        <time>2020-10-16T09:17:10.730Z</time>
      </trkpt>
      <trkpt lat="44.68541" lon="3.82626">
        <ele>1058.6787109375</ele>
        <time>2020-10-16T09:17:12.159Z</time>
      </trkpt>
      <trkpt lat="44.68536" lon="3.82609">
        <ele>1060.5336914062</ele>
        <time>2020-10-16T09:17:13.590Z</time>
      </trkpt>
      <trkpt lat="44.68529" lon="3.82589">
        <ele>1062.2453613281</ele>
        <time>2020-10-16T09:17:15.024Z</time>
      </trkpt>
      <trkpt lat="44.68526" lon="3.82582">
        <ele>1062.7398681641</ele>
        <time>2020-10-16T09:17:16.459Z</time>
      </trkpt>
      <trkpt lat="44.68524" lon="3.8258">
        <ele>1062.8121337891</ele>
        <time>2020-10-16T09:17:17.895Z</time>
      </trkpt>
      <trkpt lat="44.68522" lon="3.8257">
        <ele>1063.8223876953</ele>
        <time>2020-10-16T09:17:19.333Z</time>
      </trkpt>
      <trkpt lat="44.68524" lon="3.82554">
        <ele>1065.6505126953</ele>
        <time>2020-10-16T09:17:20.773Z</time>
      </trkpt>
      <trkpt lat="44.6852" lon="3.82542">
        <ele>1066.7048339844</ele>
        <time>2020-10-16T09:17:22.215Z</time>
      </trkpt>
      <trkpt lat="44.68513" lon="3.8253">
        <ele>1067.4743652344</ele>
        <time>2020-10-16T09:17:23.659Z</time>
      </trkpt>
      <trkpt lat="44.68502" lon="3.82518">
        <ele>1068.4014892578</ele>
        <time>2020-10-16T09:17:25.106Z</time>
      </trkpt>
      <trkpt lat="44.68486" lon="3.82508">
        <ele>1069.5341796875</ele>
        <time>2020-10-16T09:17:26.556Z</time>
      </trkpt>
      <trkpt lat="44.68465" lon="3.82497">
        <ele>1070.490234375</ele>
        <time>2020-10-16T09:17:28.011Z</time>
      </trkpt>
      <trkpt lat="44.68453" lon="3.82491">
        <ele>1071.0196533203</ele>
        <time>2020-10-16T09:17:29.468Z</time>
      </trkpt>
      <trkpt lat="44.6844" lon="3.82474">
        <ele>1074.1484375</ele>
        <time>2020-10-16T09:17:30.929Z</time>
      </trkpt>
      <trkpt lat="44.6843" lon="3.82456">
        <ele>1077.4340820312</ele>
        <time>2020-10-16T09:17:32.393Z</time>
      </trkpt>
      <trkpt lat="44.68416" lon="3.82437">
        <ele>1080.5444335938</ele>
        <time>2020-10-16T09:17:33.861Z</time>
      </trkpt>
      <trkpt lat="44.68408" lon="3.82426">
        <ele>1081.1207275391</ele>
        <time>2020-10-16T09:17:35.331Z</time>
      </trkpt>
      <trkpt lat="44.68399" lon="3.82415">
        <ele>1081.6970214844</ele>
        <time>2020-10-16T09:17:36.804Z</time>
      </trkpt>
      <trkpt lat="44.68391" lon="3.82397">
        <ele>1083.0194091797</ele>
        <time>2020-10-16T09:17:38.280Z</time>
      </trkpt>
      <trkpt lat="44.68382" lon="3.82379">
        <ele>1084.341796875</ele>
        <time>2020-10-16T09:17:39.759Z</time>
      </trkpt>
      <trkpt lat="44.68374" lon="3.82361">
        <ele>1085.6641845703</ele>
        <time>2020-10-16T09:17:41.241Z</time>
      </trkpt>
      <trkpt lat="44.68365" lon="3.82342">
        <ele>1088.5562744141</ele>
        <time>2020-10-16T09:17:42.726Z</time>
      </trkpt>
      <trkpt lat="44.68358" lon="3.82324">
        <ele>1091.9128417969</ele>
        <time>2020-10-16T09:17:44.214Z</time>
      </trkpt>
      <trkpt lat="44.68356" lon="3.82301">
        <ele>1095.9133300781</ele>
        <time>2020-10-16T09:17:45.705Z</time>
      </trkpt>
      <trkpt lat="44.68354" lon="3.82278">
        <ele>1099.9138183594</ele>
        <time>2020-10-16T09:17:47.200Z</time>
      </trkpt>
      <trkpt lat="44.68353" lon="3.82255">
        <ele>1103.5015869141</ele>
        <time>2020-10-16T09:17:48.698Z</time>
      </trkpt>
      <trkpt lat="44.68347" lon="3.82241">
        <ele>1105.4954833984</ele>
        <time>2020-10-16T09:17:50.198Z</time>
      </trkpt>
      <trkpt lat="44.68338" lon="3.82232">
        <ele>1107.2828369141</ele>
        <time>2020-10-16T09:17:51.700Z</time>
      </trkpt>
      <trkpt lat="44.68326" lon="3.82226">
        <ele>1109.2153320312</ele>
        <time>2020-10-16T09:17:53.205Z</time>
      </trkpt>
      <trkpt lat="44.68314" lon="3.82219">
        <ele>1110.9814453125</ele>
        <time>2020-10-16T09:17:54.713Z</time>
      </trkpt>
      <trkpt lat="44.68295" lon="3.82209">
        <ele>1113.5466308594</ele>
        <time>2020-10-16T09:17:56.224Z</time>
      </trkpt>
      <trkpt lat="44.68277" lon="3.82199">
        <ele>1115.6744384766</ele>
        <time>2020-10-16T09:17:57.739Z</time>
      </trkpt>
      <trkpt lat="44.68259" lon="3.8219">
        <ele>1117.1887207031</ele>
        <time>2020-10-16T09:17:59.258Z</time>
      </trkpt>
      <trkpt lat="44.68243" lon="3.82179">
        <ele>1118.0745849609</ele>
        <time>2020-10-16T09:18:00.781Z</time>
      </trkpt>
      <trkpt lat="44.68228" lon="3.82169">
        <ele>1118.8754882812</ele>
        <time>2020-10-16T09:18:02.307Z</time>
      </trkpt>
      <trkpt lat="44.68214" lon="3.82153">
        <ele>1119.9945068359</ele>
        <time>2020-10-16T09:18:03.837Z</time>
      </trkpt>
      <trkpt lat="44.68203" lon="3.82136">
        <ele>1121.1408691406</ele>
        <time>2020-10-16T09:18:05.370Z</time>
      </trkpt>
      <trkpt lat="44.68202" lon="3.82117">
        <ele>1122.1885986328</ele>
        <time>2020-10-16T09:18:06.906Z</time>
      </trkpt>
      <trkpt lat="44.68201" lon="3.82098">
        <ele>1123.1313476562</ele>
        <time>2020-10-16T09:18:08.444Z</time>
      </trkpt>
      <trkpt lat="44.68198" lon="3.82075">
        <ele>1124.1883544922</ele>
        <time>2020-10-16T09:18:09.986Z</time>
      </trkpt>
      <trkpt lat="44.68195" lon="3.82051">
        <ele>1125.2453613281</ele>
        <time>2020-10-16T09:18:11.531Z</time>
      </trkpt>
      <trkpt lat="44.68194" lon="3.82029">
        <ele>1126.5462646484</ele>
        <time>2020-10-16T09:18:13.079Z</time>
      </trkpt>
      <trkpt lat="44.68194" lon="3.82007">
        <ele>1127.9388427734</ele>
        <time>2020-10-16T09:18:14.631Z</time>
      </trkpt>
      <trkpt lat="44.68196" lon="3.81986">
        <ele>1128.5179443359</ele>
        <time>2020-10-16T09:18:16.186Z</time>
      </trkpt>
      <trkpt lat="44.68197" lon="3.81964">
        <ele>1129.0970458984</ele>
        <time>2020-10-16T09:18:17.744Z</time>
      </trkpt>
      <trkpt lat="44.68196" lon="3.81948">
        <ele>1129.4188232422</ele>
        <time>2020-10-16T09:18:19.304Z</time>
      </trkpt>
      <trkpt lat="44.68195" lon="3.81933">
        <ele>1130.4036865234</ele>
        <time>2020-10-16T09:18:20.866Z</time>
      </trkpt>
      <trkpt lat="44.68196" lon="3.81917">
        <ele>1132.3474121094</ele>
        <time>2020-10-16T09:18:22.430Z</time>
      </trkpt>
      <trkpt lat="44.68204" lon="3.81899">
        <ele>1134.8131103516</ele>
        <time>2020-10-16T09:18:23.997Z</time>
      </trkpt>
      <trkpt lat="44.68209" lon="3.81881">
        <ele>1137.0327148438</ele>
        <time>2020-10-16T09:18:25.567Z</time>
      </trkpt>
      <trkpt lat="44.68209" lon="3.81863">
        <ele>1139.1735839844</ele>
        <time>2020-10-16T09:18:27.140Z</time>
      </trkpt>
      <trkpt lat="44.68192" lon="3.81863">
        <ele>1138.6837158203</ele>
        <time>2020-10-16T09:18:28.716Z</time>
      </trkpt>
      <trkpt lat="44.68176" lon="3.81864">
        <ele>1138.0087890625</ele>
        <time>2020-10-16T09:18:30.295Z</time>
      </trkpt>
      <trkpt lat="44.68157" lon="3.81864">
        <ele>1137.3198242188</ele>
        <time>2020-10-16T09:18:31.878Z</time>
      </trkpt>
      <trkpt lat="44.68135" lon="3.81864">
        <ele>1136.5535888672</ele>
        <time>2020-10-16T09:18:33.466Z</time>
      </trkpt>
      <trkpt lat="44.68128" lon="3.81861">
        <ele>1136.5736083984</ele>
        <time>2020-10-16T09:18:35.055Z</time>
      </trkpt>
      <trkpt lat="44.68121" lon="3.81853">
        <ele>1137.2139892578</ele>
        <time>2020-10-16T09:18:36.646Z</time>
      </trkpt>
      <trkpt lat="44.68114" lon="3.81853">
        <ele>1136.7358398438</ele>
        <time>2020-10-16T09:18:38.238Z</time>
      </trkpt>
      <trkpt lat="44.68092" lon="3.81843">
        <ele>1135.8928222656</ele>
        <time>2020-10-16T09:18:39.835Z</time>
      </trkpt>
      <trkpt lat="44.68082" lon="3.81835">
        <ele>1135.7231445312</ele>
        <time>2020-10-16T09:18:41.434Z</time>
      </trkpt>
      <trkpt lat="44.68076" lon="3.81831">
        <ele>1135.6196289062</ele>
        <time>2020-10-16T09:18:43.035Z</time>
      </trkpt>
      <trkpt lat="44.68066" lon="3.81822">
        <ele>1135.5030517578</ele>
        <time>2020-10-16T09:18:44.638Z</time>
      </trkpt>
      <trkpt lat="44.68053" lon="3.81818">
        <ele>1134.84375</ele>
        <time>2020-10-16T09:18:46.244Z</time>
      </trkpt>
      <trkpt lat="44.68042" lon="3.81817">
        <ele>1134.2260742188</ele>
        <time>2020-10-16T09:18:47.852Z</time>
      </trkpt>
      <trkpt lat="44.68032" lon="3.81815">
        <ele>1133.8851318359</ele>
        <time>2020-10-16T09:18:49.462Z</time>
      </trkpt>
      <trkpt lat="44.68019" lon="3.81821">
        <ele>1133.4691162109</ele>
        <time>2020-10-16T09:18:51.075Z</time>
      </trkpt>
      <trkpt lat="44.68002" lon="3.81818">
        <ele>1133.6555175781</ele>
        <time>2020-10-16T09:18:52.691Z</time>
      </trkpt>
      <trkpt lat="44.67989" lon="3.81817">
        <ele>1133.6160888672</ele>
        <time>2020-10-16T09:18:54.310Z</time>
      </trkpt>
      <trkpt lat="44.6798" lon="3.81819">
        <ele>1133.3475341797</ele>
        <time>2020-10-16T09:18:55.930Z</time>
      </trkpt>
      <trkpt lat="44.67971" lon="3.81829">
        <ele>1132.4372558594</ele>
        <time>2020-10-16T09:18:57.553Z</time>
      </trkpt>
      <trkpt lat="44.67961" lon="3.81841">
        <ele>1131.3076171875</ele>
        <time>2020-10-16T09:18:59.178Z</time>
      </trkpt>
      <trkpt lat="44.6795" lon="3.81847">
        <ele>1130.3580322266</ele>
        <time>2020-10-16T09:19:00.806Z</time>
      </trkpt>
      <trkpt lat="44.67937" lon="3.81851">
        <ele>1129.2690429688</ele>
        <time>2020-10-16T09:19:02.436Z</time>
      </trkpt>
      <trkpt lat="44.67924" lon="3.81854">
        <ele>1128.3013916016</ele>
        <time>2020-10-16T09:19:04.069Z</time>
      </trkpt>
      <trkpt lat="44.67908" lon="3.81855">
        <ele>1127.2985839844</ele>
        <time>2020-10-16T09:19:05.705Z</time>
      </trkpt>
      <trkpt lat="44.67891" lon="3.81856">
        <ele>1126.1973876953</ele>
        <time>2020-10-16T09:19:07.345Z</time>
      </trkpt>
      <trkpt lat="44.67877" lon="3.81847">
        <ele>1125.8616943359</ele>
        <time>2020-10-16T09:19:08.988Z</time>
      </trkpt>
      <trkpt lat="44.67866" lon="3.81833">
        <ele>1126.2888183594</ele>
        <time>2020-10-16T09:19:10.634Z</time>
      </trkpt>
      <trkpt lat="44.67854" lon="3.81823">
        <ele>1127.4956054688</ele>
        <time>2020-10-16T09:19:12.282Z</time>
      </trkpt>
      <trkpt lat="44.67846" lon="3.81813">
        <ele>1128.4639892578</ele>
        <time>2020-10-16T09:19:13.933Z</time>
      </trkpt>
      <trkpt lat="44.67838" lon="3.81807">
        <ele>1129.2325439453</ele>
        <time>2020-10-16T09:19:15.585Z</time>
      </trkpt>
      <trkpt lat="44.67832" lon="3.81802">
        <ele>1129.7742919922</ele>
        <time>2020-10-16T09:19:17.239Z</time>
      </trkpt>
      <trkpt lat="44.67821" lon="3.81803">
        <ele>1130.4154052734</ele>
        <time>2020-10-16T09:19:18.895Z</time>
      </trkpt>
      <trkpt lat="44.67813" lon="3.81808">
        <ele>1130.4852294922</ele>
        <time>2020-10-16T09:19:20.553Z</time>
      </trkpt>
      <trkpt lat="44.67794" lon="3.81822">
        <ele>1130.0947265625</ele>
        <time>2020-10-16T09:19:22.215Z</time>
      </trkpt>
      <trkpt lat="44.67778" lon="3.81833">
        <ele>1129.4910888672</ele>
        <time>2020-10-16T09:19:23.881Z</time>
      </trkpt>
      <trkpt lat="44.67766" lon="3.81842">
        <ele>1128.6387939453</ele>
        <time>2020-10-16T09:19:25.549Z</time>
      </trkpt>
      <trkpt lat="44.67752" lon="3.81845">
        <ele>1128.0463867188</ele>
        <time>2020-10-16T09:19:27.220Z</time>
      </trkpt>
      <trkpt lat="44.6774" lon="3.81843">
        <ele>1127.9183349609</ele>
        <time>2020-10-16T09:19:28.894Z</time>
      </trkpt>
      <trkpt lat="44.67722" lon="3.8184">
        <ele>1127.7276611328</ele>
        <time>2020-10-16T09:19:30.571Z</time>
      </trkpt>
      <trkpt lat="44.67703" lon="3.81838">
        <ele>1127.4300537109</ele>
        <time>2020-10-16T09:19:32.252Z</time>
      </trkpt>
      <trkpt lat="44.6769" lon="3.81835">
        <ele>1126.9289550781</ele>
        <time>2020-10-16T09:19:33.936Z</time>
      </trkpt>
      <trkpt lat="44.67676" lon="3.81833">
        <ele>1126.6444091797</ele>
        <time>2020-10-16T09:19:35.622Z</time>
      </trkpt>
      <trkpt lat="44.67667" lon="3.81825">
        <ele>1126.8686523438</ele>
        <time>2020-10-16T09:19:37.311Z</time>
      </trkpt>
      <trkpt lat="44.67663" lon="3.81817">
        <ele>1126.9501953125</ele>
        <time>2020-10-16T09:19:39.001Z</time>
      </trkpt>
      <trkpt lat="44.67658" lon="3.81809">
        <ele>1127.2127685547</ele>
        <time>2020-10-16T09:19:40.692Z</time>
      </trkpt>
      <trkpt lat="44.67649" lon="3.81806">
        <ele>1127.2982177734</ele>
        <time>2020-10-16T09:19:42.385Z</time>
      </trkpt>
      <trkpt lat="44.67639" lon="3.81811">
        <ele>1127.5422363281</ele>
        <time>2020-10-16T09:19:44.081Z</time>
      </trkpt>
      <trkpt lat="44.67628" lon="3.81821">
        <ele>1127.8010253906</ele>
        <time>2020-10-16T09:19:45.779Z</time>
      </trkpt>
      <trkpt lat="44.6762" lon="3.81832">
        <ele>1127.9916992188</ele>
        <time>2020-10-16T09:19:47.479Z</time>
      </trkpt>
      <trkpt lat="44.67609" lon="3.81851">
        <ele>1129.3016357422</ele>
        <time>2020-10-16T09:19:49.183Z</time>
      </trkpt>
      <trkpt lat="44.67602" lon="3.81872">
        <ele>1129.6311035156</ele>
        <time>2020-10-16T09:19:50.890Z</time>
      </trkpt>
      <trkpt lat="44.67595" lon="3.8189">
        <ele>1129.3404541016</ele>
        <time>2020-10-16T09:19:52.600Z</time>
      </trkpt>
      <trkpt lat="44.67589" lon="3.81918">
        <ele>1129.3419189453</ele>
        <time>2020-10-16T09:19:54.314Z</time>
      </trkpt>
      <trkpt lat="44.67584" lon="3.81948">
        <ele>1130.8780517578</ele>
        <time>2020-10-16T09:19:56.033Z</time>
      </trkpt>
      <trkpt lat="44.67585" lon="3.81978">
        <ele>1130.8134765625</ele>
        <time>2020-10-16T09:19:57.756Z</time>
      </trkpt>
      <trkpt lat="44.67581" lon="3.8201">
        <ele>1131.7121582031</ele>
        <time>2020-10-16T09:19:59.483Z</time>
      </trkpt>
      <trkpt lat="44.6758" lon="3.82015">
        <ele>1132.0024414062</ele>
        <time>2020-10-16T09:20:01.211Z</time>
      </trkpt>
      <trkpt lat="44.67577" lon="3.8203">
        <ele>1132.7340087891</ele>
        <time>2020-10-16T09:20:02.942Z</time>
      </trkpt>
      <trkpt lat="44.67569" lon="3.82053">
        <ele>1134.3924560547</ele>
        <time>2020-10-16T09:20:04.676Z</time>
      </trkpt>
      <trkpt lat="44.67566" lon="3.82063">
        <ele>1134.5458984375</ele>
        <time>2020-10-16T09:20:06.412Z</time>
      </trkpt>
      <trkpt lat="44.67563" lon="3.82077">
        <ele>1134.2529296875</ele>
        <time>2020-10-16T09:20:08.150Z</time>
      </trkpt>
      <trkpt lat="44.67563" lon="3.82104">
        <ele>1132.6912841797</ele>
        <time>2020-10-16T09:20:09.892Z</time>
      </trkpt>
      <trkpt lat="44.67561" lon="3.82131">
        <ele>1132.3187255859</ele>
        <time>2020-10-16T09:20:11.637Z</time>
      </trkpt>
      <trkpt lat="44.67561" lon="3.82152">
        <ele>1131.6202392578</ele>
        <time>2020-10-16T09:20:13.386Z</time>
      </trkpt>
      <trkpt lat="44.67561" lon="3.82173">
        <ele>1130.841796875</ele>
        <time>2020-10-16T09:20:15.138Z</time>
      </trkpt>
      <trkpt lat="44.6756" lon="3.82194">
        <ele>1130.1242675781</ele>
        <time>2020-10-16T09:20:16.893Z</time>
      </trkpt>
      <trkpt lat="44.6756" lon="3.8221">
        <ele>1129.2186279297</ele>
        <time>2020-10-16T09:20:18.650Z</time>
      </trkpt>
      <trkpt lat="44.67557" lon="3.82233">
        <ele>1129.0404052734</ele>
        <time>2020-10-16T09:20:20.410Z</time>
      </trkpt>
      <trkpt lat="44.67552" lon="3.82258">
        <ele>1129.2136230469</ele>
        <time>2020-10-16T09:20:22.174Z</time>
      </trkpt>
      <trkpt lat="44.6755" lon="3.82269">
        <ele>1129.0867919922</ele>
        <time>2020-10-16T09:20:23.939Z</time>
      </trkpt>
      <trkpt lat="44.6755" lon="3.8227">
        <ele>1129.1605224609</ele>
        <time>2020-10-16T09:20:25.705Z</time>
      </trkpt>
      <trkpt lat="44.67543" lon="3.82282">
        <ele>1129.771484375</ele>
        <time>2020-10-16T09:20:27.473Z</time>
      </trkpt>
      <trkpt lat="44.67538" lon="3.82288">
        <ele>1130.4838867188</ele>
        <time>2020-10-16T09:20:29.242Z</time>
      </trkpt>
      <trkpt lat="44.67532" lon="3.82295">
        <ele>1131.0225830078</ele>
        <time>2020-10-16T09:20:31.013Z</time>
      </trkpt>
      <trkpt lat="44.6753" lon="3.82298">
        <ele>1131.1157226562</ele>
        <time>2020-10-16T09:20:32.784Z</time>
      </trkpt>
      <trkpt lat="44.67528" lon="3.82303">
        <ele>1131.2253417969</ele>
        <time>2020-10-16T09:20:34.556Z</time>
      </trkpt>
      <trkpt lat="44.67524" lon="3.8231">
        <ele>1131.416015625</ele>
        <time>2020-10-16T09:20:36.329Z</time>
      </trkpt>
      <trkpt lat="44.6752" lon="3.82317">
        <ele>1131.4635009766</ele>
        <time>2020-10-16T09:20:38.104Z</time>
      </trkpt>
      <trkpt lat="44.67517" lon="3.82326">
        <ele>1131.384765625</ele>
        <time>2020-10-16T09:20:39.880Z</time>
      </trkpt>
      <trkpt lat="44.67514" lon="3.82334">
        <ele>1131.1943359375</ele>
        <time>2020-10-16T09:20:41.657Z</time>
      </trkpt>
      <trkpt lat="44.67513" lon="3.82343">
        <ele>1130.7332763672</ele>
        <time>2020-10-16T09:20:43.436Z</time>
      </trkpt>
      <trkpt lat="44.67511" lon="3.82353">
        <ele>1130.1184082031</ele>
        <time>2020-10-16T09:20:45.216Z</time>
      </trkpt>
      <trkpt lat="44.67511" lon="3.82362">
        <ele>1129.4741210938</ele>
        <time>2020-10-16T09:20:46.997Z</time>
      </trkpt>
      <trkpt lat="44.6751" lon="3.82371">
        <ele>1128.8190917969</ele>
        <time>2020-10-16T09:20:48.780Z</time>
      </trkpt>
      <trkpt lat="44.67509" lon="3.8238">
        <ele>1128.1687011719</ele>
        <time>2020-10-16T09:20:50.564Z</time>
      </trkpt>
      <trkpt lat="44.67508" lon="3.82389">
        <ele>1127.6197509766</ele>
        <time>2020-10-16T09:20:52.349Z</time>
      </trkpt>
      <trkpt lat="44.67505" lon="3.82397">
        <ele>1127.3073730469</ele>
        <time>2020-10-16T09:20:54.136Z</time>
      </trkpt>
      <trkpt lat="44.67502" lon="3.82405">
        <ele>1127.1953125</ele>
        <time>2020-10-16T09:20:55.924Z</time>
      </trkpt>
      <trkpt lat="44.67497" lon="3.82412">
        <ele>1126.9149169922</ele>
        <time>2020-10-16T09:20:57.713Z</time>
      </trkpt>
      <trkpt lat="44.67492" lon="3.82418">
        <ele>1126.7731933594</ele>
        <time>2020-10-16T09:20:59.504Z</time>
      </trkpt>
      <trkpt lat="44.67487" lon="3.82424">
        <ele>1126.7357177734</ele>
        <time>2020-10-16T09:21:01.296Z</time>
      </trkpt>
      <trkpt lat="44.67481" lon="3.82429">
        <ele>1126.8382568359</ele>
        <time>2020-10-16T09:21:03.089Z</time>
      </trkpt>
      <trkpt lat="44.67475" lon="3.82433">
        <ele>1127.1092529297</ele>
        <time>2020-10-16T09:21:04.884Z</time>
      </trkpt>
      <trkpt lat="44.67469" lon="3.82435">
        <ele>1127.6232910156</ele>
        <time>2020-10-16T09:21:06.680Z</time>
      </trkpt>
      <trkpt lat="44.67462" lon="3.82435">
        <ele>1128.3687744141</ele>
        <time>2020-10-16T09:21:08.477Z</time>
      </trkpt>
      <trkpt lat="44.67455" lon="3.82435">
        <ele>1129.2604980469</ele>
        <time>2020-10-16T09:21:10.276Z</time>
      </trkpt>
      <trkpt lat="44.67448" lon="3.82434">
        <ele>1129.8430175781</ele>
        <time>2020-10-16T09:21:12.076Z</time>
      </trkpt>
      <trkpt lat="44.67432" lon="3.82435">
        <ele>1130.5334472656</ele>
        <time>2020-10-16T09:21:13.879Z</time>
      </trkpt>
      <trkpt lat="44.67424" lon="3.82435">
        <ele>1130.8690185547</ele>
        <time>2020-10-16T09:21:15.684Z</time>
      </trkpt>
      <trkpt lat="44.67416" lon="3.82435">
        <ele>1131.2081298828</ele>
        <time>2020-10-16T09:21:17.490Z</time>
      </trkpt>
      <trkpt lat="44.67408" lon="3.82436">
        <ele>1131.5139160156</ele>
        <time>2020-10-16T09:21:19.298Z</time>
      </trkpt>
      <trkpt lat="44.674" lon="3.82437">
        <ele>1131.8106689453</ele>
        <time>2020-10-16T09:21:21.108Z</time>
      </trkpt>
      <trkpt lat="44.67393" lon="3.82437">
        <ele>1132.1278076172</ele>
        <time>2020-10-16T09:21:22.919Z</time>
      </trkpt>
      <trkpt lat="44.67385" lon="3.82437">
        <ele>1132.4423828125</ele>
        <time>2020-10-16T09:21:24.732Z</time>
      </trkpt>
      <trkpt lat="44.67377" lon="3.82438">
        <ele>1132.7442626953</ele>
        <time>2020-10-16T09:21:26.546Z</time>
      </trkpt>
      <trkpt lat="44.6737" lon="3.82439">
        <ele>1133.0047607422</ele>
        <time>2020-10-16T09:21:28.362Z</time>
      </trkpt>
      <trkpt lat="44.67363" lon="3.82439">
        <ele>1132.7220458984</ele>
        <time>2020-10-16T09:21:30.179Z</time>
      </trkpt>
      <trkpt lat="44.67356" lon="3.8244">
        <ele>1132.4642333984</ele>
        <time>2020-10-16T09:21:31.998Z</time>
      </trkpt>
      <trkpt lat="44.67349" lon="3.8244">
        <ele>1132.2368164062</ele>
        <time>2020-10-16T09:21:33.818Z</time>
      </trkpt>
      <trkpt lat="44.67342" lon="3.8244">
        <ele>1132.0153808594</ele>
        <time>2020-10-16T09:21:35.639Z</time>
      </trkpt>
      <trkpt lat="44.67335" lon="3.82441">
        <ele>1131.7907714844</ele>
        <time>2020-10-16T09:21:37.462Z</time>
      </trkpt>
      <trkpt lat="44.67328" lon="3.82441">
        <ele>1131.5789794922</ele>
        <time>2020-10-16T09:21:39.286Z</time>
      </trkpt>
      <trkpt lat="44.67321" lon="3.82441">
        <ele>1131.3786621094</ele>
        <time>2020-10-16T09:21:41.111Z</time>
      </trkpt>
      <trkpt lat="44.67315" lon="3.82441">
        <ele>1131.2242431641</ele>
        <time>2020-10-16T09:21:42.938Z</time>
      </trkpt>
      <trkpt lat="44.67308" lon="3.82441">
        <ele>1131.0943603516</ele>
        <time>2020-10-16T09:21:44.766Z</time>
      </trkpt>
      <trkpt lat="44.67302" lon="3.8244">
        <ele>1131.0434570312</ele>
        <time>2020-10-16T09:21:46.595Z</time>
      </trkpt>
      <trkpt lat="44.67296" lon="3.82439">
        <ele>1131.1262207031</ele>
        <time>2020-10-16T09:21:48.426Z</time>
      </trkpt>
      <trkpt lat="44.6729" lon="3.82437">
        <ele>1131.2453613281</ele>
        <time>2020-10-16T09:21:50.258Z</time>
      </trkpt>
      <trkpt lat="44.67284" lon="3.82434">
        <ele>1131.2561035156</ele>
        <time>2020-10-16T09:21:52.091Z</time>
      </trkpt>
      <trkpt lat="44.67279" lon="3.82431">
        <ele>1131.1038818359</ele>
        <time>2020-10-16T09:21:53.925Z</time>
      </trkpt>
      <trkpt lat="44.67275" lon="3.82427">
        <ele>1131.0344238281</ele>
        <time>2020-10-16T09:21:55.760Z</time>
      </trkpt>
      <trkpt lat="44.6727" lon="3.82422">
        <ele>1131.0502929688</ele>
        <time>2020-10-16T09:21:57.596Z</time>
      </trkpt>
      <trkpt lat="44.67266" lon="3.82417">
        <ele>1131.1336669922</ele>
        <time>2020-10-16T09:21:59.433Z</time>
      </trkpt>
      <trkpt lat="44.67261" lon="3.82412">
        <ele>1131.2420654297</ele>
        <time>2020-10-16T09:22:01.272Z</time>
      </trkpt>
      <trkpt lat="44.67257" lon="3.82407">
        <ele>1131.2983398438</ele>
        <time>2020-10-16T09:22:03.112Z</time>
      </trkpt>
      <trkpt lat="44.67253" lon="3.82402">
        <ele>1131.2895507812</ele>
        <time>2020-10-16T09:22:04.953Z</time>
      </trkpt>
      <trkpt lat="44.67222" lon="3.82394">
        <ele>1130.0665283203</ele>
        <time>2020-10-16T09:22:06.800Z</time>
      </trkpt>
      <trkpt lat="44.67201" lon="3.82389">
        <ele>1129.2468261719</ele>
        <time>2020-10-16T09:22:08.651Z</time>
      </trkpt>
      <trkpt lat="44.67183" lon="3.82385">
        <ele>1128.1669921875</ele>
        <time>2020-10-16T09:22:10.506Z</time>
      </trkpt>
      <trkpt lat="44.67167" lon="3.82381">
        <ele>1127.2075195312</ele>
        <time>2020-10-16T09:22:12.364Z</time>
      </trkpt>
      <trkpt lat="44.67137" lon="3.82382">
        <ele>1124.8586425781</ele>
        <time>2020-10-16T09:22:14.228Z</time>
      </trkpt>
      <trkpt lat="44.67092" lon="3.8239">
        <ele>1121.9093017578</ele>
        <time>2020-10-16T09:22:16.101Z</time>
      </trkpt>
      <trkpt lat="44.67091" lon="3.82395">
        <ele>1121.5908203125</ele>
        <time>2020-10-16T09:22:17.975Z</time>
      </trkpt>
      <trkpt lat="44.6709" lon="3.824">
        <ele>1121.2507324219</ele>
        <time>2020-10-16T09:22:19.850Z</time>
      </trkpt>
      <trkpt lat="44.67083" lon="3.82408">
        <ele>1120.6080322266</ele>
        <time>2020-10-16T09:22:21.726Z</time>
      </trkpt>
      <trkpt lat="44.67068" lon="3.82425">
        <ele>1119.40625</ele>
        <time>2020-10-16T09:22:23.606Z</time>
      </trkpt>
      <trkpt lat="44.67036" lon="3.82461">
        <ele>1117.6929931641</ele>
        <time>2020-10-16T09:22:25.495Z</time>
      </trkpt>
      <trkpt lat="44.67009" lon="3.82489">
        <ele>1115.0998535156</ele>
        <time>2020-10-16T09:22:27.390Z</time>
      </trkpt>
      <trkpt lat="44.66973" lon="3.82522">
        <ele>1113.974609375</ele>
        <time>2020-10-16T09:22:29.294Z</time>
      </trkpt>
      <trkpt lat="44.66956" lon="3.82537">
        <ele>1112.3713378906</ele>
        <time>2020-10-16T09:22:31.202Z</time>
      </trkpt>
      <trkpt lat="44.66939" lon="3.82549">
        <ele>1109.6336669922</ele>
        <time>2020-10-16T09:22:33.114Z</time>
      </trkpt>
      <trkpt lat="44.66932" lon="3.82555">
        <ele>1108.1434326172</ele>
        <time>2020-10-16T09:22:35.027Z</time>
      </trkpt>
      <trkpt lat="44.66921" lon="3.82561">
        <ele>1105.9477539062</ele>
        <time>2020-10-16T09:22:36.943Z</time>
      </trkpt>
      <trkpt lat="44.66909" lon="3.82569">
        <ele>1103.7852783203</ele>
        <time>2020-10-16T09:22:38.861Z</time>
      </trkpt>
      <trkpt lat="44.66899" lon="3.8257">
        <ele>1102.5142822266</ele>
        <time>2020-10-16T09:22:40.781Z</time>
      </trkpt>
      <trkpt lat="44.66889" lon="3.82566">
        <ele>1101.1314697266</ele>
        <time>2020-10-16T09:22:42.703Z</time>
      </trkpt>
      <trkpt lat="44.66884" lon="3.82562">
        <ele>1100.3363037109</ele>
        <time>2020-10-16T09:22:44.627Z</time>
      </trkpt>
      <trkpt lat="44.66877" lon="3.82561">
        <ele>1099.4114990234</ele>
        <time>2020-10-16T09:22:46.552Z</time>
      </trkpt>
      <trkpt lat="44.66872" lon="3.82561">
        <ele>1098.7315673828</ele>
        <time>2020-10-16T09:22:48.478Z</time>
      </trkpt>
      <trkpt lat="44.66867" lon="3.82565">
        <ele>1097.9537353516</ele>
        <time>2020-10-16T09:22:50.405Z</time>
      </trkpt>
      <trkpt lat="44.66869" lon="3.82572">
        <ele>1098.3845214844</ele>
        <time>2020-10-16T09:22:52.333Z</time>
      </trkpt>
      <trkpt lat="44.66872" lon="3.82579">
        <ele>1099.0244140625</ele>
        <time>2020-10-16T09:22:54.262Z</time>
      </trkpt>
      <trkpt lat="44.66883" lon="3.82594">
        <ele>1100.7026367188</ele>
        <time>2020-10-16T09:22:56.194Z</time>
      </trkpt>
      <trkpt lat="44.66883" lon="3.82608">
        <ele>1100.2846679688</ele>
        <time>2020-10-16T09:22:58.128Z</time>
      </trkpt>
      <trkpt lat="44.66873" lon="3.82611">
        <ele>1098.5377197266</ele>
        <time>2020-10-16T09:23:00.065Z</time>
      </trkpt>
      <trkpt lat="44.66856" lon="3.82612">
        <ele>1095.6458740234</ele>
        <time>2020-10-16T09:23:02.005Z</time>
      </trkpt>
      <trkpt lat="44.66839" lon="3.82612">
        <ele>1092.4090576172</ele>
        <time>2020-10-16T09:23:03.948Z</time>
      </trkpt>
      <trkpt lat="44.66826" lon="3.82616">
        <ele>1089.5782470703</ele>
        <time>2020-10-16T09:23:05.894Z</time>
      </trkpt>
      <trkpt lat="44.66812" lon="3.82625">
        <ele>1085.6533203125</ele>
        <time>2020-10-16T09:23:07.843Z</time>
      </trkpt>
      <trkpt lat="44.66798" lon="3.82633">
        <ele>1082.9685058594</ele>
        <time>2020-10-16T09:23:09.795Z</time>
      </trkpt>
      <trkpt lat="44.66787" lon="3.82641">
        <ele>1081.1762695312</ele>
        <time>2020-10-16T09:23:11.749Z</time>
      </trkpt>
      <trkpt lat="44.66775" lon="3.8264">
        <ele>1078.5675048828</ele>
        <time>2020-10-16T09:23:13.706Z</time>
      </trkpt>
      <trkpt lat="44.66764" lon="3.82636">
        <ele>1076.3693847656</ele>
        <time>2020-10-16T09:23:15.665Z</time>
      </trkpt>
      <trkpt lat="44.66758" lon="3.82647">
        <ele>1074.0500488281</ele>
        <time>2020-10-16T09:23:17.626Z</time>
      </trkpt>
      <trkpt lat="44.66755" lon="3.82652">
        <ele>1072.9869384766</ele>
        <time>2020-10-16T09:23:19.588Z</time>
      </trkpt>
      <trkpt lat="44.66752" lon="3.82663">
        <ele>1071.7091064453</ele>
        <time>2020-10-16T09:23:21.552Z</time>
      </trkpt>
      <trkpt lat="44.6675" lon="3.82671">
        <ele>1071.0050048828</ele>
        <time>2020-10-16T09:23:23.517Z</time>
      </trkpt>
      <trkpt lat="44.66741" lon="3.82676">
        <ele>1069.0057373047</ele>
        <time>2020-10-16T09:23:25.484Z</time>
      </trkpt>
      <trkpt lat="44.66736" lon="3.82675">
        <ele>1068.0515136719</ele>
        <time>2020-10-16T09:23:27.452Z</time>
      </trkpt>
      <trkpt lat="44.66732" lon="3.82668">
        <ele>1067.6448974609</ele>
        <time>2020-10-16T09:23:29.421Z</time>
      </trkpt>
      <trkpt lat="44.66731" lon="3.82657">
        <ele>1067.8961181641</ele>
        <time>2020-10-16T09:23:31.392Z</time>
      </trkpt>
      <trkpt lat="44.66727" lon="3.82652">
        <ele>1067.3508300781</ele>
        <time>2020-10-16T09:23:33.364Z</time>
      </trkpt>
      <trkpt lat="44.66721" lon="3.82649">
        <ele>1066.3041992188</ele>
        <time>2020-10-16T09:23:35.337Z</time>
      </trkpt>
      <trkpt lat="44.66717" lon="3.82646">
        <ele>1065.8513183594</ele>
        <time>2020-10-16T09:23:37.311Z</time>
      </trkpt>
      <trkpt lat="44.66715" lon="3.82639">
        <ele>1065.6040039062</ele>
        <time>2020-10-16T09:23:39.286Z</time>
      </trkpt>
      <trkpt lat="44.66708" lon="3.82638">
        <ele>1064.4903564453</ele>
        <time>2020-10-16T09:23:41.262Z</time>
      </trkpt>
      <trkpt lat="44.66701" lon="3.82624">
        <ele>1063.646484375</ele>
        <time>2020-10-16T09:23:43.241Z</time>
      </trkpt>
      <trkpt lat="44.66697" lon="3.82613">
        <ele>1063.1533203125</ele>
        <time>2020-10-16T09:23:45.221Z</time>
      </trkpt>
      <trkpt lat="44.66697" lon="3.82607">
        <ele>1063.3607177734</ele>
        <time>2020-10-16T09:23:47.202Z</time>
      </trkpt>
      <trkpt lat="44.66701" lon="3.82597">
        <ele>1064.0604248047</ele>
        <time>2020-10-16T09:23:49.185Z</time>
      </trkpt>
      <trkpt lat="44.66704" lon="3.82585">
        <ele>1063.9254150391</ele>
        <time>2020-10-16T09:23:51.170Z</time>
      </trkpt>
      <trkpt lat="44.66704" lon="3.82575">
        <ele>1063.4211425781</ele>
        <time>2020-10-16T09:23:53.156Z</time>
      </trkpt>
      <trkpt lat="44.667" lon="3.82571">
        <ele>1062.3023681641</ele>
        <time>2020-10-16T09:23:55.143Z</time>
      </trkpt>
      <trkpt lat="44.66696" lon="3.8257">
        <ele>1061.2956542969</ele>
        <time>2020-10-16T09:23:57.131Z</time>
      </trkpt>
      <trkpt lat="44.66691" lon="3.82574">
        <ele>1060.4848632812</ele>
        <time>2020-10-16T09:23:59.120Z</time>
      </trkpt>
      <trkpt lat="44.66683" lon="3.82584">
        <ele>1059.1810302734</ele>
        <time>2020-10-16T09:24:01.111Z</time>
      </trkpt>
      <trkpt lat="44.66676" lon="3.8259">
        <ele>1057.6071777344</ele>
        <time>2020-10-16T09:24:03.104Z</time>
      </trkpt>
      <trkpt lat="44.66669" lon="3.82598">
        <ele>1055.9881591797</ele>
        <time>2020-10-16T09:24:05.099Z</time>
      </trkpt>
      <trkpt lat="44.66663" lon="3.82609">
        <ele>1054.2114257812</ele>
        <time>2020-10-16T09:24:07.096Z</time>
      </trkpt>
      <trkpt lat="44.66659" lon="3.82623">
        <ele>1052.6733398438</ele>
        <time>2020-10-16T09:24:09.095Z</time>
      </trkpt>
      <trkpt lat="44.66655" lon="3.82633">
        <ele>1051.1271972656</ele>
        <time>2020-10-16T09:24:11.096Z</time>
      </trkpt>
      <trkpt lat="44.66651" lon="3.82634">
        <ele>1049.9886474609</ele>
        <time>2020-10-16T09:24:13.097Z</time>
      </trkpt>
      <trkpt lat="44.66643" lon="3.82631">
        <ele>1048.0594482422</ele>
        <time>2020-10-16T09:24:15.100Z</time>
      </trkpt>
      <trkpt lat="44.6664" lon="3.82623">
        <ele>1047.4415283203</ele>
        <time>2020-10-16T09:24:17.104Z</time>
      </trkpt>
      <trkpt lat="44.66638" lon="3.82613">
        <ele>1047.4350585938</ele>
        <time>2020-10-16T09:24:19.110Z</time>
      </trkpt>
      <trkpt lat="44.66636" lon="3.82604">
        <ele>1047.3704833984</ele>
        <time>2020-10-16T09:24:21.117Z</time>
      </trkpt>
      <trkpt lat="44.66635" lon="3.82592">
        <ele>1046.6481933594</ele>
        <time>2020-10-16T09:24:23.126Z</time>
      </trkpt>
      <trkpt lat="44.66634" lon="3.82584">
        <ele>1046.2872314453</ele>
        <time>2020-10-16T09:24:25.136Z</time>
      </trkpt>
      <trkpt lat="44.66638" lon="3.82574">
        <ele>1047.162109375</ele>
        <time>2020-10-16T09:24:27.148Z</time>
      </trkpt>
      <trkpt lat="44.66641" lon="3.82566">
        <ele>1047.7322998047</ele>
        <time>2020-10-16T09:24:29.161Z</time>
      </trkpt>
      <trkpt lat="44.66638" lon="3.8256">
        <ele>1046.7734375</ele>
        <time>2020-10-16T09:24:31.175Z</time>
      </trkpt>
      <trkpt lat="44.66632" lon="3.82564">
        <ele>1045.3375244141</ele>
        <time>2020-10-16T09:24:33.190Z</time>
      </trkpt>
      <trkpt lat="44.66627" lon="3.82574">
        <ele>1044.2404785156</ele>
        <time>2020-10-16T09:24:35.207Z</time>
      </trkpt>
      <trkpt lat="44.66622" lon="3.82585">
        <ele>1043.1231689453</ele>
        <time>2020-10-16T09:24:37.226Z</time>
      </trkpt>
      <trkpt lat="44.66615" lon="3.82595">
        <ele>1043.185546875</ele>
        <time>2020-10-16T09:24:39.247Z</time>
      </trkpt>
      <trkpt lat="44.66609" lon="3.8261">
        <ele>1043.9146728516</ele>
        <time>2020-10-16T09:24:41.270Z</time>
      </trkpt>
      <trkpt lat="44.66606" lon="3.82626">
        <ele>1043.4532470703</ele>
        <time>2020-10-16T09:24:43.296Z</time>
      </trkpt>
      <trkpt lat="44.66605" lon="3.82639">
        <ele>1043.0166015625</ele>
        <time>2020-10-16T09:24:45.324Z</time>
      </trkpt>
      <trkpt lat="44.66603" lon="3.82652">
        <ele>1042.5294189453</ele>
        <time>2020-10-16T09:24:47.354Z</time>
      </trkpt>
      <trkpt lat="44.66599" lon="3.82664">
        <ele>1042.3878173828</ele>
        <time>2020-10-16T09:24:49.385Z</time>
      </trkpt>
      <trkpt lat="44.66595" lon="3.82669">
        <ele>1042.5369873047</ele>
        <time>2020-10-16T09:24:51.417Z</time>
      </trkpt>
      <trkpt lat="44.6659" lon="3.82667">
        <ele>1043.1263427734</ele>
        <time>2020-10-16T09:24:53.451Z</time>
      </trkpt>
      <trkpt lat="44.66587" lon="3.82653">
        <ele>1044.1889648438</ele>
        <time>2020-10-16T09:24:55.487Z</time>
      </trkpt>
      <trkpt lat="44.66583" lon="3.82641">
        <ele>1045.2563476562</ele>
        <time>2020-10-16T09:24:57.525Z</time>
      </trkpt>
      <trkpt lat="44.66576" lon="3.82627">
        <ele>1046.6134033203</ele>
        <time>2020-10-16T09:24:59.565Z</time>
      </trkpt>
      <trkpt lat="44.66572" lon="3.82614">
        <ele>1047.6685791016</ele>
        <time>2020-10-16T09:25:01.607Z</time>
      </trkpt>
      <trkpt lat="44.66568" lon="3.82599">
        <ele>1048.4603271484</ele>
        <time>2020-10-16T09:25:03.651Z</time>
      </trkpt>
      <trkpt lat="44.66564" lon="3.82588">
        <ele>1048.6177978516</ele>
        <time>2020-10-16T09:25:05.697Z</time>
      </trkpt>
      <trkpt lat="44.66552" lon="3.82581">
        <ele>1049.7464599609</ele>
        <time>2020-10-16T09:25:07.746Z</time>
      </trkpt>
      <trkpt lat="44.66541" lon="3.82574">
        <ele>1050.7362060547</ele>
        <time>2020-10-16T09:25:09.797Z</time>
      </trkpt>
      <trkpt lat="44.66532" lon="3.82571">
        <ele>1051.0826416016</ele>
        <time>2020-10-16T09:25:11.850Z</time>
      </trkpt>
      <trkpt lat="44.66528" lon="3.82572">
        <ele>1051.0081787109</ele>
        <time>2020-10-16T09:25:13.904Z</time>
      </trkpt>
      <trkpt lat="44.66526" lon="3.82579">
        <ele>1051.1107177734</ele>
        <time>2020-10-16T09:25:15.959Z</time>
      </trkpt>
      <trkpt lat="44.66525" lon="3.82589">
        <ele>1051.326171875</ele>
        <time>2020-10-16T09:25:18.015Z</time>
      </trkpt>
      <trkpt lat="44.66522" lon="3.82597">
        <ele>1052.3428955078</ele>
        <time>2020-10-16T09:25:20.072Z</time>
      </trkpt>
      <trkpt lat="44.66518" lon="3.82613">
        <ele>1053.7768554688</ele>
        <time>2020-10-16T09:25:22.132Z</time>
      </trkpt>
      <trkpt lat="44.66511" lon="3.82635">
        <ele>1053.3106689453</ele>
        <time>2020-10-16T09:25:24.195Z</time>
      </trkpt>
      <trkpt lat="44.66505" lon="3.82646">
        <ele>1053.3560791016</ele>
        <time>2020-10-16T09:25:26.260Z</time>
      </trkpt>
      <trkpt lat="44.66501" lon="3.82659">
        <ele>1054.1046142578</ele>
        <time>2020-10-16T09:25:28.327Z</time>
      </trkpt>
      <trkpt lat="44.665" lon="3.82667">
        <ele>1055.4904785156</ele>
        <time>2020-10-16T09:25:30.395Z</time>
      </trkpt>
      <trkpt lat="44.66493" lon="3.82679">
        <ele>1059.6118164062</ele>
        <time>2020-10-16T09:25:32.466Z</time>
      </trkpt>
      <trkpt lat="44.66487" lon="3.82686">
        <ele>1062.5655517578</ele>
        <time>2020-10-16T09:25:34.538Z</time>
      </trkpt>
      <trkpt lat="44.66485" lon="3.82693">
        <ele>1063.2633056641</ele>
        <time>2020-10-16T09:25:36.611Z</time>
      </trkpt>
      <trkpt lat="44.66482" lon="3.82708">
        <ele>1063.7463378906</ele>
        <time>2020-10-16T09:25:38.686Z</time>
      </trkpt>
      <trkpt lat="44.6648" lon="3.82721">
        <ele>1064.3276367188</ele>
        <time>2020-10-16T09:25:40.763Z</time>
      </trkpt>
      <trkpt lat="44.66479" lon="3.82729">
        <ele>1065.0958251953</ele>
        <time>2020-10-16T09:25:42.842Z</time>
      </trkpt>
      <trkpt lat="44.66477" lon="3.82739">
        <ele>1066.7127685547</ele>
        <time>2020-10-16T09:25:44.922Z</time>
      </trkpt>
      <trkpt lat="44.66474" lon="3.82751">
        <ele>1068.4797363281</ele>
        <time>2020-10-16T09:25:47.004Z</time>
      </trkpt>
      <trkpt lat="44.66472" lon="3.8276">
        <ele>1069.6860351562</ele>
        <time>2020-10-16T09:25:49.087Z</time>
      </trkpt>
      <trkpt lat="44.66471" lon="3.82766">
        <ele>1070.3828125</ele>
        <time>2020-10-16T09:25:51.171Z</time>
      </trkpt>
      <trkpt lat="44.66468" lon="3.82777">
        <ele>1072.0739746094</ele>
        <time>2020-10-16T09:25:53.257Z</time>
      </trkpt>
      <trkpt lat="44.66467" lon="3.82785">
        <ele>1073.0239257812</ele>
        <time>2020-10-16T09:25:55.344Z</time>
      </trkpt>
      <trkpt lat="44.66464" lon="3.82792">
        <ele>1073.9483642578</ele>
        <time>2020-10-16T09:25:57.432Z</time>
      </trkpt>
      <trkpt lat="44.66464" lon="3.82806">
        <ele>1073.8653564453</ele>
        <time>2020-10-16T09:25:59.522Z</time>
      </trkpt>
      <trkpt lat="44.66462" lon="3.82814">
        <ele>1074.4119873047</ele>
        <time>2020-10-16T09:26:01.613Z</time>
      </trkpt>
      <trkpt lat="44.6646" lon="3.82822">
        <ele>1075.1469726562</ele>
        <time>2020-10-16T09:26:03.706Z</time>
      </trkpt>
      <trkpt lat="44.66459" lon="3.82832">
        <ele>1075.2498779297</ele>
        <time>2020-10-16T09:26:05.800Z</time>
      </trkpt>
      <trkpt lat="44.66459" lon="3.8284">
        <ele>1075.2680664062</ele>
        <time>2020-10-16T09:26:07.895Z</time>
      </trkpt>
      <trkpt lat="44.6646" lon="3.82853">
        <ele>1074.6604003906</ele>
        <time>2020-10-16T09:26:09.992Z</time>
      </trkpt>
      <trkpt lat="44.66465" lon="3.8286">
        <ele>1073.9915771484</ele>
        <time>2020-10-16T09:26:12.090Z</time>
      </trkpt>
      <trkpt lat="44.66468" lon="3.82869">
        <ele>1074.4934082031</ele>
        <time>2020-10-16T09:26:14.190Z</time>
      </trkpt>
      <trkpt lat="44.6647" lon="3.82875">
        <ele>1074.6502685547</ele>
        <time>2020-10-16T09:26:16.291Z</time>
      </trkpt>
      <trkpt lat="44.66481" lon="3.82888">
        <ele>1073.2913818359</ele>
        <time>2020-10-16T09:26:18.395Z</time>
      </trkpt>
      <trkpt lat="44.66487" lon="3.82896">
        <ele>1072.5002441406</ele>
        <time>2020-10-16T09:26:20.500Z</time>
      </trkpt>
      <trkpt lat="44.66492" lon="3.82904">
        <ele>1072.1057128906</ele>
        <time>2020-10-16T09:26:22.607Z</time>
      </trkpt>
      <trkpt lat="44.665" lon="3.82914">
        <ele>1071.0786132812</ele>
        <time>2020-10-16T09:26:24.716Z</time>
      </trkpt>
      <trkpt lat="44.6651" lon="3.82926">
        <ele>1069.7652587891</ele>
        <time>2020-10-16T09:26:26.828Z</time>
      </trkpt>
      <trkpt lat="44.66516" lon="3.82936">
        <ele>1069.1514892578</ele>
        <time>2020-10-16T09:26:28.941Z</time>
      </trkpt>
      <trkpt lat="44.66526" lon="3.82947">
        <ele>1068.6843261719</ele>
        <time>2020-10-16T09:26:31.057Z</time>
      </trkpt>
      <trkpt lat="44.66543" lon="3.82968">
        <ele>1069.0150146484</ele>
        <time>2020-10-16T09:26:33.178Z</time>
      </trkpt>
      <trkpt lat="44.66556" lon="3.82982">
        <ele>1069.9888916016</ele>
        <time>2020-10-16T09:26:35.302Z</time>
      </trkpt>
      <trkpt lat="44.66568" lon="3.82998">
        <ele>1071.1149902344</ele>
        <time>2020-10-16T09:26:37.429Z</time>
      </trkpt>
      <trkpt lat="44.66577" lon="3.83009">
        <ele>1071.8155517578</ele>
        <time>2020-10-16T09:26:39.558Z</time>
      </trkpt>
      <trkpt lat="44.66584" lon="3.83019">
        <ele>1072.6833496094</ele>
        <time>2020-10-16T09:26:41.689Z</time>
      </trkpt>
      <trkpt lat="44.66591" lon="3.83028">
        <ele>1073.2166748047</ele>
        <time>2020-10-16T09:26:43.822Z</time>
      </trkpt>
      <trkpt lat="44.66598" lon="3.83032">
        <ele>1073.1486816406</ele>
        <time>2020-10-16T09:26:45.957Z</time>
      </trkpt>
      <trkpt lat="44.66608" lon="3.83039">
        <ele>1073.0081787109</ele>
        <time>2020-10-16T09:26:48.094Z</time>
      </trkpt>
      <trkpt lat="44.66615" lon="3.83046">
        <ele>1073.2690429688</ele>
        <time>2020-10-16T09:26:50.233Z</time>
      </trkpt>
      <trkpt lat="44.66622" lon="3.83057">
        <ele>1073.8833007812</ele>
        <time>2020-10-16T09:26:52.374Z</time>
      </trkpt>
      <trkpt lat="44.66625" lon="3.83064">
        <ele>1074.6380615234</ele>
        <time>2020-10-16T09:26:54.516Z</time>
      </trkpt>
      <trkpt lat="44.66629" lon="3.83074">
        <ele>1075.4627685547</ele>
        <time>2020-10-16T09:26:56.660Z</time>
      </trkpt>
      <trkpt lat="44.66639" lon="3.8309">
        <ele>1076.2612304688</ele>
        <time>2020-10-16T09:26:58.807Z</time>
      </trkpt>
      <trkpt lat="44.66644" lon="3.831">
        <ele>1077.0386962891</ele>
        <time>2020-10-16T09:27:00.955Z</time>
      </trkpt>
      <trkpt lat="44.66648" lon="3.83109">
        <ele>1077.7058105469</ele>
        <time>2020-10-16T09:27:03.105Z</time>
      </trkpt>
      <trkpt lat="44.66658" lon="3.83123">
        <ele>1078.1009521484</ele>
        <time>2020-10-16T09:27:05.258Z</time>
      </trkpt>
      <trkpt lat="44.66674" lon="3.8314">
        <ele>1077.8076171875</ele>
        <time>2020-10-16T09:27:07.415Z</time>
      </trkpt>
      <trkpt lat="44.66688" lon="3.83155">
        <ele>1077.7008056641</ele>
        <time>2020-10-16T09:27:09.575Z</time>
      </trkpt>
      <trkpt lat="44.66706" lon="3.83173">
        <ele>1077.2841796875</ele>
        <time>2020-10-16T09:27:11.740Z</time>
      </trkpt>
      <trkpt lat="44.66718" lon="3.83185">
        <ele>1077.7241210938</ele>
        <time>2020-10-16T09:27:13.908Z</time>
      </trkpt>
      <trkpt lat="44.66723" lon="3.83192">
        <ele>1077.9519042969</ele>
        <time>2020-10-16T09:27:16.077Z</time>
      </trkpt>
      <trkpt lat="44.66728" lon="3.83202">
        <ele>1077.9639892578</ele>
        <time>2020-10-16T09:27:18.248Z</time>
      </trkpt>
      <trkpt lat="44.66733" lon="3.83214">
        <ele>1077.9844970703</ele>
        <time>2020-10-16T09:27:20.421Z</time>
      </trkpt>
      <trkpt lat="44.66738" lon="3.83226">
        <ele>1078.1978759766</ele>
        <time>2020-10-16T09:27:22.596Z</time>
      </trkpt>
      <trkpt lat="44.6674" lon="3.83238">
        <ele>1079.1014404297</ele>
        <time>2020-10-16T09:27:24.773Z</time>
      </trkpt>
      <trkpt lat="44.66742" lon="3.83253">
        <ele>1080.6158447266</ele>
        <time>2020-10-16T09:27:26.952Z</time>
      </trkpt>
      <trkpt lat="44.66744" lon="3.83273">
        <ele>1082.5299072266</ele>
        <time>2020-10-16T09:27:29.134Z</time>
      </trkpt>
      <trkpt lat="44.66747" lon="3.83288">
        <ele>1082.2423095703</ele>
        <time>2020-10-16T09:27:31.318Z</time>
      </trkpt>
      <trkpt lat="44.6675" lon="3.83313">
        <ele>1081.9625244141</ele>
        <time>2020-10-16T09:27:33.506Z</time>
      </trkpt>
      <trkpt lat="44.66753" lon="3.83331">
        <ele>1082.3532714844</ele>
        <time>2020-10-16T09:27:35.696Z</time>
      </trkpt>
      <trkpt lat="44.66759" lon="3.83355">
        <ele>1083.2069091797</ele>
        <time>2020-10-16T09:27:37.890Z</time>
      </trkpt>
      <trkpt lat="44.66763" lon="3.83371">
        <ele>1084.3166503906</ele>
        <time>2020-10-16T09:27:40.086Z</time>
      </trkpt>
      <trkpt lat="44.66769" lon="3.83383">
        <ele>1084.4534912109</ele>
        <time>2020-10-16T09:27:42.284Z</time>
      </trkpt>
      <trkpt lat="44.66775" lon="3.83394">
        <ele>1084.5889892578</ele>
        <time>2020-10-16T09:27:44.484Z</time>
      </trkpt>
      <trkpt lat="44.66779" lon="3.834">
        <ele>1084.2978515625</ele>
        <time>2020-10-16T09:27:46.686Z</time>
      </trkpt>
      <trkpt lat="44.6679" lon="3.83406">
        <ele>1082.8800048828</ele>
        <time>2020-10-16T09:27:48.890Z</time>
      </trkpt>
      <trkpt lat="44.66798" lon="3.83414">
        <ele>1082.8037109375</ele>
        <time>2020-10-16T09:27:51.096Z</time>
      </trkpt>
      <trkpt lat="44.66804" lon="3.83419">
        <ele>1082.7606201172</ele>
        <time>2020-10-16T09:27:53.303Z</time>
      </trkpt>
      <trkpt lat="44.6682" lon="3.83432">
        <ele>1082.5750732422</ele>
        <time>2020-10-16T09:27:55.514Z</time>
      </trkpt>
      <trkpt lat="44.66831" lon="3.8344">
        <ele>1082.3520507812</ele>
        <time>2020-10-16T09:27:57.727Z</time>
      </trkpt>
      <trkpt lat="44.66844" lon="3.83452">
        <ele>1083.2470703125</ele>
        <time>2020-10-16T09:27:59.944Z</time>
      </trkpt>
      <trkpt lat="44.66868" lon="3.8347">
        <ele>1084.2770996094</ele>
        <time>2020-10-16T09:28:02.166Z</time>
      </trkpt>
      <trkpt lat="44.66883" lon="3.83482">
        <ele>1084.4195556641</ele>
        <time>2020-10-16T09:28:04.391Z</time>
      </trkpt>
      <trkpt lat="44.66894" lon="3.83489">
        <ele>1083.8989257812</ele>
        <time>2020-10-16T09:28:06.619Z</time>
      </trkpt>
      <trkpt lat="44.66904" lon="3.83498">
        <ele>1084.2954101562</ele>
        <time>2020-10-16T09:28:08.849Z</time>
      </trkpt>
      <trkpt lat="44.66919" lon="3.83517">
        <ele>1085.7994384766</ele>
        <time>2020-10-16T09:28:11.083Z</time>
      </trkpt>
      <trkpt lat="44.66926" lon="3.83525">
        <ele>1086.3081054688</ele>
        <time>2020-10-16T09:28:13.319Z</time>
      </trkpt>
      <trkpt lat="44.66939" lon="3.83541">
        <ele>1086.8804931641</ele>
        <time>2020-10-16T09:28:15.559Z</time>
      </trkpt>
      <trkpt lat="44.66954" lon="3.83554">
        <ele>1086.4808349609</ele>
        <time>2020-10-16T09:28:17.802Z</time>
      </trkpt>
      <trkpt lat="44.66967" lon="3.83558">
        <ele>1085.9016113281</ele>
        <time>2020-10-16T09:28:20.048Z</time>
      </trkpt>
      <trkpt lat="44.66986" lon="3.83564">
        <ele>1084.9047851562</ele>
        <time>2020-10-16T09:28:22.298Z</time>
      </trkpt>
      <trkpt lat="44.67002" lon="3.8357">
        <ele>1084.2889404297</ele>
        <time>2020-10-16T09:28:24.551Z</time>
      </trkpt>
      <trkpt lat="44.67017" lon="3.83575">
        <ele>1083.3978271484</ele>
        <time>2020-10-16T09:28:26.807Z</time>
      </trkpt>
      <trkpt lat="44.67039" lon="3.83579">
        <ele>1081.8541259766</ele>
        <time>2020-10-16T09:28:29.067Z</time>
      </trkpt>
      <trkpt lat="44.67066" lon="3.83585">
        <ele>1082.7250976562</ele>
        <time>2020-10-16T09:28:31.333Z</time>
      </trkpt>
      <trkpt lat="44.67086" lon="3.83589">
        <ele>1083.2330322266</ele>
        <time>2020-10-16T09:28:33.603Z</time>
      </trkpt>
      <trkpt lat="44.67108" lon="3.83594">
        <ele>1083.8411865234</ele>
        <time>2020-10-16T09:28:35.877Z</time>
      </trkpt>
      <trkpt lat="44.67128" lon="3.83598">
        <ele>1084.7825927734</ele>
        <time>2020-10-16T09:28:38.155Z</time>
      </trkpt>
      <trkpt lat="44.67152" lon="3.83603">
        <ele>1086.9410400391</ele>
        <time>2020-10-16T09:28:40.438Z</time>
      </trkpt>
      <trkpt lat="44.67169" lon="3.83611">
        <ele>1089.0548095703</ele>
        <time>2020-10-16T09:28:42.725Z</time>
      </trkpt>
      <trkpt lat="44.67181" lon="3.8362">
        <ele>1090.6416015625</ele>
        <time>2020-10-16T09:28:45.015Z</time>
      </trkpt>
      <trkpt lat="44.67193" lon="3.83623">
        <ele>1091.6490478516</ele>
        <time>2020-10-16T09:28:47.307Z</time>
      </trkpt>
      <trkpt lat="44.67198" lon="3.83629">
        <ele>1092.5279541016</ele>
        <time>2020-10-16T09:28:49.600Z</time>
      </trkpt>
      <trkpt lat="44.67199" lon="3.83636">
        <ele>1093.4809570312</ele>
        <time>2020-10-16T09:28:51.894Z</time>
      </trkpt>
      <trkpt lat="44.67196" lon="3.83642">
        <ele>1093.9997558594</ele>
        <time>2020-10-16T09:28:54.189Z</time>
      </trkpt>
      <trkpt lat="44.67192" lon="3.83645">
        <ele>1094.1768798828</ele>
        <time>2020-10-16T09:28:56.485Z</time>
      </trkpt>
      <trkpt lat="44.67186" lon="3.83645">
        <ele>1093.9331054688</ele>
        <time>2020-10-16T09:28:58.782Z</time>
      </trkpt>
      <trkpt lat="44.67179" lon="3.8365">
        <ele>1094.1560058594</ele>
        <time>2020-10-16T09:29:01.081Z</time>
      </trkpt>
      <trkpt lat="44.67165" lon="3.8366">
        <ele>1095.3143310547</ele>
        <time>2020-10-16T09:29:03.383Z</time>
      </trkpt>
      <trkpt lat="44.67144" lon="3.83678">
        <ele>1098.6823730469</ele>
        <time>2020-10-16T09:29:05.690Z</time>
      </trkpt>
      <trkpt lat="44.67124" lon="3.83693">
        <ele>1100.9029541016</ele>
        <time>2020-10-16T09:29:08.002Z</time>
      </trkpt>
      <trkpt lat="44.6711" lon="3.83705">
        <ele>1102.0590820312</ele>
        <time>2020-10-16T09:29:10.317Z</time>
      </trkpt>
      <trkpt lat="44.67093" lon="3.83718">
        <ele>1103.056640625</ele>
        <time>2020-10-16T09:29:12.636Z</time>
      </trkpt>
      <trkpt lat="44.67077" lon="3.83731">
        <ele>1104.041015625</ele>
        <time>2020-10-16T09:29:14.958Z</time>
      </trkpt>
      <trkpt lat="44.67071" lon="3.83733">
        <ele>1105.0078125</ele>
        <time>2020-10-16T09:29:17.282Z</time>
      </trkpt>
      <trkpt lat="44.67053" lon="3.83737">
        <ele>1107.3374023438</ele>
        <time>2020-10-16T09:29:19.609Z</time>
      </trkpt>
      <trkpt lat="44.67031" lon="3.83744">
        <ele>1110.5743408203</ele>
        <time>2020-10-16T09:29:21.941Z</time>
      </trkpt>
      <trkpt lat="44.67016" lon="3.83747">
        <ele>1112.7021484375</ele>
        <time>2020-10-16T09:29:24.276Z</time>
      </trkpt>
      <trkpt lat="44.67001" lon="3.83747">
        <ele>1115.1411132812</ele>
        <time>2020-10-16T09:29:26.614Z</time>
      </trkpt>
      <trkpt lat="44.66988" lon="3.83744">
        <ele>1116.9967041016</ele>
        <time>2020-10-16T09:29:28.955Z</time>
      </trkpt>
      <trkpt lat="44.66978" lon="3.83739">
        <ele>1118.0411376953</ele>
        <time>2020-10-16T09:29:31.298Z</time>
      </trkpt>
      <trkpt lat="44.66971" lon="3.83741">
        <ele>1119.673828125</ele>
        <time>2020-10-16T09:29:33.642Z</time>
      </trkpt>
      <trkpt lat="44.66968" lon="3.83748">
        <ele>1121.8618164062</ele>
        <time>2020-10-16T09:29:35.987Z</time>
      </trkpt>
      <trkpt lat="44.66971" lon="3.83757">
        <ele>1123.2921142578</ele>
        <time>2020-10-16T09:29:38.334Z</time>
      </trkpt>
      <trkpt lat="44.66977" lon="3.83769">
        <ele>1124.5227050781</ele>
        <time>2020-10-16T09:29:40.683Z</time>
      </trkpt>
      <trkpt lat="44.66988" lon="3.83783">
        <ele>1124.2967529297</ele>
        <time>2020-10-16T09:29:43.035Z</time>
      </trkpt>
      <trkpt lat="44.66997" lon="3.83799">
        <ele>1124.390625</ele>
        <time>2020-10-16T09:29:45.390Z</time>
      </trkpt>
      <trkpt lat="44.67003" lon="3.83819">
        <ele>1125.3414306641</ele>
        <time>2020-10-16T09:29:47.748Z</time>
      </trkpt>
      <trkpt lat="44.67009" lon="3.83834">
        <ele>1125.90234375</ele>
        <time>2020-10-16T09:29:50.108Z</time>
      </trkpt>
      <trkpt lat="44.67012" lon="3.8385">
        <ele>1127.095703125</ele>
        <time>2020-10-16T09:29:52.470Z</time>
      </trkpt>
      <trkpt lat="44.67015" lon="3.83866">
        <ele>1127.9384765625</ele>
        <time>2020-10-16T09:29:54.835Z</time>
      </trkpt>
      <trkpt lat="44.67019" lon="3.83882">
        <ele>1128.1014404297</ele>
        <time>2020-10-16T09:29:57.202Z</time>
      </trkpt>
      <trkpt lat="44.67026" lon="3.83899">
        <ele>1128.0988769531</ele>
        <time>2020-10-16T09:29:59.572Z</time>
      </trkpt>
      <trkpt lat="44.67033" lon="3.83921">
        <ele>1128.3380126953</ele>
        <time>2020-10-16T09:30:01.946Z</time>
      </trkpt>
      <trkpt lat="44.67038" lon="3.83942">
        <ele>1128.7000732422</ele>
        <time>2020-10-16T09:30:04.323Z</time>
      </trkpt>
      <trkpt lat="44.67042" lon="3.83958">
        <ele>1128.8118896484</ele>
        <time>2020-10-16T09:30:06.702Z</time>
      </trkpt>
      <trkpt lat="44.67047" lon="3.83982">
        <ele>1129.1594238281</ele>
        <time>2020-10-16T09:30:09.085Z</time>
      </trkpt>
      <trkpt lat="44.67053" lon="3.84005">
        <ele>1129.1732177734</ele>
        <time>2020-10-16T09:30:11.471Z</time>
      </trkpt>
      <trkpt lat="44.67059" lon="3.84031">
        <ele>1129.5042724609</ele>
        <time>2020-10-16T09:30:13.861Z</time>
      </trkpt>
      <trkpt lat="44.67062" lon="3.84043">
        <ele>1129.8406982422</ele>
        <time>2020-10-16T09:30:16.253Z</time>
      </trkpt>
      <trkpt lat="44.67066" lon="3.84062">
        <ele>1130.3969726562</ele>
        <time>2020-10-16T09:30:18.648Z</time>
      </trkpt>
      <trkpt lat="44.6707" lon="3.84077">
        <ele>1130.6123046875</ele>
        <time>2020-10-16T09:30:21.045Z</time>
      </trkpt>
      <trkpt lat="44.67075" lon="3.84093">
        <ele>1130.6728515625</ele>
        <time>2020-10-16T09:30:23.444Z</time>
      </trkpt>
      <trkpt lat="44.67083" lon="3.84109">
        <ele>1130.2451171875</ele>
        <time>2020-10-16T09:30:25.846Z</time>
      </trkpt>
      <trkpt lat="44.67089" lon="3.84124">
        <ele>1130.1983642578</ele>
        <time>2020-10-16T09:30:28.251Z</time>
      </trkpt>
      <trkpt lat="44.67095" lon="3.84137">
        <ele>1129.9899902344</ele>
        <time>2020-10-16T09:30:30.658Z</time>
      </trkpt>
      <trkpt lat="44.671" lon="3.84152">
        <ele>1130.0695800781</ele>
        <time>2020-10-16T09:30:33.067Z</time>
      </trkpt>
      <trkpt lat="44.67106" lon="3.84164">
        <ele>1129.9117431641</ele>
        <time>2020-10-16T09:30:35.478Z</time>
      </trkpt>
      <trkpt lat="44.6711" lon="3.84177">
        <ele>1130.1022949219</ele>
        <time>2020-10-16T09:30:37.891Z</time>
      </trkpt>
      <trkpt lat="44.67114" lon="3.84192">
        <ele>1130.208984375</ele>
        <time>2020-10-16T09:30:40.307Z</time>
      </trkpt>
      <trkpt lat="44.67118" lon="3.84203">
        <ele>1130.2194824219</ele>
        <time>2020-10-16T09:30:42.724Z</time>
      </trkpt>
      <trkpt lat="44.67123" lon="3.84217">
        <ele>1130.6760253906</ele>
        <time>2020-10-16T09:30:45.144Z</time>
      </trkpt>
      <trkpt lat="44.67131" lon="3.84229">
        <ele>1131.4039306641</ele>
        <time>2020-10-16T09:30:47.566Z</time>
      </trkpt>
      <trkpt lat="44.67136" lon="3.84237">
        <ele>1131.9008789062</ele>
        <time>2020-10-16T09:30:49.990Z</time>
      </trkpt>
      <trkpt lat="44.6714" lon="3.84249">
        <ele>1132.6011962891</ele>
        <time>2020-10-16T09:30:52.415Z</time>
      </trkpt>
      <trkpt lat="44.67143" lon="3.84259">
        <ele>1133.2169189453</ele>
        <time>2020-10-16T09:30:54.842Z</time>
      </trkpt>
      <trkpt lat="44.67145" lon="3.84267">
        <ele>1133.6877441406</ele>
        <time>2020-10-16T09:30:57.270Z</time>
      </trkpt>
      <trkpt lat="44.67148" lon="3.84275">
        <ele>1134.1080322266</ele>
        <time>2020-10-16T09:30:59.699Z</time>
      </trkpt>
      <trkpt lat="44.67154" lon="3.84283">
        <ele>1134.4874267578</ele>
        <time>2020-10-16T09:31:02.130Z</time>
      </trkpt>
      <trkpt lat="44.6716" lon="3.84291">
        <ele>1134.8851318359</ele>
        <time>2020-10-16T09:31:04.563Z</time>
      </trkpt>
      <trkpt lat="44.67163" lon="3.84298">
        <ele>1135.2333984375</ele>
        <time>2020-10-16T09:31:06.997Z</time>
      </trkpt>
      <trkpt lat="44.67166" lon="3.84303">
        <ele>1135.4858398438</ele>
        <time>2020-10-16T09:31:09.432Z</time>
      </trkpt>
      <trkpt lat="44.67173" lon="3.84307">
        <ele>1135.6447753906</ele>
        <time>2020-10-16T09:31:11.868Z</time>
      </trkpt>
      <trkpt lat="44.67184" lon="3.8431">
        <ele>1135.796875</ele>
        <time>2020-10-16T09:31:14.307Z</time>
      </trkpt>
      <trkpt lat="44.67192" lon="3.84311">
        <ele>1135.8502197266</ele>
        <time>2020-10-16T09:31:16.747Z</time>
      </trkpt>
      <trkpt lat="44.67199" lon="3.84315">
        <ele>1136.0576171875</ele>
        <time>2020-10-16T09:31:19.189Z</time>
      </trkpt>
      <trkpt lat="44.67205" lon="3.8432">
        <ele>1136.2938232422</ele>
        <time>2020-10-16T09:31:21.632Z</time>
      </trkpt>
      <trkpt lat="44.67212" lon="3.84325">
        <ele>1136.6094970703</ele>
        <time>2020-10-16T09:31:24.077Z</time>
      </trkpt>
      <trkpt lat="44.67222" lon="3.8433">
        <ele>1137.0100097656</ele>
        <time>2020-10-16T09:31:26.524Z</time>
      </trkpt>
      <trkpt lat="44.67253" lon="3.84344">
        <ele>1138.0228271484</ele>
        <time>2020-10-16T09:31:28.977Z</time>
      </trkpt>
      <trkpt lat="44.67257" lon="3.84347">
        <ele>1138.2102050781</ele>
        <time>2020-10-16T09:31:31.431Z</time>
      </trkpt>
      <trkpt lat="44.67261" lon="3.84353">
        <ele>1138.5637207031</ele>
        <time>2020-10-16T09:31:33.886Z</time>
      </trkpt>
      <trkpt lat="44.67265" lon="3.84363">
        <ele>1138.5798339844</ele>
        <time>2020-10-16T09:31:36.343Z</time>
      </trkpt>
      <trkpt lat="44.67272" lon="3.84387">
        <ele>1138.0897216797</ele>
        <time>2020-10-16T09:31:38.804Z</time>
      </trkpt>
      <trkpt lat="44.67282" lon="3.84411">
        <ele>1137.638671875</ele>
        <time>2020-10-16T09:31:41.269Z</time>
      </trkpt>
      <trkpt lat="44.67303" lon="3.84447">
        <ele>1135.2174072266</ele>
        <time>2020-10-16T09:31:43.740Z</time>
      </trkpt>
      <trkpt lat="44.67329" lon="3.84485">
        <ele>1133.123046875</ele>
        <time>2020-10-16T09:31:46.219Z</time>
      </trkpt>
      <trkpt lat="44.67341" lon="3.84498">
        <ele>1132.060546875</ele>
        <time>2020-10-16T09:31:48.701Z</time>
      </trkpt>
      <trkpt lat="44.67354" lon="3.8451">
        <ele>1130.62109375</ele>
        <time>2020-10-16T09:31:51.186Z</time>
      </trkpt>
      <trkpt lat="44.67369" lon="3.84521">
        <ele>1129.0159912109</ele>
        <time>2020-10-16T09:31:53.674Z</time>
      </trkpt>
      <trkpt lat="44.6738" lon="3.84527">
        <ele>1128.3256835938</ele>
        <time>2020-10-16T09:31:56.165Z</time>
      </trkpt>
      <trkpt lat="44.67437" lon="3.84553">
        <ele>1125.4284667969</ele>
        <time>2020-10-16T09:31:58.668Z</time>
      </trkpt>
      <trkpt lat="44.6744" lon="3.84555">
        <ele>1125.2860107422</ele>
        <time>2020-10-16T09:32:01.171Z</time>
      </trkpt>
      <trkpt lat="44.67451" lon="3.84562">
        <ele>1125.0157470703</ele>
        <time>2020-10-16T09:32:03.677Z</time>
      </trkpt>
      <trkpt lat="44.67427" lon="3.84566">
        <ele>1128.0532226562</ele>
        <time>2020-10-16T09:32:06.188Z</time>
      </trkpt>
      <trkpt lat="44.67365" lon="3.84579">
        <ele>1135.8671875</ele>
        <time>2020-10-16T09:32:08.711Z</time>
      </trkpt>
      <trkpt lat="44.67337" lon="3.84588">
        <ele>1140.2678222656</ele>
        <time>2020-10-16T09:32:11.240Z</time>
      </trkpt>
      <trkpt lat="44.67317" lon="3.84601">
        <ele>1142.8471679688</ele>
        <time>2020-10-16T09:32:13.773Z</time>
      </trkpt>
      <trkpt lat="44.6729" lon="3.84621">
        <ele>1146.626953125</ele>
        <time>2020-10-16T09:32:16.312Z</time>
      </trkpt>
      <trkpt lat="44.67269" lon="3.84633">
        <ele>1148.92578125</ele>
        <time>2020-10-16T09:32:18.856Z</time>
      </trkpt>
      <trkpt lat="44.67252" lon="3.8464">
        <ele>1150.4611816406</ele>
        <time>2020-10-16T09:32:21.403Z</time>
      </trkpt>
      <trkpt lat="44.67238" lon="3.84643">
        <ele>1151.6872558594</ele>
        <time>2020-10-16T09:32:23.953Z</time>
      </trkpt>
      <trkpt lat="44.67217" lon="3.84642">
        <ele>1152.8688964844</ele>
        <time>2020-10-16T09:32:26.507Z</time>
      </trkpt>
      <trkpt lat="44.67188" lon="3.84639">
        <ele>1154.2974853516</ele>
        <time>2020-10-16T09:32:29.067Z</time>
      </trkpt>
      <trkpt lat="44.67177" lon="3.84638">
        <ele>1154.8078613281</ele>
        <time>2020-10-16T09:32:31.630Z</time>
      </trkpt>
      <trkpt lat="44.67151" lon="3.84639">
        <ele>1156.0385742188</ele>
        <time>2020-10-16T09:32:34.198Z</time>
      </trkpt>
      <trkpt lat="44.6712" lon="3.84648">
        <ele>1157.0020751953</ele>
        <time>2020-10-16T09:32:36.772Z</time>
      </trkpt>
      <trkpt lat="44.67065" lon="3.84671">
        <ele>1159.3122558594</ele>
        <time>2020-10-16T09:32:39.357Z</time>
      </trkpt>
      <trkpt lat="44.6704" lon="3.84683">
        <ele>1160.6536865234</ele>
        <time>2020-10-16T09:32:41.948Z</time>
      </trkpt>
      <trkpt lat="44.67023" lon="3.84693">
        <ele>1161.4312744141</ele>
        <time>2020-10-16T09:32:44.543Z</time>
      </trkpt>
      <trkpt lat="44.67" lon="3.8471">
        <ele>1162.0455322266</ele>
        <time>2020-10-16T09:32:47.143Z</time>
      </trkpt>
      <trkpt lat="44.66982" lon="3.8472">
        <ele>1162.5426025391</ele>
        <time>2020-10-16T09:32:49.747Z</time>
      </trkpt>
      <trkpt lat="44.66969" lon="3.84723">
        <ele>1162.5931396484</ele>
        <time>2020-10-16T09:32:52.353Z</time>
      </trkpt>
      <trkpt lat="44.66962" lon="3.84723">
        <ele>1162.6668701172</ele>
        <time>2020-10-16T09:32:54.961Z</time>
      </trkpt>
      <trkpt lat="44.66965" lon="3.84732">
        <ele>1162.3131103516</ele>
        <time>2020-10-16T09:32:57.570Z</time>
      </trkpt>
      <trkpt lat="44.66966" lon="3.84738">
        <ele>1162.0758056641</ele>
        <time>2020-10-16T09:33:00.180Z</time>
      </trkpt>
      <trkpt lat="44.66967" lon="3.84744">
        <ele>1161.8408203125</ele>
        <time>2020-10-16T09:33:02.791Z</time>
      </trkpt>
      <trkpt lat="44.66973" lon="3.8475">
        <ele>1161.5773925781</ele>
        <time>2020-10-16T09:33:05.403Z</time>
      </trkpt>
      <trkpt lat="44.66982" lon="3.84753">
        <ele>1161.3680419922</ele>
        <time>2020-10-16T09:33:08.017Z</time>
      </trkpt>
      <trkpt lat="44.66996" lon="3.84763">
        <ele>1160.8413085938</ele>
        <time>2020-10-16T09:33:10.634Z</time>
      </trkpt>
      <trkpt lat="44.67013" lon="3.84773">
        <ele>1160.2729492188</ele>
        <time>2020-10-16T09:33:13.255Z</time>
      </trkpt>
      <trkpt lat="44.67025" lon="3.84784">
        <ele>1160.1340332031</ele>
        <time>2020-10-16T09:33:15.879Z</time>
      </trkpt>
      <trkpt lat="44.67039" lon="3.84797">
        <ele>1159.9387207031</ele>
        <time>2020-10-16T09:33:18.506Z</time>
      </trkpt>
      <trkpt lat="44.67057" lon="3.84812">
        <ele>1159.5126953125</ele>
        <time>2020-10-16T09:33:21.137Z</time>
      </trkpt>
      <trkpt lat="44.67071" lon="3.84823">
        <ele>1159.171875</ele>
        <time>2020-10-16T09:33:23.771Z</time>
      </trkpt>
      <trkpt lat="44.67091" lon="3.84839">
        <ele>1158.6832275391</ele>
        <time>2020-10-16T09:33:26.410Z</time>
      </trkpt>
      <trkpt lat="44.67112" lon="3.84857">
        <ele>1158.1553955078</ele>
        <time>2020-10-16T09:33:29.054Z</time>
      </trkpt>
      <trkpt lat="44.67127" lon="3.84869">
        <ele>1158.1259765625</ele>
        <time>2020-10-16T09:33:31.702Z</time>
      </trkpt>
      <trkpt lat="44.67139" lon="3.84882">
        <ele>1158.5483398438</ele>
        <time>2020-10-16T09:33:34.353Z</time>
      </trkpt>
      <trkpt lat="44.6716" lon="3.84899">
        <ele>1159.4041748047</ele>
        <time>2020-10-16T09:33:37.008Z</time>
      </trkpt>
      <trkpt lat="44.67178" lon="3.84912">
        <ele>1160.0161132812</ele>
        <time>2020-10-16T09:33:39.667Z</time>
      </trkpt>
      <trkpt lat="44.6719" lon="3.84918">
        <ele>1160.2508544922</ele>
        <time>2020-10-16T09:33:42.329Z</time>
      </trkpt>
      <trkpt lat="44.67201" lon="3.84926">
        <ele>1160.533203125</ele>
        <time>2020-10-16T09:33:44.993Z</time>
      </trkpt>
      <trkpt lat="44.67221" lon="3.84938">
        <ele>1161.3742675781</ele>
        <time>2020-10-16T09:33:47.662Z</time>
      </trkpt>
      <trkpt lat="44.67232" lon="3.84946">
        <ele>1162.1323242188</ele>
        <time>2020-10-16T09:33:50.333Z</time>
      </trkpt>
      <trkpt lat="44.67246" lon="3.84959">
        <ele>1163.2209472656</ele>
        <time>2020-10-16T09:33:53.008Z</time>
      </trkpt>
      <trkpt lat="44.67257" lon="3.84972">
        <ele>1164.2641601562</ele>
        <time>2020-10-16T09:33:55.686Z</time>
      </trkpt>
      <trkpt lat="44.67267" lon="3.84979">
        <ele>1164.9405517578</ele>
        <time>2020-10-16T09:33:58.366Z</time>
      </trkpt>
      <trkpt lat="44.67284" lon="3.84995">
        <ele>1166.2659912109</ele>
        <time>2020-10-16T09:34:01.050Z</time>
      </trkpt>
      <trkpt lat="44.67295" lon="3.85005">
        <ele>1167.1525878906</ele>
        <time>2020-10-16T09:34:03.736Z</time>
      </trkpt>
      <trkpt lat="44.6731" lon="3.85016">
        <ele>1168.1472167969</ele>
        <time>2020-10-16T09:34:06.426Z</time>
      </trkpt>
      <trkpt lat="44.67325" lon="3.85028">
        <ele>1168.9920654297</ele>
        <time>2020-10-16T09:34:09.119Z</time>
      </trkpt>
      <trkpt lat="44.6734" lon="3.8504">
        <ele>1169.4986572266</ele>
        <time>2020-10-16T09:34:11.816Z</time>
      </trkpt>
      <trkpt lat="44.67356" lon="3.85052">
        <ele>1170.0322265625</ele>
        <time>2020-10-16T09:34:14.516Z</time>
      </trkpt>
      <trkpt lat="44.67365" lon="3.85062">
        <ele>1170.3575439453</ele>
        <time>2020-10-16T09:34:17.219Z</time>
      </trkpt>
      <trkpt lat="44.67376" lon="3.85072">
        <ele>1170.8112792969</ele>
        <time>2020-10-16T09:34:19.924Z</time>
      </trkpt>
      <trkpt lat="44.67388" lon="3.85085">
        <ele>1171.4127197266</ele>
        <time>2020-10-16T09:34:22.632Z</time>
      </trkpt>
      <trkpt lat="44.67399" lon="3.85092">
        <ele>1171.8997802734</ele>
        <time>2020-10-16T09:34:25.343Z</time>
      </trkpt>
      <trkpt lat="44.67418" lon="3.85102">
        <ele>1172.6767578125</ele>
        <time>2020-10-16T09:34:28.058Z</time>
      </trkpt>
      <trkpt lat="44.67437" lon="3.85115">
        <ele>1173.0750732422</ele>
        <time>2020-10-16T09:34:30.777Z</time>
      </trkpt>
      <trkpt lat="44.67455" lon="3.85127">
        <ele>1173.1170654297</ele>
        <time>2020-10-16T09:34:33.500Z</time>
      </trkpt>
      <trkpt lat="44.67468" lon="3.85133">
        <ele>1172.3137207031</ele>
        <time>2020-10-16T09:34:36.226Z</time>
      </trkpt>
      <trkpt lat="44.67482" lon="3.85145">
        <ele>1171.1804199219</ele>
        <time>2020-10-16T09:34:38.955Z</time>
      </trkpt>
      <trkpt lat="44.67498" lon="3.85154">
        <ele>1170.1086425781</ele>
        <time>2020-10-16T09:34:41.687Z</time>
      </trkpt>
      <trkpt lat="44.67523" lon="3.85168">
        <ele>1167.83984375</ele>
        <time>2020-10-16T09:34:44.425Z</time>
      </trkpt>
      <trkpt lat="44.67552" lon="3.85185">
        <ele>1165.1870117188</ele>
        <time>2020-10-16T09:34:47.169Z</time>
      </trkpt>
      <trkpt lat="44.67581" lon="3.85201">
        <ele>1162.4973144531</ele>
        <time>2020-10-16T09:34:49.919Z</time>
      </trkpt>
      <trkpt lat="44.67608" lon="3.85217">
        <ele>1159.87109375</ele>
        <time>2020-10-16T09:34:52.675Z</time>
      </trkpt>
      <trkpt lat="44.67634" lon="3.85233">
        <ele>1158.1823730469</ele>
        <time>2020-10-16T09:34:55.437Z</time>
      </trkpt>
      <trkpt lat="44.67659" lon="3.85247">
        <ele>1157.0422363281</ele>
        <time>2020-10-16T09:34:58.204Z</time>
      </trkpt>
      <trkpt lat="44.6768" lon="3.85262">
        <ele>1156.1353759766</ele>
        <time>2020-10-16T09:35:00.976Z</time>
      </trkpt>
      <trkpt lat="44.67689" lon="3.85268">
        <ele>1155.7163085938</ele>
        <time>2020-10-16T09:35:03.750Z</time>
      </trkpt>
      <trkpt lat="44.67691" lon="3.85278">
        <ele>1155.7253417969</ele>
        <time>2020-10-16T09:35:06.526Z</time>
      </trkpt>
      <trkpt lat="44.67691" lon="3.85279">
        <ele>1155.7203369141</ele>
        <time>2020-10-16T09:35:09.302Z</time>
      </trkpt>
      <trkpt lat="44.6769" lon="3.85288">
        <ele>1155.7746582031</ele>
        <time>2020-10-16T09:35:12.079Z</time>
      </trkpt>
      <trkpt lat="44.67689" lon="3.85312">
        <ele>1155.8658447266</ele>
        <time>2020-10-16T09:35:14.859Z</time>
      </trkpt>
      <trkpt lat="44.67688" lon="3.85329">
        <ele>1155.9134521484</ele>
        <time>2020-10-16T09:35:17.642Z</time>
      </trkpt>
      <trkpt lat="44.67686" lon="3.85343">
        <ele>1155.7686767578</ele>
        <time>2020-10-16T09:35:20.427Z</time>
      </trkpt>
      <trkpt lat="44.67684" lon="3.85358">
        <ele>1154.7155761719</ele>
        <time>2020-10-16T09:35:23.214Z</time>
      </trkpt>
      <trkpt lat="44.67681" lon="3.85375">
        <ele>1152.7335205078</ele>
        <time>2020-10-16T09:35:26.003Z</time>
      </trkpt>
      <trkpt lat="44.67679" lon="3.85393">
        <ele>1150.5748291016</ele>
        <time>2020-10-16T09:35:28.795Z</time>
      </trkpt>
      <trkpt lat="44.67677" lon="3.85408">
        <ele>1148.7507324219</ele>
        <time>2020-10-16T09:35:31.589Z</time>
      </trkpt>
      <trkpt lat="44.67676" lon="3.85426">
        <ele>1146.8957519531</ele>
        <time>2020-10-16T09:35:34.386Z</time>
      </trkpt>
      <trkpt lat="44.67676" lon="3.85439">
        <ele>1145.7102050781</ele>
        <time>2020-10-16T09:35:37.185Z</time>
      </trkpt>
      <trkpt lat="44.67673" lon="3.85453">
        <ele>1144.7016601562</ele>
        <time>2020-10-16T09:35:39.986Z</time>
      </trkpt>
      <trkpt lat="44.67672" lon="3.85464">
        <ele>1143.9681396484</ele>
        <time>2020-10-16T09:35:42.788Z</time>
      </trkpt>
      <trkpt lat="44.67672" lon="3.85475">
        <ele>1143.1833496094</ele>
        <time>2020-10-16T09:35:45.592Z</time>
      </trkpt>
      <trkpt lat="44.67672" lon="3.85476">
        <ele>1143.1003417969</ele>
        <time>2020-10-16T09:35:48.396Z</time>
      </trkpt>
      <trkpt lat="44.67673" lon="3.85488">
        <ele>1142.1872558594</ele>
        <time>2020-10-16T09:35:51.202Z</time>
      </trkpt>
      <trkpt lat="44.67678" lon="3.85499">
        <ele>1141.2707519531</ele>
        <time>2020-10-16T09:35:54.010Z</time>
      </trkpt>
      <trkpt lat="44.67684" lon="3.85511">
        <ele>1140.0827636719</ele>
        <time>2020-10-16T09:35:56.820Z</time>
      </trkpt>
      <trkpt lat="44.67692" lon="3.85525">
        <ele>1138.75</ele>
        <time>2020-10-16T09:35:59.632Z</time>
      </trkpt>
      <trkpt lat="44.67702" lon="3.85539">
        <ele>1137.4283447266</ele>
        <time>2020-10-16T09:36:02.447Z</time>
      </trkpt>
      <trkpt lat="44.67711" lon="3.85553">
        <ele>1136.1083984375</ele>
        <time>2020-10-16T09:36:05.265Z</time>
      </trkpt>
      <trkpt lat="44.67715" lon="3.85562">
        <ele>1135.1916503906</ele>
        <time>2020-10-16T09:36:08.084Z</time>
      </trkpt>
      <trkpt lat="44.67718" lon="3.8557">
        <ele>1134.4829101562</ele>
        <time>2020-10-16T09:36:10.905Z</time>
      </trkpt>
      <trkpt lat="44.67721" lon="3.85579">
        <ele>1133.6069335938</ele>
        <time>2020-10-16T09:36:13.727Z</time>
      </trkpt>
      <trkpt lat="44.67723" lon="3.85593">
        <ele>1132.2833251953</ele>
        <time>2020-10-16T09:36:16.551Z</time>
      </trkpt>
      <trkpt lat="44.67724" lon="3.85609">
        <ele>1130.5631103516</ele>
        <time>2020-10-16T09:36:19.377Z</time>
      </trkpt>
      <trkpt lat="44.67725" lon="3.85623">
        <ele>1128.4143066406</ele>
        <time>2020-10-16T09:36:22.205Z</time>
      </trkpt>
      <trkpt lat="44.67728" lon="3.85637">
        <ele>1125.75</ele>
        <time>2020-10-16T09:36:25.035Z</time>
      </trkpt>
      <trkpt lat="44.67731" lon="3.85652">
        <ele>1122.6044921875</ele>
        <time>2020-10-16T09:36:27.868Z</time>
      </trkpt>
      <trkpt lat="44.67737" lon="3.85668">
        <ele>1119.2254638672</ele>
        <time>2020-10-16T09:36:30.703Z</time>
      </trkpt>
      <trkpt lat="44.6774" lon="3.8568">
        <ele>1116.8536376953</ele>
        <time>2020-10-16T09:36:33.540Z</time>
      </trkpt>
      <trkpt lat="44.67741" lon="3.8569">
        <ele>1114.5902099609</ele>
        <time>2020-10-16T09:36:36.379Z</time>
      </trkpt>
      <trkpt lat="44.67741" lon="3.85691">
        <ele>1114.5050048828</ele>
        <time>2020-10-16T09:36:39.218Z</time>
      </trkpt>
      <trkpt lat="44.6774" lon="3.85699">
        <ele>1113.3654785156</ele>
        <time>2020-10-16T09:36:42.058Z</time>
      </trkpt>
      <trkpt lat="44.67739" lon="3.85708">
        <ele>1112.1748046875</ele>
        <time>2020-10-16T09:36:44.899Z</time>
      </trkpt>
      <trkpt lat="44.67738" lon="3.85719">
        <ele>1110.5994873047</ele>
        <time>2020-10-16T09:36:47.742Z</time>
      </trkpt>
      <trkpt lat="44.67738" lon="3.85731">
        <ele>1108.6630859375</ele>
        <time>2020-10-16T09:36:50.586Z</time>
      </trkpt>
      <trkpt lat="44.67738" lon="3.85732">
        <ele>1108.5147705078</ele>
        <time>2020-10-16T09:36:53.430Z</time>
      </trkpt>
      <trkpt lat="44.67738" lon="3.85745">
        <ele>1106.0825195312</ele>
        <time>2020-10-16T09:36:56.276Z</time>
      </trkpt>
      <trkpt lat="44.67739" lon="3.8576">
        <ele>1103.5111083984</ele>
        <time>2020-10-16T09:36:59.125Z</time>
      </trkpt>
      <trkpt lat="44.67739" lon="3.85772">
        <ele>1101.4283447266</ele>
        <time>2020-10-16T09:37:01.975Z</time>
      </trkpt>
      <trkpt lat="44.6774" lon="3.85788">
        <ele>1099.1619873047</ele>
        <time>2020-10-16T09:37:04.828Z</time>
      </trkpt>
      <trkpt lat="44.6774" lon="3.858">
        <ele>1097.4816894531</ele>
        <time>2020-10-16T09:37:07.682Z</time>
      </trkpt>
      <trkpt lat="44.6774" lon="3.85809">
        <ele>1096.2630615234</ele>
        <time>2020-10-16T09:37:10.537Z</time>
      </trkpt>
      <trkpt lat="44.6774" lon="3.8581">
        <ele>1096.0786132812</ele>
        <time>2020-10-16T09:37:13.393Z</time>
      </trkpt>
      <trkpt lat="44.67738" lon="3.85822">
        <ele>1094.4321289062</ele>
        <time>2020-10-16T09:37:16.250Z</time>
      </trkpt>
      <trkpt lat="44.67735" lon="3.8584">
        <ele>1091.9779052734</ele>
        <time>2020-10-16T09:37:19.110Z</time>
      </trkpt>
      <trkpt lat="44.67732" lon="3.85855">
        <ele>1089.8280029297</ele>
        <time>2020-10-16T09:37:21.972Z</time>
      </trkpt>
      <trkpt lat="44.67728" lon="3.85869">
        <ele>1087.7142333984</ele>
        <time>2020-10-16T09:37:24.836Z</time>
      </trkpt>
      <trkpt lat="44.67727" lon="3.85882">
        <ele>1086.0234375</ele>
        <time>2020-10-16T09:37:27.702Z</time>
      </trkpt>
      <trkpt lat="44.67725" lon="3.85896">
        <ele>1085.3492431641</ele>
        <time>2020-10-16T09:37:30.570Z</time>
      </trkpt>
      <trkpt lat="44.67723" lon="3.85904">
        <ele>1084.9189453125</ele>
        <time>2020-10-16T09:37:33.440Z</time>
      </trkpt>
      <trkpt lat="44.67718" lon="3.85914">
        <ele>1084.4157714844</ele>
        <time>2020-10-16T09:37:36.311Z</time>
      </trkpt>
      <trkpt lat="44.67712" lon="3.85923">
        <ele>1083.9172363281</ele>
        <time>2020-10-16T09:37:39.184Z</time>
      </trkpt>
      <trkpt lat="44.67724" lon="3.85934">
        <ele>1083.5063476562</ele>
        <time>2020-10-16T09:37:42.060Z</time>
      </trkpt>
      <trkpt lat="44.67745" lon="3.85944">
        <ele>1083.0534667969</ele>
        <time>2020-10-16T09:37:44.940Z</time>
      </trkpt>
      <trkpt lat="44.67783" lon="3.85952">
        <ele>1082.5880126953</ele>
        <time>2020-10-16T09:37:47.828Z</time>
      </trkpt>
      <trkpt lat="44.67823" lon="3.85951">
        <ele>1081.9807128906</ele>
        <time>2020-10-16T09:37:50.724Z</time>
      </trkpt>
      <trkpt lat="44.67837" lon="3.85957">
        <ele>1081.0335693359</ele>
        <time>2020-10-16T09:37:53.623Z</time>
      </trkpt>
      <trkpt lat="44.67853" lon="3.85986">
        <ele>1076.2244873047</ele>
        <time>2020-10-16T09:37:56.527Z</time>
      </trkpt>
      <trkpt lat="44.67877" lon="3.86005">
        <ele>1073.6573486328</ele>
        <time>2020-10-16T09:37:59.437Z</time>
      </trkpt>
      <trkpt lat="44.67906" lon="3.86021">
        <ele>1073.7282714844</ele>
        <time>2020-10-16T09:38:02.353Z</time>
      </trkpt>
      <trkpt lat="44.67926" lon="3.86032">
        <ele>1073.9624023438</ele>
        <time>2020-10-16T09:38:05.273Z</time>
      </trkpt>
      <trkpt lat="44.6796" lon="3.86077">
        <ele>1070.5694580078</ele>
        <time>2020-10-16T09:38:08.202Z</time>
      </trkpt>
      <trkpt lat="44.68012" lon="3.86142">
        <ele>1068.3953857422</ele>
        <time>2020-10-16T09:38:11.145Z</time>
      </trkpt>
      <trkpt lat="44.68032" lon="3.86167">
        <ele>1067.6932373047</ele>
        <time>2020-10-16T09:38:14.094Z</time>
      </trkpt>
      <trkpt lat="44.68054" lon="3.86178">
        <ele>1069.5447998047</ele>
        <time>2020-10-16T09:38:17.047Z</time>
      </trkpt>
      <trkpt lat="44.68081" lon="3.86186">
        <ele>1072.9721679688</ele>
        <time>2020-10-16T09:38:20.006Z</time>
      </trkpt>
      <trkpt lat="44.68117" lon="3.86188">
        <ele>1078.8609619141</ele>
        <time>2020-10-16T09:38:22.972Z</time>
      </trkpt>
      <trkpt lat="44.68159" lon="3.8618">
        <ele>1082.0974121094</ele>
        <time>2020-10-16T09:38:25.947Z</time>
      </trkpt>
      <trkpt lat="44.68196" lon="3.86161">
        <ele>1087.7458496094</ele>
        <time>2020-10-16T09:38:28.929Z</time>
      </trkpt>
      <trkpt lat="44.68203" lon="3.86158">
        <ele>1089.1046142578</ele>
        <time>2020-10-16T09:38:31.913Z</time>
      </trkpt>
      <trkpt lat="44.6825" lon="3.86135">
        <ele>1090.0213623047</ele>
        <time>2020-10-16T09:38:34.907Z</time>
      </trkpt>
      <trkpt lat="44.68274" lon="3.86126">
        <ele>1090.1728515625</ele>
        <time>2020-10-16T09:38:37.906Z</time>
      </trkpt>
      <trkpt lat="44.68324" lon="3.86111">
        <ele>1089.9840087891</ele>
        <time>2020-10-16T09:38:40.915Z</time>
      </trkpt>
      <trkpt lat="44.68383" lon="3.86112">
        <ele>1087.1463623047</ele>
        <time>2020-10-16T09:38:43.936Z</time>
      </trkpt>
      <trkpt lat="44.68446" lon="3.861">
        <ele>1088.0655517578</ele>
        <time>2020-10-16T09:38:46.970Z</time>
      </trkpt>
      <trkpt lat="44.68498" lon="3.86098">
        <ele>1085.3214111328</ele>
        <time>2020-10-16T09:38:50.014Z</time>
      </trkpt>
      <trkpt lat="44.68504" lon="3.86097">
        <ele>1085.0222167969</ele>
        <time>2020-10-16T09:38:53.059Z</time>
      </trkpt>
      <trkpt lat="44.68518" lon="3.86097">
        <ele>1084.2255859375</ele>
        <time>2020-10-16T09:38:56.107Z</time>
      </trkpt>
      <trkpt lat="44.68546" lon="3.86088">
        <ele>1083.0240478516</ele>
        <time>2020-10-16T09:38:59.161Z</time>
      </trkpt>
      <trkpt lat="44.68588" lon="3.86063">
        <ele>1082.30859375</ele>
        <time>2020-10-16T09:39:02.224Z</time>
      </trkpt>
      <trkpt lat="44.6865" lon="3.86034">
        <ele>1076.9685058594</ele>
        <time>2020-10-16T09:39:05.300Z</time>
      </trkpt>
      <trkpt lat="44.68668" lon="3.86039">
        <ele>1075.7496337891</ele>
        <time>2020-10-16T09:39:08.380Z</time>
      </trkpt>
      <trkpt lat="44.68685" lon="3.8604">
        <ele>1074.4022216797</ele>
        <time>2020-10-16T09:39:11.463Z</time>
      </trkpt>
      <trkpt lat="44.68713" lon="3.86032">
        <ele>1072.4844970703</ele>
        <time>2020-10-16T09:39:14.552Z</time>
      </trkpt>
      <trkpt lat="44.68729" lon="3.86025">
        <ele>1070.984375</ele>
        <time>2020-10-16T09:39:17.644Z</time>
      </trkpt>
      <trkpt lat="44.68751" lon="3.86014">
        <ele>1070.4295654297</ele>
        <time>2020-10-16T09:39:20.741Z</time>
      </trkpt>
      <trkpt lat="44.68772" lon="3.85991">
        <ele>1070.5831298828</ele>
        <time>2020-10-16T09:39:23.843Z</time>
      </trkpt>
      <trkpt lat="44.6878" lon="3.85989">
        <ele>1069.8953857422</ele>
        <time>2020-10-16T09:39:26.947Z</time>
      </trkpt>
      <trkpt lat="44.68843" lon="3.8597">
        <ele>1066.9870605469</ele>
        <time>2020-10-16T09:39:30.064Z</time>
      </trkpt>
      <trkpt lat="44.68896" lon="3.85969">
        <ele>1062.5925292969</ele>
        <time>2020-10-16T09:39:33.191Z</time>
      </trkpt>
      <trkpt lat="44.68912" lon="3.85966">
        <ele>1059.9248046875</ele>
        <time>2020-10-16T09:39:36.321Z</time>
      </trkpt>
      <trkpt lat="44.6901" lon="3.85915">
        <ele>1044.8776855469</ele>
        <time>2020-10-16T09:39:39.472Z</time>
      </trkpt>
      <trkpt lat="44.69054" lon="3.85886">
        <ele>1034.4096679688</ele>
        <time>2020-10-16T09:39:42.633Z</time>
      </trkpt>
      <trkpt lat="44.69083" lon="3.85877">
        <ele>1028.7368164062</ele>
        <time>2020-10-16T09:39:45.800Z</time>
      </trkpt>
      <trkpt lat="44.69163" lon="3.85929">
        <ele>1017.9281616211</ele>
        <time>2020-10-16T09:39:48.985Z</time>
      </trkpt>
      <trkpt lat="44.69199" lon="3.85936">
        <ele>1009.8350830078</ele>
        <time>2020-10-16T09:39:52.177Z</time>
      </trkpt>
      <trkpt lat="44.69211" lon="3.85945">
        <ele>1007.7001953125</ele>
        <time>2020-10-16T09:39:55.372Z</time>
      </trkpt>
      <trkpt lat="44.69226" lon="3.85966">
        <ele>1005.908996582</ele>
        <time>2020-10-16T09:39:58.571Z</time>
      </trkpt>
      <trkpt lat="44.69229" lon="3.85964">
        <ele>1004.6952514648</ele>
        <time>2020-10-16T09:40:01.770Z</time>
      </trkpt>
      <trkpt lat="44.69229" lon="3.85945">
        <ele>1004.0227050781</ele>
        <time>2020-10-16T09:40:04.972Z</time>
      </trkpt>
      <trkpt lat="44.6923" lon="3.85922">
        <ele>1001.6614379883</ele>
        <time>2020-10-16T09:40:08.178Z</time>
      </trkpt>
      <trkpt lat="44.69235" lon="3.85904">
        <ele>998.63177490234</ele>
        <time>2020-10-16T09:40:11.386Z</time>
      </trkpt>
      <trkpt lat="44.69245" lon="3.85893">
        <ele>996.11999511719</ele>
        <time>2020-10-16T09:40:14.597Z</time>
      </trkpt>
      <trkpt lat="44.69248" lon="3.85883">
        <ele>996.13690185547</ele>
        <time>2020-10-16T09:40:17.809Z</time>
      </trkpt>
      <trkpt lat="44.69259" lon="3.85853">
        <ele>996.31079101562</ele>
        <time>2020-10-16T09:40:21.026Z</time>
      </trkpt>
      <trkpt lat="44.69262" lon="3.85846">
        <ele>996.77941894531</ele>
        <time>2020-10-16T09:40:24.244Z</time>
      </trkpt>
      <trkpt lat="44.69265" lon="3.85841">
        <ele>997.00695800781</ele>
        <time>2020-10-16T09:40:27.463Z</time>
      </trkpt>
      <trkpt lat="44.6927" lon="3.85838">
        <ele>996.85522460938</ele>
        <time>2020-10-16T09:40:30.683Z</time>
      </trkpt>
      <trkpt lat="44.69274" lon="3.85836">
        <ele>996.38165283203</ele>
        <time>2020-10-16T09:40:33.904Z</time>
      </trkpt>
      <trkpt lat="44.69279" lon="3.85836">
        <ele>995.74963378906</ele>
        <time>2020-10-16T09:40:37.126Z</time>
      </trkpt>
      <trkpt lat="44.69283" lon="3.85838">
        <ele>995.1494140625</ele>
        <time>2020-10-16T09:40:40.349Z</time>
      </trkpt>
      <trkpt lat="44.69286" lon="3.85843">
        <ele>994.50250244141</ele>
        <time>2020-10-16T09:40:43.573Z</time>
      </trkpt>
      <trkpt lat="44.69289" lon="3.85851">
        <ele>994.54888916016</ele>
        <time>2020-10-16T09:40:46.798Z</time>
      </trkpt>
      <trkpt lat="44.69295" lon="3.85873">
        <ele>994.46203613281</ele>
        <time>2020-10-16T09:40:50.027Z</time>
      </trkpt>
      <trkpt lat="44.69301" lon="3.85899">
        <ele>994.51086425781</ele>
        <time>2020-10-16T09:40:53.260Z</time>
      </trkpt>
      <trkpt lat="44.69307" lon="3.85916">
        <ele>994.73095703125</ele>
        <time>2020-10-16T09:40:56.495Z</time>
      </trkpt>
      <trkpt lat="44.69312" lon="3.85923">
        <ele>995.11151123047</ele>
        <time>2020-10-16T09:40:59.732Z</time>
      </trkpt>
      <trkpt lat="44.6932" lon="3.85928">
        <ele>995.86041259766</ele>
        <time>2020-10-16T09:41:02.971Z</time>
      </trkpt>
      <trkpt lat="44.6933" lon="3.8593">
        <ele>996.90679931641</ele>
        <time>2020-10-16T09:41:06.212Z</time>
      </trkpt>
      <trkpt lat="44.6934" lon="3.85928">
        <ele>997.99633789062</ele>
        <time>2020-10-16T09:41:09.455Z</time>
      </trkpt>
      <trkpt lat="44.69349" lon="3.85924">
        <ele>999.05798339844</ele>
        <time>2020-10-16T09:41:12.699Z</time>
      </trkpt>
      <trkpt lat="44.69368" lon="3.85915">
        <ele>1001.8804321289</ele>
        <time>2020-10-16T09:41:15.947Z</time>
      </trkpt>
      <trkpt lat="44.69384" lon="3.85914">
        <ele>1003.4233398438</ele>
        <time>2020-10-16T09:41:19.199Z</time>
      </trkpt>
      <trkpt lat="44.69394" lon="3.85914">
        <ele>1004.2672119141</ele>
        <time>2020-10-16T09:41:22.453Z</time>
      </trkpt>
      <trkpt lat="44.69405" lon="3.85915">
        <ele>1005.1463012695</ele>
        <time>2020-10-16T09:41:25.709Z</time>
      </trkpt>
      <trkpt lat="44.69414" lon="3.85918">
        <ele>1005.7547607422</ele>
        <time>2020-10-16T09:41:28.967Z</time>
      </trkpt>
      <trkpt lat="44.69431" lon="3.85928">
        <ele>1006.6405029297</ele>
        <time>2020-10-16T09:41:32.228Z</time>
      </trkpt>
      <trkpt lat="44.69457" lon="3.8594">
        <ele>1008.2498168945</ele>
        <time>2020-10-16T09:41:35.495Z</time>
      </trkpt>
      <trkpt lat="44.69467" lon="3.85943">
        <ele>1008.922668457</ele>
        <time>2020-10-16T09:41:38.764Z</time>
      </trkpt>
      <trkpt lat="44.69486" lon="3.85945">
        <ele>1010.2265014648</ele>
        <time>2020-10-16T09:41:42.037Z</time>
      </trkpt>
      <trkpt lat="44.69532" lon="3.85954">
        <ele>1013.2872314453</ele>
        <time>2020-10-16T09:41:45.319Z</time>
      </trkpt>
      <trkpt lat="44.69587" lon="3.85965">
        <ele>1013.6972045898</ele>
        <time>2020-10-16T09:41:48.612Z</time>
      </trkpt>
      <trkpt lat="44.69624" lon="3.8597">
        <ele>1013.4340820312</ele>
        <time>2020-10-16T09:41:51.913Z</time>
      </trkpt>
      <trkpt lat="44.69645" lon="3.85972">
        <ele>1012.3887329102</ele>
        <time>2020-10-16T09:41:55.218Z</time>
      </trkpt>
      <trkpt lat="44.69672" lon="3.85967">
        <ele>1010.8874511719</ele>
        <time>2020-10-16T09:41:58.528Z</time>
      </trkpt>
      <trkpt lat="44.69691" lon="3.85958">
        <ele>1009.7327270508</ele>
        <time>2020-10-16T09:42:01.842Z</time>
      </trkpt>
      <trkpt lat="44.69718" lon="3.85941">
        <ele>1008.7116088867</ele>
        <time>2020-10-16T09:42:05.162Z</time>
      </trkpt>
      <trkpt lat="44.69765" lon="3.85907">
        <ele>1007.7635498047</ele>
        <time>2020-10-16T09:42:08.493Z</time>
      </trkpt>
      <trkpt lat="44.69809" lon="3.85881">
        <ele>1006.4682006836</ele>
        <time>2020-10-16T09:42:11.833Z</time>
      </trkpt>
      <trkpt lat="44.6984" lon="3.85863">
        <ele>1007.3818359375</ele>
        <time>2020-10-16T09:42:15.180Z</time>
      </trkpt>
      <trkpt lat="44.69896" lon="3.85833">
        <ele>1007.6317138672</ele>
        <time>2020-10-16T09:42:18.539Z</time>
      </trkpt>
      <trkpt lat="44.69922" lon="3.85818">
        <ele>1006.9768066406</ele>
        <time>2020-10-16T09:42:21.904Z</time>
      </trkpt>
      <trkpt lat="44.69959" lon="3.85805">
        <ele>1005.6167602539</ele>
        <time>2020-10-16T09:42:25.276Z</time>
      </trkpt>
      <trkpt lat="44.69989" lon="3.85797">
        <ele>1005.1369628906</ele>
        <time>2020-10-16T09:42:28.654Z</time>
      </trkpt>
      <trkpt lat="44.70031" lon="3.85788">
        <ele>1002.8612060547</ele>
        <time>2020-10-16T09:42:32.041Z</time>
      </trkpt>
      <trkpt lat="44.70063" lon="3.85782">
        <ele>1001.4837646484</ele>
        <time>2020-10-16T09:42:35.434Z</time>
      </trkpt>
      <trkpt lat="44.70096" lon="3.85776">
        <ele>1000.606628418</ele>
        <time>2020-10-16T09:42:38.834Z</time>
      </trkpt>
      <trkpt lat="44.70154" lon="3.85754">
        <ele>997.50854492188</ele>
        <time>2020-10-16T09:42:42.246Z</time>
      </trkpt>
      <trkpt lat="44.70183" lon="3.85744">
        <ele>995.61322021484</ele>
        <time>2020-10-16T09:42:45.664Z</time>
      </trkpt>
      <trkpt lat="44.70244" lon="3.85719">
        <ele>991.35321044922</ele>
        <time>2020-10-16T09:42:49.095Z</time>
      </trkpt>
      <trkpt lat="44.70262" lon="3.85712">
        <ele>989.85632324219</ele>
        <time>2020-10-16T09:42:52.529Z</time>
      </trkpt>
      <trkpt lat="44.70331" lon="3.85689">
        <ele>985.94091796875</ele>
        <time>2020-10-16T09:42:55.978Z</time>
      </trkpt>
      <trkpt lat="44.70356" lon="3.85681">
        <ele>985.24499511719</ele>
        <time>2020-10-16T09:42:59.432Z</time>
      </trkpt>
      <trkpt lat="44.7038" lon="3.85679">
        <ele>984.13763427734</ele>
        <time>2020-10-16T09:43:02.891Z</time>
      </trkpt>
      <trkpt lat="44.70412" lon="3.85675">
        <ele>981.80084228516</ele>
        <time>2020-10-16T09:43:06.356Z</time>
      </trkpt>
      <trkpt lat="44.70428" lon="3.85675">
        <ele>980.66754150391</ele>
        <time>2020-10-16T09:43:09.824Z</time>
      </trkpt>
      <trkpt lat="44.70454" lon="3.85677">
        <ele>979.22039794922</ele>
        <time>2020-10-16T09:43:13.297Z</time>
      </trkpt>
      <trkpt lat="44.70472" lon="3.85674">
        <ele>978.05694580078</ele>
        <time>2020-10-16T09:43:16.774Z</time>
      </trkpt>
      <trkpt lat="44.70497" lon="3.8567">
        <ele>976.35852050781</ele>
        <time>2020-10-16T09:43:20.256Z</time>
      </trkpt>
      <trkpt lat="44.7056" lon="3.85653">
        <ele>975.640625</ele>
        <time>2020-10-16T09:43:23.751Z</time>
      </trkpt>
      <trkpt lat="44.70571" lon="3.85649">
        <ele>975.93060302734</ele>
        <time>2020-10-16T09:43:27.248Z</time>
      </trkpt>
      <trkpt lat="44.70593" lon="3.85644">
        <ele>975.82690429688</ele>
        <time>2020-10-16T09:43:30.750Z</time>
      </trkpt>
      <trkpt lat="44.70606" lon="3.85645">
        <ele>975.4619140625</ele>
        <time>2020-10-16T09:43:34.254Z</time>
      </trkpt>
      <trkpt lat="44.70619" lon="3.85653">
        <ele>974.78295898438</ele>
        <time>2020-10-16T09:43:37.761Z</time>
      </trkpt>
      <trkpt lat="44.70638" lon="3.85668">
        <ele>974.89556884766</ele>
        <time>2020-10-16T09:43:41.272Z</time>
      </trkpt>
      <trkpt lat="44.70657" lon="3.85685">
        <ele>974.94982910156</ele>
        <time>2020-10-16T09:43:44.788Z</time>
      </trkpt>
      <trkpt lat="44.70664" lon="3.85684">
        <ele>975.33367919922</ele>
        <time>2020-10-16T09:43:48.305Z</time>
      </trkpt>
      <trkpt lat="44.70671" lon="3.85684">
        <ele>975.70336914062</ele>
        <time>2020-10-16T09:43:51.824Z</time>
      </trkpt>
      <trkpt lat="44.70681" lon="3.85684">
        <ele>976.14038085938</ele>
        <time>2020-10-16T09:43:55.345Z</time>
      </trkpt>
      <trkpt lat="44.70701" lon="3.85691">
        <ele>976.86065673828</ele>
        <time>2020-10-16T09:43:58.870Z</time>
      </trkpt>
      <trkpt lat="44.70718" lon="3.85694">
        <ele>977.47534179688</ele>
        <time>2020-10-16T09:44:02.398Z</time>
      </trkpt>
      <trkpt lat="44.70742" lon="3.85694">
        <ele>978.33538818359</ele>
        <time>2020-10-16T09:44:05.931Z</time>
      </trkpt>
      <trkpt lat="44.70763" lon="3.85692">
        <ele>979.11938476562</ele>
        <time>2020-10-16T09:44:09.468Z</time>
      </trkpt>
      <trkpt lat="44.70787" lon="3.85689">
        <ele>980.00714111328</ele>
        <time>2020-10-16T09:44:13.010Z</time>
      </trkpt>
      <trkpt lat="44.70812" lon="3.85682">
        <ele>978.95501708984</ele>
        <time>2020-10-16T09:44:16.557Z</time>
      </trkpt>
      <trkpt lat="44.70873" lon="3.85669">
        <ele>976.56616210938</ele>
        <time>2020-10-16T09:44:20.117Z</time>
      </trkpt>
      <trkpt lat="44.70929" lon="3.85655">
        <ele>973.61602783203</ele>
        <time>2020-10-16T09:44:23.688Z</time>
      </trkpt>
      <trkpt lat="44.7098" lon="3.85643">
        <ele>971.47814941406</ele>
        <time>2020-10-16T09:44:27.269Z</time>
      </trkpt>
      <trkpt lat="44.71002" lon="3.85639">
        <ele>971.41058349609</ele>
        <time>2020-10-16T09:44:30.855Z</time>
      </trkpt>
      <trkpt lat="44.71018" lon="3.85638">
        <ele>971.44677734375</ele>
        <time>2020-10-16T09:44:34.444Z</time>
      </trkpt>
      <trkpt lat="44.71048" lon="3.85638">
        <ele>971.59161376953</ele>
        <time>2020-10-16T09:44:38.039Z</time>
      </trkpt>
      <trkpt lat="44.71107" lon="3.85644">
        <ele>971.63458251953</ele>
        <time>2020-10-16T09:44:41.646Z</time>
      </trkpt>
      <trkpt lat="44.7115" lon="3.85649">
        <ele>971.80352783203</ele>
        <time>2020-10-16T09:44:45.261Z</time>
      </trkpt>
      <trkpt lat="44.7116" lon="3.85652">
        <ele>971.83197021484</ele>
        <time>2020-10-16T09:44:48.878Z</time>
      </trkpt>
      <trkpt lat="44.71187" lon="3.8566">
        <ele>971.71441650391</ele>
        <time>2020-10-16T09:44:52.501Z</time>
      </trkpt>
      <trkpt lat="44.71203" lon="3.85665">
        <ele>971.57873535156</ele>
        <time>2020-10-16T09:44:56.127Z</time>
      </trkpt>
      <trkpt lat="44.71212" lon="3.85667">
        <ele>971.22924804688</ele>
        <time>2020-10-16T09:44:59.755Z</time>
      </trkpt>
      <trkpt lat="44.71223" lon="3.85668">
        <ele>970.82525634766</ele>
        <time>2020-10-16T09:45:03.385Z</time>
      </trkpt>
      <trkpt lat="44.7125" lon="3.85665">
        <ele>969.92016601562</ele>
        <time>2020-10-16T09:45:07.021Z</time>
      </trkpt>
      <trkpt lat="44.71278" lon="3.85663">
        <ele>968.93231201172</ele>
        <time>2020-10-16T09:45:10.662Z</time>
      </trkpt>
      <trkpt lat="44.71333" lon="3.85661">
        <ele>965.91009521484</ele>
        <time>2020-10-16T09:45:14.314Z</time>
      </trkpt>
      <trkpt lat="44.7138" lon="3.85657">
        <ele>962.65649414062</ele>
        <time>2020-10-16T09:45:17.976Z</time>
      </trkpt>
      <trkpt lat="44.71389" lon="3.85657">
        <ele>962.32580566406</ele>
        <time>2020-10-16T09:45:21.640Z</time>
      </trkpt>
      <trkpt lat="44.714" lon="3.85656">
        <ele>961.9345703125</ele>
        <time>2020-10-16T09:45:25.306Z</time>
      </trkpt>
      <trkpt lat="44.71412" lon="3.85653">
        <ele>961.51306152344</ele>
        <time>2020-10-16T09:45:28.974Z</time>
      </trkpt>
      <trkpt lat="44.71435" lon="3.85647">
        <ele>961.52746582031</ele>
        <time>2020-10-16T09:45:32.647Z</time>
      </trkpt>
      <trkpt lat="44.71461" lon="3.8564">
        <ele>961.849609375</ele>
        <time>2020-10-16T09:45:36.325Z</time>
      </trkpt>
      <trkpt lat="44.71478" lon="3.85638">
        <ele>962.15447998047</ele>
        <time>2020-10-16T09:45:40.007Z</time>
      </trkpt>
      <trkpt lat="44.715" lon="3.85635">
        <ele>962.48937988281</ele>
        <time>2020-10-16T09:45:43.693Z</time>
      </trkpt>
      <trkpt lat="44.71536" lon="3.8563">
        <ele>963.1298828125</ele>
        <time>2020-10-16T09:45:47.386Z</time>
      </trkpt>
      <trkpt lat="44.71564" lon="3.85624">
        <ele>963.67321777344</ele>
        <time>2020-10-16T09:45:51.085Z</time>
      </trkpt>
      <trkpt lat="44.71595" lon="3.85617">
        <ele>963.29864501953</ele>
        <time>2020-10-16T09:45:54.790Z</time>
      </trkpt>
      <trkpt lat="44.71634" lon="3.85606">
        <ele>962.52124023438</ele>
        <time>2020-10-16T09:45:58.503Z</time>
      </trkpt>
      <trkpt lat="44.71639" lon="3.85603">
        <ele>962.37768554688</ele>
        <time>2020-10-16T09:46:02.217Z</time>
      </trkpt>
      <trkpt lat="44.71645" lon="3.85601">
        <ele>962.25347900391</ele>
        <time>2020-10-16T09:46:05.932Z</time>
      </trkpt>
      <trkpt lat="44.71648" lon="3.85598">
        <ele>962.189453125</ele>
        <time>2020-10-16T09:46:09.648Z</time>
      </trkpt>
      <trkpt lat="44.71648" lon="3.85598">
        <ele>962.18902587891</ele>
        <time>2020-10-16T09:46:13.364Z</time>
      </trkpt>
      <trkpt lat="44.71658" lon="3.856">
        <ele>961.79638671875</ele>
        <time>2020-10-16T09:46:17.082Z</time>
      </trkpt>
      <trkpt lat="44.71688" lon="3.85599">
        <ele>960.74395751953</ele>
        <time>2020-10-16T09:46:20.806Z</time>
      </trkpt>
      <trkpt lat="44.71719" lon="3.856">
        <ele>958.86138916016</ele>
        <time>2020-10-16T09:46:24.536Z</time>
      </trkpt>
      <trkpt lat="44.71734" lon="3.856">
        <ele>957.97760009766</ele>
        <time>2020-10-16T09:46:28.269Z</time>
      </trkpt>
      <trkpt lat="44.71795" lon="3.85605">
        <ele>954.56890869141</ele>
        <time>2020-10-16T09:46:32.015Z</time>
      </trkpt>
      <trkpt lat="44.71821" lon="3.85608">
        <ele>953.37677001953</ele>
        <time>2020-10-16T09:46:35.766Z</time>
      </trkpt>
      <trkpt lat="44.71863" lon="3.85613">
        <ele>951.41845703125</ele>
        <time>2020-10-16T09:46:39.525Z</time>
      </trkpt>
      <trkpt lat="44.71874" lon="3.85613">
        <ele>950.90069580078</ele>
        <time>2020-10-16T09:46:43.286Z</time>
      </trkpt>
      <trkpt lat="44.71883" lon="3.85612">
        <ele>950.46356201172</ele>
        <time>2020-10-16T09:46:47.049Z</time>
      </trkpt>
      <trkpt lat="44.71894" lon="3.8561">
        <ele>949.91638183594</ele>
        <time>2020-10-16T09:46:50.814Z</time>
      </trkpt>
      <trkpt lat="44.71929" lon="3.85599">
        <ele>947.94403076172</ele>
        <time>2020-10-16T09:46:54.587Z</time>
      </trkpt>
      <trkpt lat="44.71962" lon="3.85587">
        <ele>945.60052490234</ele>
        <time>2020-10-16T09:46:58.366Z</time>
      </trkpt>
      <trkpt lat="44.71984" lon="3.85581">
        <ele>943.98223876953</ele>
        <time>2020-10-16T09:47:02.150Z</time>
      </trkpt>
      <trkpt lat="44.71991" lon="3.8558">
        <ele>943.52325439453</ele>
        <time>2020-10-16T09:47:05.935Z</time>
      </trkpt>
      <trkpt lat="44.72002" lon="3.85579">
        <ele>942.85131835938</ele>
        <time>2020-10-16T09:47:09.723Z</time>
      </trkpt>
      <trkpt lat="44.72015" lon="3.85581">
        <ele>942.19952392578</ele>
        <time>2020-10-16T09:47:13.513Z</time>
      </trkpt>
      <trkpt lat="44.72047" lon="3.85584">
        <ele>941.48114013672</ele>
        <time>2020-10-16T09:47:17.310Z</time>
      </trkpt>
      <trkpt lat="44.7206" lon="3.85585">
        <ele>941.4990234375</ele>
        <time>2020-10-16T09:47:21.109Z</time>
      </trkpt>
      <trkpt lat="44.72073" lon="3.85585">
        <ele>941.49853515625</ele>
        <time>2020-10-16T09:47:24.911Z</time>
      </trkpt>
      <trkpt lat="44.72083" lon="3.85583">
        <ele>941.45678710938</ele>
        <time>2020-10-16T09:47:28.715Z</time>
      </trkpt>
      <trkpt lat="44.72093" lon="3.8558">
        <ele>941.38580322266</ele>
        <time>2020-10-16T09:47:32.521Z</time>
      </trkpt>
      <trkpt lat="44.72139" lon="3.85562">
        <ele>938.53564453125</ele>
        <time>2020-10-16T09:47:36.336Z</time>
      </trkpt>
      <trkpt lat="44.72164" lon="3.85556">
        <ele>936.84033203125</ele>
        <time>2020-10-16T09:47:40.156Z</time>
      </trkpt>
      <trkpt lat="44.7219" lon="3.85552">
        <ele>935.82971191406</ele>
        <time>2020-10-16T09:47:43.982Z</time>
      </trkpt>
      <trkpt lat="44.7219" lon="3.85553">
        <ele>935.86077880859</ele>
        <time>2020-10-16T09:47:47.808Z</time>
      </trkpt>
      <trkpt lat="44.7219" lon="3.85553">
        <ele>935.86047363281</ele>
        <time>2020-10-16T09:47:51.634Z</time>
      </trkpt>
      <trkpt lat="44.72202" lon="3.8555">
        <ele>935.41021728516</ele>
        <time>2020-10-16T09:47:55.462Z</time>
      </trkpt>
      <trkpt lat="44.72202" lon="3.8555">
        <ele>935.40991210938</ele>
        <time>2020-10-16T09:47:59.290Z</time>
      </trkpt>
      <trkpt lat="44.72223" lon="3.8555">
        <ele>933.24670410156</ele>
        <time>2020-10-16T09:48:03.123Z</time>
      </trkpt>
      <trkpt lat="44.72249" lon="3.85564">
        <ele>930.59356689453</ele>
        <time>2020-10-16T09:48:06.961Z</time>
      </trkpt>
      <trkpt lat="44.72301" lon="3.85628">
        <ele>927.78076171875</ele>
        <time>2020-10-16T09:48:10.813Z</time>
      </trkpt>
      <trkpt lat="44.72306" lon="3.85627">
        <ele>927.7421875</ele>
        <time>2020-10-16T09:48:14.666Z</time>
      </trkpt>
      <trkpt lat="44.72331" lon="3.85622">
        <ele>925.23516845703</ele>
        <time>2020-10-16T09:48:18.524Z</time>
      </trkpt>
      <trkpt lat="44.72316" lon="3.85575">
        <ele>923.79595947266</ele>
        <time>2020-10-16T09:48:22.389Z</time>
      </trkpt>
      <trkpt lat="44.72278" lon="3.85529">
        <ele>926.26745605469</ele>
        <time>2020-10-16T09:48:26.265Z</time>
      </trkpt>
      <trkpt lat="44.72272" lon="3.85497">
        <ele>926.18157958984</ele>
        <time>2020-10-16T09:48:30.145Z</time>
      </trkpt>
      <trkpt lat="44.72271" lon="3.8542">
        <ele>922.84338378906</ele>
        <time>2020-10-16T09:48:34.036Z</time>
      </trkpt>
      <trkpt lat="44.72277" lon="3.85381">
        <ele>919.29058837891</ele>
        <time>2020-10-16T09:48:37.933Z</time>
      </trkpt>
      <trkpt lat="44.72289" lon="3.85363">
        <ele>916.31378173828</ele>
        <time>2020-10-16T09:48:41.833Z</time>
      </trkpt>
      <trkpt lat="44.72305" lon="3.85358">
        <ele>915.34020996094</ele>
        <time>2020-10-16T09:48:45.737Z</time>
      </trkpt>
      <trkpt lat="44.72319" lon="3.85363">
        <ele>914.78674316406</ele>
        <time>2020-10-16T09:48:49.644Z</time>
      </trkpt>
      <trkpt lat="44.72357" lon="3.85407">
        <ele>912.86871337891</ele>
        <time>2020-10-16T09:48:53.561Z</time>
      </trkpt>
    </trkseg>
  </trk>
</gpx>